Provisional Data: Chiques Creek near Route 283


Please select a monitoring station.
Please select start date.
Please select start date.

Toggle Unit: C/F Toggle Unit: C/F
Sample Time Temperature (C) Temperature (F) Specific Conductivity (mS/cm) pH   Turbidity (NTU+) DO (mg/L)
6/29/2021 12:00:00 AM 23.55 74.39 0.244 8.15 3.86 8.1
6/29/2021 12:15:00 AM 23.53 74.354 0.249 8.15 4.37 8.09
6/29/2021 12:30:00 AM 23.51 74.318 0.287 8.14 3.76 8.07
6/29/2021 12:45:00 AM 23.49 74.282 0.297 8.14 4.26 8.06
6/29/2021 1:00:00 AM 23.47 74.246 0.248 8.14 4 8.05
6/29/2021 1:15:00 AM 23.46 74.228 0.263 8.13 3.63 8.04
6/29/2021 1:30:00 AM 23.45 74.21 0.291 8.13 4.08 8.03
6/29/2021 1:45:00 AM 23.44 74.192 0.608 8.13 4.29 8
6/29/2021 2:00:00 AM 23.44 74.192 0.291 8.12 10.15 8.01
6/29/2021 2:15:00 AM 23.43 74.174 0.301 8.12 4.09 7.99
6/29/2021 2:30:00 AM 23.43 74.174 0.313 8.12 3.68 7.98
6/29/2021 2:45:00 AM 23.44 74.192 0.249 8.12 3.94 8
6/29/2021 3:00:00 AM 23.44 74.192 0.264 8.12 3.97 7.97
6/29/2021 3:15:00 AM 23.44 74.192 0.607 8.11 3.95 7.97
6/29/2021 3:30:00 AM 23.44 74.192 0.271 8.11 4.12 7.97
6/29/2021 3:45:00 AM 23.44 74.192 0.268 8.1 4.02 7.93
6/29/2021 4:00:00 AM 23.44 74.192 0.273 8.11 3.78 7.93
6/29/2021 4:15:00 AM 23.45 74.21 0.327 8.11 4.16 7.93
6/29/2021 4:30:00 AM 23.45 74.21 0.292 8.1 9.46 7.91
6/29/2021 4:45:00 AM 23.46 74.228 0.254 8.11 7.8 7.91
6/29/2021 5:00:00 AM 23.47 74.246 0.315 8.1 3.96 7.89
6/29/2021 5:15:00 AM 23.47 74.246 0.316 8.1 4.13 7.88
6/29/2021 5:30:00 AM 23.48 74.264 0.277 8.1 3.72 7.87
6/29/2021 5:45:00 AM 23.48 74.264 0.265 8.1 4.17 7.86
6/29/2021 6:00:00 AM 23.48 74.264 0.271 8.09 12.22 7.86
6/29/2021 6:15:00 AM 23.49 74.282 0.272 8.09 4.32 7.87
6/29/2021 6:30:00 AM 23.49 74.282 0.269 8.09 4.8 7.87
6/29/2021 6:45:00 AM 23.5 74.3 0.274 8.09 3.67 7.89
6/29/2021 7:00:00 AM 23.52 74.336 0.292 8.09 3.96 7.91
6/29/2021 7:15:00 AM 23.53 74.354 0.304 8.09 4.02 7.91
6/29/2021 7:30:00 AM 23.55 74.39 0.308 8.1 4.35 7.93
6/29/2021 7:45:00 AM 23.56 74.408 0.32 8.1 3.86 7.92
6/29/2021 8:00:00 AM 23.58 74.444 0.309 8.11 3.89 7.92
6/29/2021 8:15:00 AM 23.59 74.462 0.287 8.11 3.68 7.93
6/29/2021 8:30:00 AM 23.63 74.534 0.289 8.1 3.99 8.02
6/29/2021 8:45:00 AM 23.67 74.606 0.288 8.11 3.5 8.07
6/29/2021 9:00:00 AM 23.73 74.714 0.607 8.11 3.85 8.16
6/29/2021 9:15:00 AM 23.8 74.84 0.297 8.13 3.83 8.27
6/29/2021 9:30:00 AM 23.88 74.984 0.294 8.13 3.73 8.35
6/29/2021 9:45:00 AM 23.95 75.11 0.289 8.14 3.48 8.42
6/29/2021 10:00:00 AM 24.04 75.272 0.275 8.14 4.03 8.5
6/29/2021 10:15:00 AM 24.12 75.416 0.284 8.16 3.6 8.56
6/29/2021 10:30:00 AM 24.21 75.578 0.296 8.16 3.76 8.62
6/29/2021 10:45:00 AM 24.31 75.758 0.289 8.17 3.3 8.72
6/29/2021 11:00:00 AM 24.38 75.884 0.286 8.18 3.42 8.75
6/29/2021 11:15:00 AM 24.45 76.01 0.287 8.18 3.51 8.8
6/29/2021 11:30:00 AM 24.56 76.208 0.289 8.19 3.33 8.84
6/29/2021 11:45:00 AM 24.69 76.442 0.297 8.2 3.66 8.89
6/29/2021 12:00:00 PM 24.75 76.55 0.286 8.2 3.46 8.89
6/29/2021 12:15:00 PM 24.84 76.712 0.27 8.2 3.23 8.89
6/29/2021 12:30:00 PM 24.95 76.91 0.29 8.21 3.42 8.94
6/29/2021 12:45:00 PM 25.04 77.07201 0.274 8.22 3.15 8.95
6/29/2021 1:00:00 PM 25.13 77.234 0.277 8.22 3.36 8.87
6/29/2021 1:15:00 PM 25.32 77.576 0.277 8.24 3.14 8.96
6/29/2021 1:30:00 PM 25.36 77.648 0.283 8.23 3.55 8.93
6/29/2021 1:45:00 PM 25.27 77.486 0.611 8.24 3.07 8.89
6/29/2021 2:00:00 PM 25.18 77.324 0.296 8.24 3.08 8.74
6/29/2021 2:15:00 PM 25.27 77.486 0.25 8.26 3.29 8.92
6/29/2021 2:30:00 PM 25.35 77.63 0.297 8.28 3.07 9
6/29/2021 2:45:00 PM 25.42 77.756 0.244 8.28 3.2 9.02
6/29/2021 3:00:00 PM 25.35 77.63 0.273 8.28 3.13 8.95
6/29/2021 3:15:00 PM 25.32 77.576 0.291 8.29 2.87 8.87
6/29/2021 3:30:00 PM 25.3 77.54 0.311 8.29 3.65 8.82
6/29/2021 3:45:00 PM 25.26 77.468 0.289 8.3 3.07 8.91
6/29/2021 4:00:00 PM 25.28 77.504 0.239 8.3 3.5 8.87
6/29/2021 4:15:00 PM 25.28 77.504 0.265 8.31 3.16 8.92
6/29/2021 4:30:00 PM 25.35 77.63 0.61 8.33 2.96 8.94
6/29/2021 4:45:00 PM 25.44 77.792 0.25 8.34 3.56 8.93
6/29/2021 5:00:00 PM 25.42 77.756 0.297 8.34 3.4 8.92
6/29/2021 5:15:00 PM 25.4 77.72 0.301 8.36 3.24 8.95
6/29/2021 5:30:00 PM 25.3 77.54 0.279 8.35 3.1 8.92
6/29/2021 5:45:00 PM 25.21 77.378 0.285 8.35 3.15 8.87
6/29/2021 6:00:00 PM 25.25 77.45 0.276 8.34 3.07 8.84
6/29/2021 6:15:00 PM 25.21 77.378 0.61 8.34 3.35 8.78
6/29/2021 6:30:00 PM 25.17 77.306 0.274 8.34 3.17 8.72
6/29/2021 6:45:00 PM 25.13 77.234 0.61 8.34 3.16 8.65
6/29/2021 7:00:00 PM 25.08 77.144 0.277 8.32 3.26 8.58
6/29/2021 7:15:00 PM 25.04 77.07201 0.287 8.32 3.19 8.53
6/29/2021 7:30:00 PM 25 77 0.286 8.31 3.17 8.49
6/29/2021 7:45:00 PM 24.96 76.92799 0.277 8.3 3.5 8.44
6/29/2021 8:00:00 PM 24.91 76.838 0.241 8.3 4.2 8.4
6/29/2021 8:15:00 PM 24.89 76.802 0.282 8.29 3.45 8.36
6/29/2021 8:30:00 PM 24.87 76.766 0.253 8.29 3.73 8.29
6/29/2021 8:45:00 PM 24.85 76.73 0.291 8.27 3.56 8.25
6/29/2021 9:00:00 PM 24.86 76.748 0.294 8.27 3.51 8.22
6/29/2021 9:15:00 PM 24.86 76.748 0.26 8.26 3.63 8.18
6/29/2021 9:30:00 PM 24.81 76.658 0.287 8.25 3.76 8.18
6/29/2021 9:45:00 PM 24.76 76.568 0.289 8.25 3.98 8.15
6/29/2021 10:00:00 PM 24.7 76.46 0.295 8.23 4.32 8.15
6/29/2021 10:15:00 PM 24.66 76.388 0.307 8.23 4.16 8.12
6/29/2021 10:30:00 PM 24.61 76.298 0.3 8.22 4.34 8.12
6/29/2021 10:45:00 PM 24.57 76.226 0.307 8.21 5.28 8.08
6/29/2021 11:00:00 PM 24.51 76.118 0.608 8.2 3.33 8.06
6/29/2021 11:15:00 PM 24.49 76.082 0.242 8.19 4.06 8.04
6/29/2021 11:30:00 PM 24.47 76.046 0.263 8.19 4.48 7.98
6/29/2021 11:45:00 PM 24.45 76.01 0.301 8.18 3.76 7.98
6/30/2021 12:00:00 AM 24.43 75.974 0.28 8.17 3.67 7.96
6/30/2021 12:15:00 AM 24.4 75.92 0.275 8.16 3.28 7.93
6/30/2021 12:30:00 AM 24.37 75.866 0.276 8.14 3.48 7.92
6/30/2021 12:45:00 AM 24.34 75.812 0.276 8.14 3.32 7.89
6/30/2021 1:00:00 AM 24.32 75.776 0.605 8.12 3.42 7.85
6/30/2021 1:15:00 AM 24.29 75.722 0.265 8.12 3.84 7.85
6/30/2021 1:30:00 AM 24.27 75.686 0.274 8.12 4.05 7.82
6/30/2021 1:45:00 AM 24.27 75.686 0.281 8.11 3.83 7.79
6/30/2021 2:00:00 AM 24.25 75.65 0.283 8.12 3.77 7.79
6/30/2021 2:15:00 AM 24.26 75.668 0.276 8.11 4.07 7.78
6/30/2021 2:30:00 AM 24.25 75.65 0.271 8.09 4.09 7.75
6/30/2021 2:45:00 AM 24.25 75.65 0.268 8.1 3.71 7.76
6/30/2021 3:00:00 AM 24.25 75.65 0.278 8.09 4.12 7.75
6/30/2021 3:15:00 AM 24.24 75.632 0.278 8.1 3.67 7.74
6/30/2021 3:30:00 AM 24.24 75.632 0.276 8.1 5.99 7.74
6/30/2021 3:45:00 AM 24.23 75.614 0.244 8.1 4.74 7.72
6/30/2021 4:00:00 AM 24.23 75.614 0.304 8.1 4.37 7.72
6/30/2021 4:15:00 AM 24.23 75.614 0.257 8.1 3.98 7.71
6/30/2021 4:30:00 AM 24.22 75.596 0.264 8.09 4 7.72
6/30/2021 4:45:00 AM 24.21 75.578 0.269 8.09 4.01 7.7
6/30/2021 5:00:00 AM 24.2 75.56 0.261 8.1 4.03 7.68
6/30/2021 5:15:00 AM 24.2 75.56 0.28 8.09 4.22 7.68
6/30/2021 5:30:00 AM 24.19 75.542 0.308 8.09 4.14 7.66
6/30/2021 5:45:00 AM 24.19 75.542 0.298 8.1 3.81 7.66
6/30/2021 6:00:00 AM 24.18 75.524 0.267 8.08 3.48 7.66
6/30/2021 6:15:00 AM 24.19 75.542 0.313 8.1 3.75 7.68
6/30/2021 6:30:00 AM 24.19 75.542 0.253 8.09 3.9 7.69
6/30/2021 6:45:00 AM 24.19 75.542 0.28 8.09 3.51 7.68
6/30/2021 7:00:00 AM 24.21 75.578 0.309 8.09 3.5 7.72
6/30/2021 7:15:00 AM 24.24 75.632 0.269 8.09 3.36 7.78
6/30/2021 7:30:00 AM 24.26 75.668 0.308 8.1 4.21 7.78
6/30/2021 7:45:00 AM 24.26 75.668 0.281 8.1 3.63 7.74
6/30/2021 8:00:00 AM 24.27 75.686 0.283 8.09 3.46 7.75
6/30/2021 8:15:00 AM 24.3 75.74 0.284 8.1 3.9 7.8
6/30/2021 8:30:00 AM 24.34 75.812 0.317 8.11 4.09 7.93
6/30/2021 8:45:00 AM 24.4 75.92 0.286 8.12 3.56 8.1
6/30/2021 9:00:00 AM 24.46 76.028 0.241 8.14 3.61 8.12
6/30/2021 9:15:00 AM 24.51 76.118 0.594 8.13 3.93 8.14
6/30/2021 9:30:00 AM 24.62 76.316 0.244 8.15 3.84 8.26
6/30/2021 9:45:00 AM 24.7 76.46 0.326 8.15 3.92 8.3
6/30/2021 10:00:00 AM 24.81 76.658 0.242 8.17 3.48 8.45
6/30/2021 10:15:00 AM 24.87 76.766 0.245 8.18 3.12 8.51
6/30/2021 10:30:00 AM 24.92 76.856 0.261 8.17 3.17 8.49
6/30/2021 10:45:00 AM 25.04 77.07201 0.594 8.18 3.5 8.55
6/30/2021 11:00:00 AM 25.18 77.324 0.27 8.19 3.26 8.67
6/30/2021 11:15:00 AM 25.26 77.468 0.254 8.19 3.81 8.68
6/30/2021 11:30:00 AM 25.35 77.63 0.255 8.2 3.22 8.73
6/30/2021 11:45:00 AM 25.41 77.738 0.274 8.21 3.55 8.71
6/30/2021 12:00:00 PM 25.51 77.918 0.286 8.21 3.73 8.8
6/30/2021 12:15:00 PM 25.55 77.99 0.314 8.22 6.29 8.79
6/30/2021 12:30:00 PM 25.58 78.044 0.237 8.23 3.22 8.84
6/30/2021 12:45:00 PM 25.58 78.044 0.246 8.23 3.77 8.81
6/30/2021 1:00:00 PM 25.62 78.116 0.289 8.25 3.17 8.83
6/30/2021 1:15:00 PM 25.55 77.99 0.242 8.23 9.77 8.74
6/30/2021 1:30:00 PM 25.48 77.864 0.255 8.23 3.72 8.61
6/30/2021 1:45:00 PM 25.59 78.062 0.29 8.25 3.28 8.86
6/30/2021 2:00:00 PM 25.62 78.116 0.299 8.27 3.76 8.84
6/30/2021 2:15:00 PM 25.56 78.008 0.267 8.25 3.28 8.69
6/30/2021 2:30:00 PM 25.59 78.062 0.285 8.26 3.12 8.71
6/30/2021 2:45:00 PM 25.66 78.188 0.306 8.29 3.49 8.79
6/30/2021 3:00:00 PM 25.76 78.368 0.235 8.3 3.02 8.86
6/30/2021 3:15:00 PM 25.87 78.566 0.275 8.31 2.97 8.9
6/30/2021 3:30:00 PM 25.94 78.692 0.245 8.32 3.3 8.83
6/30/2021 3:45:00 PM 26.03 78.854 0.284 8.33 2.94 8.86
6/30/2021 4:00:00 PM 26.07 78.926 0.303 8.34 3.11 8.85
6/30/2021 4:15:00 PM 26.04 78.872 0.289 8.35 2.94 8.8
6/30/2021 4:30:00 PM 26.04 78.872 0.244 8.35 3.27 8.81
6/30/2021 4:45:00 PM 26.04 78.872 0.601 8.36 3.14 8.83
6/30/2021 5:00:00 PM 25.94 78.692 0.265 8.36 3 8.8
6/30/2021 5:15:00 PM 25.92 78.656 0.261 8.35 3.21 8.8
6/30/2021 5:30:00 PM 25.89 78.602 0.602 8.36 2.74 8.76
6/30/2021 5:45:00 PM 25.84 78.512 0.267 8.34 3.3 8.73
6/30/2021 6:00:00 PM 25.77 78.386 0.273 8.35 2.97 8.68
6/30/2021 6:15:00 PM 25.69 78.242 0.278 8.34 3.13 8.64
6/30/2021 6:30:00 PM 25.6 78.08 0.285 8.33 2.83 8.51
6/30/2021 6:45:00 PM 25.58 78.044 0.283 8.32 2.97 8.47
6/30/2021 7:00:00 PM 25.56 78.008 0.27 8.31 3.11 8.37
6/30/2021 7:15:00 PM 25.57 78.026 0.265 8.3 3.32 8.27
6/30/2021 7:30:00 PM 25.53 77.954 0.273 8.3 2.93 8.2
6/30/2021 7:45:00 PM 25.38 77.684 0.274 8.29 3.42 8.18
6/30/2021 8:00:00 PM 25.22 77.396 0.283 8.28 3.07 8.23
6/30/2021 8:15:00 PM 25.11 77.198 0.281 8.27 3.25 8.2
6/30/2021 8:30:00 PM 25.05 77.09 0.282 8.27 3.08 8.16
6/30/2021 8:45:00 PM 25.04 77.07201 0.278 8.26 3.44 8.15
6/30/2021 9:00:00 PM 25.06 77.108 0.275 8.25 3.39 8.1
6/30/2021 9:15:00 PM 25.07 77.126 0.269 8.23 3.86 8.07
6/30/2021 9:30:00 PM 25.09 77.162 0.255 8.24 3.56 8.02
6/30/2021 9:45:00 PM 25.09 77.162 0.277 8.22 4.33 8
6/30/2021 10:00:00 PM 25.07 77.126 0.242 8.23 3.95 8
6/30/2021 10:15:00 PM 25.04 77.07201 0.276 8.22 3.97 7.98
6/30/2021 10:30:00 PM 25 77 0.242 8.22 3.76 7.95
6/30/2021 10:45:00 PM 24.96 76.92799 0.298 8.21 4.03 7.93
6/30/2021 11:00:00 PM 24.92 76.856 0.276 8.2 3.75 7.93
6/30/2021 11:15:00 PM 24.88 76.784 0.263 8.19 3.65 7.9
6/30/2021 11:30:00 PM 24.83 76.694 0.263 8.17 3.89 7.86
6/30/2021 11:45:00 PM 24.79 76.622 0.299 8.18 4.05 7.84
7/1/2021 12:00:00 AM 24.76 76.568 0.267 8.17 3.83 7.83
7/1/2021 12:15:00 AM 24.72 76.496 0.248 8.16 3.66 7.77
7/1/2021 12:30:00 AM 24.69 76.442 0.307 8.16 4.14 7.77
7/1/2021 12:45:00 AM 24.66 76.388 0.241 8.16 3.8 7.76
7/1/2021 1:00:00 AM 24.63 76.334 0.27 8.14 3.97 7.76
7/1/2021 1:15:00 AM 24.59 76.262 0.287 8.14 3.68 7.74
7/1/2021 1:30:00 AM 24.55 76.19 0.271 8.13 3.9 7.72
7/1/2021 1:45:00 AM 24.52 76.136 0.25 8.13 4.09 7.71
7/1/2021 2:00:00 AM 24.5 76.1 0.275 8.13 3.76 7.7
7/1/2021 2:15:00 AM 24.47 76.046 0.289 8.11 3.73 7.69
7/1/2021 2:30:00 AM 24.45 76.01 0.276 8.12 3.93 7.68
7/1/2021 2:45:00 AM 24.43 75.974 0.253 8.12 4.35 7.66
7/1/2021 3:00:00 AM 24.41 75.938 0.275 8.11 3.9 7.66
7/1/2021 3:15:00 AM 24.4 75.92 0.294 8.12 4.34 7.67
7/1/2021 3:30:00 AM 24.37 75.866 0.304 8.12 3.81 7.66
7/1/2021 3:45:00 AM 24.35 75.83 0.261 8.12 4.49 7.64
7/1/2021 4:00:00 AM 24.33 75.794 0.294 8.11 4.15 7.62
7/1/2021 4:15:00 AM 24.31 75.758 0.249 8.1 4.63 7.56
7/1/2021 4:30:00 AM 24.29 75.722 0.263 8.09 4.01 7.56
7/1/2021 4:45:00 AM 24.27 75.686 0.305 8.08 4 7.51
7/1/2021 5:00:00 AM 24.26 75.668 0.615 8.08 3.69 7.5
7/1/2021 5:15:00 AM 24.25 75.65 0.298 8.07 3.54 7.49
7/1/2021 5:30:00 AM 24.23 75.614 0.256 8.07 4.44 7.44
7/1/2021 5:45:00 AM 24.22 75.596 0.264 8.08 3.68 7.48
7/1/2021 6:00:00 AM 24.2 75.56 0.303 8.07 3.98 7.48
7/1/2021 6:15:00 AM 24.19 75.542 0.313 8.07 4.95 7.48
7/1/2021 6:30:00 AM 24.18 75.524 0.276 8.08 3.96 7.51
7/1/2021 6:45:00 AM 24.18 75.524 0.29 8.07 3.92 7.56
7/1/2021 7:00:00 AM 24.18 75.524 0.282 8.08 3.72 7.59
7/1/2021 7:15:00 AM 24.18 75.524 0.244 8.09 4.36 7.64
7/1/2021 7:30:00 AM 24.2 75.56 0.612 8.08 3.52 7.7
7/1/2021 7:45:00 AM 24.21 75.578 0.305 8.09 4.12 7.74
7/1/2021 8:00:00 AM 24.21 75.578 0.242 8.09 4.02 7.74
7/1/2021 8:15:00 AM 24.25 75.65 0.247 8.11 4.57 7.85
7/1/2021 8:30:00 AM 24.29 75.722 0.289 8.11 5.83 7.96
7/1/2021 8:45:00 AM 24.31 75.758 0.242 8.12 4.88 8.04
7/1/2021 9:00:00 AM 24.31 75.758 0.245 8.12 4.15 7.94
7/1/2021 9:15:00 AM 24.3 75.74 0.253 8.11 4.06 7.85
7/1/2021 9:30:00 AM 24.3 75.74 0.319 8.12 3.47 7.85
7/1/2021 9:45:00 AM 24.29 75.722 0.294 8.1 3.57 7.8
7/1/2021 10:00:00 AM 24.27 75.686 0.609 8.11 3.84 7.7
7/1/2021 10:15:00 AM 24.25 75.65 0.259 8.1 3.8 7.71
7/1/2021 10:30:00 AM 24.24 75.632 0.292 8.09 3.69 7.68
7/1/2021 10:45:00 AM 24.24 75.632 0.609 8.09 3.55 7.71
7/1/2021 11:00:00 AM 24.25 75.65 0.241 8.11 3.56 7.79
7/1/2021 11:15:00 AM 24.3 75.74 0.248 8.12 3.91 8.06
7/1/2021 11:30:00 AM 24.43 75.974 0.261 8.15 3.86 8.35
7/1/2021 11:45:00 AM 24.5 76.1 0.315 8.17 18.31 8.43
7/1/2021 12:00:00 PM 24.6 76.28 0.323 8.17 4.2 8.52
7/1/2021 12:15:00 PM 24.65 76.37 0.242 8.18 3.61 8.54
7/1/2021 12:30:00 PM 24.75 76.55 0.255 8.2 3.54 8.65
7/1/2021 12:45:00 PM 24.84 76.712 0.253 8.2 3.3 8.65
7/1/2021 1:00:00 PM 24.83 76.694 0.263 8.2 3.01 8.63
7/1/2021 1:15:00 PM 24.74 76.532 0.281 8.18 3.33 8.4
7/1/2021 1:30:00 PM 24.75 76.55 0.609 8.19 3.38 8.51
7/1/2021 1:45:00 PM 24.83 76.694 0.29 8.2 3.88 8.55
7/1/2021 2:00:00 PM 24.66 76.388 0.292 8.16 3.86 7.94
7/1/2021 2:15:00 PM 24.47 76.046 0.267 8.15 4.88 7.81
7/1/2021 2:30:00 PM 24.43 75.974 0.254 8.16 4.83 8.13
7/1/2021 2:45:00 PM 24.39 75.902 0.315 8.16 4.69 8.28
7/1/2021 3:00:00 PM 24.36 75.848 0.606 8.16 3.54 8.31
7/1/2021 3:15:00 PM 24.32 75.776 0.314 8.16 3.89 8.18
7/1/2021 3:30:00 PM 24.3 75.74 0.251 8.16 4.22 8.2
7/1/2021 3:45:00 PM 24.29 75.722 0.268 8.16 3.28 8.22
7/1/2021 4:00:00 PM 24.29 75.722 0.279 8.17 1.72 8.29
7/1/2021 4:15:00 PM 24.27 75.686 0.292 8.19 5.23 8.29
7/1/2021 4:30:00 PM 24.22 75.596 0.292 8.2 4.84 8.26
7/1/2021 4:45:00 PM 24.17 75.506 0.295 8.2 5.22 8.31
7/1/2021 5:00:00 PM 24.14 75.452 0.285 8.2 4.15 8.34
7/1/2021 5:15:00 PM 24.1 75.38 0.276 8.21 5.25 8.38
7/1/2021 5:30:00 PM 24.07 75.326 0.295 8.22 3.97 8.5
7/1/2021 5:45:00 PM 24.04 75.272 0.607 8.22 5.83 8.49
7/1/2021 6:00:00 PM 23.99 75.182 0.142 8.22 5.64 8.45
7/1/2021 6:15:00 PM 23.95 75.11 0.292 8.21 5.01 8.37
7/1/2021 6:30:00 PM 23.88 74.984 0.293 8.18 5.54 8.13
7/1/2021 6:45:00 PM 23.8 74.84 0.255 8.16 3.53 8.01
7/1/2021 7:00:00 PM 23.73 74.714 0.289 8.15 3.56 7.94
7/1/2021 7:15:00 PM 23.68 74.624 0.287 8.14 3.97 7.92
7/1/2021 7:30:00 PM 23.63 74.534 0.273 8.13 3.71 7.89
7/1/2021 7:45:00 PM 23.59 74.462 0.268 8.13 4.01 7.87
7/1/2021 8:00:00 PM 23.56 74.408 0.274 8.12 3.92 7.88
7/1/2021 8:15:00 PM 23.51 74.318 0.32 8.11 5.04 7.92
7/1/2021 8:30:00 PM 23.45 74.21 0.292 8.12 5.26 7.97
7/1/2021 8:45:00 PM 23.38 74.084 0.289 8.11 7.08 8.03
7/1/2021 9:00:00 PM 23.3 73.94 0.3 8.09 6.49 8.06
7/1/2021 9:15:00 PM 23.18 73.724 0.289 8.1 5.64 8.08
7/1/2021 9:30:00 PM 23.06 73.508 0.315 8.08 5.79 8.07
7/1/2021 9:45:00 PM 22.93 73.274 0.255 8.08 5.53 8.06
7/1/2021 10:00:00 PM 22.82 73.076 0.257 8.07 8.39 8.05
7/1/2021 10:15:00 PM 22.74 72.932 0.299 8.06 5.21 8.05
7/1/2021 10:30:00 PM 22.68 72.824 0.323 8.08 5.38 8.07
7/1/2021 10:45:00 PM 22.63 72.734 0.305 8.07 5.42 8.07
7/1/2021 11:00:00 PM 22.59 72.662 0.321 8.07 5.3 8.06
7/1/2021 11:15:00 PM 22.54 72.57201 0.618 8.06 5.9 8.05
7/1/2021 11:30:00 PM 22.49 72.482 0.278 8.05 6.4 8.05
7/1/2021 11:45:00 PM 22.44 72.392 0.289 8.05 6.6 8.05
7/2/2021 12:00:00 AM 22.39 72.302 0.298 8.05 6.72 8.05
7/2/2021 12:15:00 AM 22.34 72.212 0.325 8.04 7.9 8.04
7/2/2021 12:30:00 AM 22.32 72.176 0.252 8.03 8.65 8.03
7/2/2021 12:45:00 AM 22.32 72.176 0.323 8.01 8.66 8.01
7/2/2021 1:00:00 AM 22.35 72.23 0.296 8.02 8.88 7.98
7/2/2021 1:15:00 AM 22.39 72.302 0.26 8 7.97 7.96
7/2/2021 1:30:00 AM 22.42 72.356 0.587 8 7.96 7.93
7/2/2021 1:45:00 AM 22.44 72.392 0.302 7.99 7.75 7.93
7/2/2021 2:00:00 AM 22.47 72.446 0.657 7.99 6.03 7.94
7/2/2021 2:15:00 AM 22.49 72.482 0.273 8 7.07 7.93
7/2/2021 2:30:00 AM 22.51 72.518 0.592 8 6.79 7.94
7/2/2021 2:45:00 AM 22.53 72.554 0.306 8.02 7.3 7.93
7/2/2021 3:00:00 AM 22.55 72.59 0.252 8.02 6.81 7.93
7/2/2021 3:15:00 AM 22.58 72.644 0.588 8.01 6.53 7.92
7/2/2021 3:30:00 AM 22.61 72.698 0.309 8.02 6.76 7.91
7/2/2021 3:45:00 AM 22.65 72.77 0.282 8.02 6.8 7.91
7/2/2021 4:00:00 AM 22.69 72.842 0.26 8.02 6.67 7.9
7/2/2021 4:15:00 AM 22.72 72.896 0.304 8.02 7.56 7.88
7/2/2021 4:30:00 AM 22.75 72.95 0.572 8.02 7.32 7.85
7/2/2021 4:45:00 AM 22.77 72.986 0.253 8.02 8.14 7.85
7/2/2021 5:00:00 AM 22.79 73.022 0.565 8.02 8.47 7.83
7/2/2021 5:15:00 AM 22.79 73.022 0.319 8.03 7.36 7.85
7/2/2021 5:30:00 AM 22.79 73.022 0.268 8.01 10.44 7.84
7/2/2021 5:45:00 AM 22.78 73.004 0.309 8.01 8.96 7.83
7/2/2021 6:00:00 AM 22.78 73.004 0.251 8 9.22 7.82
7/2/2021 6:15:00 AM 22.77 72.986 0.545 7.99 9.44 7.81
7/2/2021 6:30:00 AM 22.77 72.986 0.538 8 10.98 7.8
7/2/2021 6:45:00 AM 22.77 72.986 0.315 7.99 10.94 7.81
7/2/2021 7:00:00 AM 22.77 72.986 0.274 8 11.18 7.79
7/2/2021 7:15:00 AM 22.77 72.986 0.251 7.98 12.04 7.8
7/2/2021 7:30:00 AM 22.77 72.986 0.307 7.97 11.43 7.79
7/2/2021 7:45:00 AM 22.78 73.004 0.308 7.97 12.35 7.79
7/2/2021 8:00:00 AM 22.77 72.986 0.298 7.96 12.84 7.78
7/2/2021 8:15:00 AM 22.77 72.986 0.289 7.96 14.12 7.77
7/2/2021 8:30:00 AM 22.78 73.004 0.284 7.95 14.14 7.8
7/2/2021 8:45:00 AM 22.78 73.004 0.3 7.95 16.9 7.77
7/2/2021 9:00:00 AM 22.78 73.004 0.301 7.95 17.01 7.81
7/2/2021 9:15:00 AM 22.78 73.004 0.295 7.94 17.71 7.79
7/2/2021 9:30:00 AM 22.78 73.004 0.308 7.94 17.8 7.81
7/2/2021 9:45:00 AM 22.78 73.004 0.296 7.93 20.62 7.8
7/2/2021 10:00:00 AM 22.76 72.968 0.297 7.93 19.53 7.79
7/2/2021 10:15:00 AM 22.75 72.95 0.31 7.92 19.25 7.8
7/2/2021 10:30:00 AM 22.75 72.95 0.297 7.93 19.37 7.82
7/2/2021 10:45:00 AM 22.74 72.932 0.296 7.93 18.7 7.83
7/2/2021 11:00:00 AM 22.74 72.932 0.272 7.93 17.79 7.88
7/2/2021 11:15:00 AM 22.75 72.95 0.32 7.94 19.14 7.93
7/2/2021 11:30:00 AM 22.76 72.968 0.298 7.94 17.33 7.98
7/2/2021 11:45:00 AM 22.81 73.058 0.313 7.95 17.67 8.06
7/2/2021 12:00:00 PM 22.81 73.058 0.386 7.97 16.55 8.04
7/2/2021 12:15:00 PM 22.86 73.148 0.313 7.97 15.91 8.13
7/2/2021 12:30:00 PM 22.89 73.202 0.384 7.99 16.65 8.15
7/2/2021 12:45:00 PM 22.94 73.292 0.297 7.99 15.06 8.18
7/2/2021 1:00:00 PM 23.01 73.418 0.382 8.01 14.53 8.2
7/2/2021 1:15:00 PM 23.02 73.436 0.385 8.01 14.26 8.23
7/2/2021 1:30:00 PM 23.07 73.526 0.317 8.01 13.87 8.28
7/2/2021 1:45:00 PM 23.01 73.418 0.289 8.01 12.92 8.21
7/2/2021 2:00:00 PM 23.01 73.418 0.308 8.02 13.36 8.23
7/2/2021 2:15:00 PM 23.02 73.436 0.29 8.03 12.95 8.27
7/2/2021 2:30:00 PM 23.01 73.418 0.309 8.03 13.23 8.22
7/2/2021 2:45:00 PM 22.99 73.382 0.27 8.03 12.79 8.17
7/2/2021 3:00:00 PM 23.01 73.418 0.376 8.04 13.84 8.27
7/2/2021 3:15:00 PM 23.04 73.472 0.308 8.05 13.86 8.29
7/2/2021 3:30:00 PM 23.13 73.634 0.315 8.07 13.15 8.4
7/2/2021 3:45:00 PM 23.2 73.76 0.316 8.09 13.42 8.4
7/2/2021 4:00:00 PM 23.15 73.67 0.311 8.08 14.72 8.27
7/2/2021 4:15:00 PM 23.03 73.454 0.376 8.05 14.07 8.14
7/2/2021 4:30:00 PM 22.94 73.292 0.291 8.05 13.54 8.2
7/2/2021 4:45:00 PM 23.04 73.472 0.301 8.06 14.33 8.36
7/2/2021 5:00:00 PM 23.11 73.598 0.313 8.07 14.15 8.33
7/2/2021 5:15:00 PM 23.06 73.508 0.291 8.05 14.14 8.21
7/2/2021 5:30:00 PM 23.09 73.562 0.306 8.05 14.38 8.24
7/2/2021 5:45:00 PM 23.08 73.544 0.31 8.05 13.88 8.22
7/2/2021 6:00:00 PM 23.06 73.508 0.309 8.06 13.7 8.22
7/2/2021 6:15:00 PM 23.02 73.436 0.298 8.05 13.61 8.21
7/2/2021 6:30:00 PM 23 73.4 0.286 8.05 15.1 8.18
7/2/2021 6:45:00 PM 22.97 73.346 0.307 8.04 12.7 8.14
7/2/2021 7:00:00 PM 22.94 73.292 0.303 8.04 13.41 8.11
7/2/2021 7:15:00 PM 22.91 73.238 0.301 8.02 12.45 8.1
7/2/2021 7:30:00 PM 22.88 73.184 0.301 8.02 12.55 8.08
7/2/2021 7:45:00 PM 22.85 73.13 0.297 8.01 12.48 8.06
7/2/2021 8:00:00 PM 22.81 73.058 0.298 8.01 12.43 8.05
7/2/2021 8:15:00 PM 22.77 72.986 0.282 8.01 13.05 8.05
7/2/2021 8:30:00 PM 22.73 72.914 0.274 8 12.41 8.03
7/2/2021 8:45:00 PM 22.69 72.842 0.296 7.99 12.12 8.01
7/2/2021 9:00:00 PM 22.64 72.752 0.287 7.98 12.07 7.98
7/2/2021 9:15:00 PM 22.57 72.626 0.301 7.99 12.27 7.97
7/2/2021 9:30:00 PM 22.51 72.518 0.3 7.97 13.62 7.95
7/2/2021 9:45:00 PM 22.46 72.42799 0.27 7.97 11.77 7.95
7/2/2021 10:00:00 PM 22.43 72.374 0.382 7.97 12.15 7.93
7/2/2021 10:15:00 PM 22.39 72.302 0.305 7.96 11.78 7.92
7/2/2021 10:30:00 PM 22.35 72.23 0.274 7.95 12.84 7.91
7/2/2021 10:45:00 PM 22.32 72.176 0.296 7.95 12.41 7.9
7/2/2021 11:00:00 PM 22.29 72.122 0.294 7.95 11.27 7.88
7/2/2021 11:15:00 PM 22.26 72.068 0.372 7.94 12.65 7.86
7/2/2021 11:30:00 PM 22.23 72.014 0.308 7.94 11.63 7.86
7/2/2021 11:45:00 PM 22.2 71.96 0.305 7.93 12.25 7.85
7/3/2021 12:00:00 AM 22.17 71.906 0.287 7.93 12.77 7.84
7/3/2021 12:15:00 AM 22.14 71.852 0.312 7.92 11.08 7.82
7/3/2021 12:30:00 AM 22.1 71.78 0.303 7.92 11.93 7.81
7/3/2021 12:45:00 AM 22.07 71.726 0.319 7.92 11.39 7.79
7/3/2021 1:00:00 AM 22.03 71.654 0.391 7.91 12.57 7.79
7/3/2021 1:15:00 AM 22 71.6 0.313 7.91 12.37 7.78
7/3/2021 1:30:00 AM 21.96 71.528 0.305 7.91 12.12 7.76
7/3/2021 1:45:00 AM 21.92 71.456 0.313 7.92 12.43 7.76
7/3/2021 2:00:00 AM 21.88 71.384 0.312 7.9 12.01 7.75
7/3/2021 2:15:00 AM 21.85 71.33 0.274 7.9 12.23 7.74
7/3/2021 2:30:00 AM 21.81 71.258 0.325 7.89 10.77 7.73
7/3/2021 2:45:00 AM 21.77 71.186 0.316 7.9 12.31 7.72
7/3/2021 3:00:00 AM 21.73 71.114 0.307 7.9 12.5 7.71
7/3/2021 3:15:00 AM 21.69 71.042 0.3 7.89 12.56 7.7
7/3/2021 3:30:00 AM 21.65 70.97 0.324 7.9 12.02 7.69
7/3/2021 3:45:00 AM 21.61 70.898 0.309 7.88 11.02 7.68
7/3/2021 4:00:00 AM 21.57 70.826 0.312 7.88 11.97 7.68
7/3/2021 4:15:00 AM 21.54 70.772 0.309 7.89 11.04 7.68
7/3/2021 4:30:00 AM 21.52 70.736 0.327 7.89 12.51 7.67
7/3/2021 4:45:00 AM 21.48 70.664 0.284 7.88 11.3 7.66
7/3/2021 5:00:00 AM 21.46 70.628 0.392 7.88 12.53 7.66
7/3/2021 5:15:00 AM 21.42 70.556 0.303 7.88 11.96 7.65
7/3/2021 5:30:00 AM 21.38 70.484 0.329 7.88 11.93 7.64
7/3/2021 5:45:00 AM 21.35 70.43 0.311 7.87 12.52 7.64
7/3/2021 6:00:00 AM 21.31 70.358 0.307 7.88 12.57 7.64
7/3/2021 6:15:00 AM 21.28 70.304 0.279 7.87 10.8 7.65
7/3/2021 6:30:00 AM 21.24 70.232 0.317 7.86 12.09 7.66
7/3/2021 6:45:00 AM 21.22 70.196 0.313 7.87 12.45 7.68
7/3/2021 7:00:00 AM 21.2 70.16 0.308 7.89 11.65 7.69
7/3/2021 7:15:00 AM 21.18 70.124 0.308 7.88 11.62 7.71
7/3/2021 7:30:00 AM 21.15 70.07 0.33 7.89 11.47 7.73
7/3/2021 7:45:00 AM 21.13 70.034 0.28 7.88 11.37 7.72
7/3/2021 8:00:00 AM 21.11 69.998 0.396 7.89 11.16 7.75
7/3/2021 8:15:00 AM 21.08 69.944 0.324 7.89 10.87 7.73
7/3/2021 8:30:00 AM 21.06 69.908 0.298 7.88 10.78 7.74
7/3/2021 8:45:00 AM 21.05 69.89 0.316 7.88 11.07 7.78
7/3/2021 9:00:00 AM 21.04 69.872 0.308 7.88 10.91 7.85
7/3/2021 9:15:00 AM 21.03 69.854 0.33 7.89 10.49 7.89
7/3/2021 9:30:00 AM 21.07 69.926 0.309 7.89 11.85 7.96
7/3/2021 9:45:00 AM 21.14 70.052 0.327 7.92 10.17 8.03
7/3/2021 10:00:00 AM 21.1 69.98 0.32 7.9 11.49 7.91
7/3/2021 10:15:00 AM 21.22 70.196 0.323 7.92 10.55 8.13
7/3/2021 10:30:00 AM 21.12 70.016 0.321 7.91 9.88 7.95
7/3/2021 10:45:00 AM 21.1 69.98 0.409 7.91 10.69 8.01
7/3/2021 11:00:00 AM 21.2 70.16 0.305 7.91 9.66 8.13
7/3/2021 11:15:00 AM 21.14 70.052 0.305 7.93 10.8 8.07
7/3/2021 11:30:00 AM 21.21 70.17799 0.314 7.93 10.81 8.21
7/3/2021 11:45:00 AM 21.12 70.016 0.311 7.94 10.8 8.06
7/3/2021 12:00:00 PM 21.18 70.124 0.326 7.95 10.54 8.24
7/3/2021 12:15:00 PM 21.23 70.214 0.41 7.96 10.37 8.28
7/3/2021 12:30:00 PM 21.19 70.142 0.406 7.97 8.92 8.3
7/3/2021 12:45:00 PM 21.29 70.32201 0.307 7.98 10.4 8.35
7/3/2021 1:00:00 PM 21.32 70.376 0.32 7.99 10.32 8.35
7/3/2021 1:15:00 PM 21.39 70.502 0.327 8 10.49 8.47
7/3/2021 1:30:00 PM 21.38 70.484 0.313 8 10.06 8.37
7/3/2021 1:45:00 PM 21.33 70.394 0.313 8.01 9.94 8.42
7/3/2021 2:00:00 PM 21.37 70.466 0.411 8.01 9.38 8.54
7/3/2021 2:15:00 PM 21.41 70.538 0.324 8.04 9.77 8.61
7/3/2021 2:30:00 PM 21.4 70.52 0.295 8.04 8.69 8.61
7/3/2021 2:45:00 PM 21.23 70.214 0.317 7.99 10.43 8.29
7/3/2021 3:00:00 PM 21.13 70.034 0.309 8 10.32 8.32
7/3/2021 3:15:00 PM 21.25 70.25 0.29 8.03 10 8.48
7/3/2021 3:30:00 PM 21.42 70.556 0.307 8.05 9.87 8.59
7/3/2021 3:45:00 PM 21.47 70.646 0.323 8.06 9.51 8.56
7/3/2021 4:00:00 PM 21.36 70.448 0.311 8.04 9.68 8.39
7/3/2021 4:15:00 PM 21.34 70.412 0.413 8.07 9.49 8.65
7/3/2021 4:30:00 PM 21.34 70.412 0.32 8.08 9.64 8.71
7/3/2021 4:45:00 PM 21.35 70.43 0.295 8.1 9.17 8.76
7/3/2021 5:00:00 PM 21.37 70.466 0.325 8.11 9.15 8.71
7/3/2021 5:15:00 PM 21.39 70.502 0.312 8.11 9.67 8.75
7/3/2021 5:30:00 PM 21.37 70.466 0.328 8.12 7.56 8.76
7/3/2021 5:45:00 PM 21.33 70.394 0.322 8.12 8.98 8.74
7/3/2021 6:00:00 PM 21.29 70.32201 0.319 8.09 10 8.64
7/3/2021 6:15:00 PM 21.26 70.268 0.323 8.1 9.19 8.58
7/3/2021 6:30:00 PM 21.26 70.268 0.412 8.09 8.98 8.61
7/3/2021 6:45:00 PM 21.27 70.286 0.313 8.11 9.58 8.64
7/3/2021 7:00:00 PM 21.27 70.286 0.319 8.11 9.19 8.6
7/3/2021 7:15:00 PM 21.26 70.268 0.327 8.1 9.16 8.55
7/3/2021 7:30:00 PM 21.24 70.232 0.283 8.09 8.82 8.55
7/3/2021 7:45:00 PM 21.2 70.16 0.323 8.09 9.27 8.53
7/3/2021 8:00:00 PM 21.15 70.07 0.323 8.08 8.99 8.51
7/3/2021 8:15:00 PM 21.11 69.998 0.323 8.07 8.95 8.48
7/3/2021 8:30:00 PM 21.07 69.926 0.264 8.08 9.07 8.46
7/3/2021 8:45:00 PM 21.04 69.872 0.266 8.06 9.05 8.44
7/3/2021 9:00:00 PM 21.01 69.818 0.302 8.07 8.93 8.42
7/3/2021 9:15:00 PM 20.97 69.746 0.317 8.06 9.82 8.43
7/3/2021 9:30:00 PM 20.93 69.674 0.331 8.06 9.82 8.43
7/3/2021 9:45:00 PM 20.89 69.602 0.417 8.06 9.48 8.42
7/3/2021 10:00:00 PM 20.84 69.512 0.306 8.05 9.79 8.42
7/3/2021 10:15:00 PM 20.8 69.44 0.328 8.05 9.83 8.41
7/3/2021 10:30:00 PM 20.76 69.368 0.3 8.04 10.07 8.4
7/3/2021 10:45:00 PM 20.72 69.296 0.328 8.04 10.45 8.38
7/3/2021 11:00:00 PM 20.67 69.206 0.317 8.03 10.62 8.37
7/3/2021 11:15:00 PM 20.62 69.116 0.325 8.04 10.62 8.37
7/3/2021 11:30:00 PM 20.59 69.062 0.302 8.02 10.01 8.36
7/3/2021 11:45:00 PM 20.55 68.99 0.327 8.01 10.09 8.34
7/4/2021 12:00:00 AM 20.5 68.9 0.306 8.02 10.75 8.32
7/4/2021 12:15:00 AM 20.46 68.828 0.32 8.01 10.04 8.33
7/4/2021 12:30:00 AM 20.42 68.756 0.303 8 9.98 8.32
7/4/2021 12:45:00 AM 20.39 68.702 0.298 8 10.32 8.3
7/4/2021 1:00:00 AM 20.35 68.63 0.331 8 10.03 8.3
7/4/2021 1:15:00 AM 20.31 68.558 0.328 8 9.53 8.29
7/4/2021 1:30:00 AM 20.28 68.504 0.289 7.99 9.86 8.27
7/4/2021 1:45:00 AM 20.26 68.468 0.33 7.99 10.11 8.26
7/4/2021 2:00:00 AM 20.23 68.414 0.303 7.99 8.54 8.25
7/4/2021 2:15:00 AM 20.21 68.378 0.428 7.98 6.53 8.24
7/4/2021 2:30:00 AM 20.2 68.36 0.306 7.98 10.05 8.23
7/4/2021 2:45:00 AM 20.19 68.342 0.308 7.98 10.41 8.22
7/4/2021 3:00:00 AM 20.19 68.342 0.43 7.97 9.68 8.22
7/4/2021 3:15:00 AM 20.19 68.342 0.333 7.97 9.41 8.22
7/4/2021 3:30:00 AM 20.19 68.342 0.331 7.97 9.19 8.2
7/4/2021 3:45:00 AM 20.19 68.342 0.332 7.97 9.62 8.2
7/4/2021 4:00:00 AM 20.19 68.342 0.316 7.97 8.93 8.19
7/4/2021 4:15:00 AM 20.18 68.324 0.313 7.98 9.39 8.19
7/4/2021 4:30:00 AM 20.18 68.324 0.294 7.97 7.49 8.18
7/4/2021 4:45:00 AM 20.18 68.324 0.316 7.98 11.48 8.18
7/4/2021 5:00:00 AM 20.17 68.306 0.308 7.98 7.39 8.18
7/4/2021 5:15:00 AM 20.17 68.306 0.308 7.98 9.44 8.16
7/4/2021 5:30:00 AM 20.16 68.288 0.316 7.98 9.26 8.15
7/4/2021 5:45:00 AM 20.15 68.27 0.441 7.97 9 8.15
7/4/2021 6:00:00 AM 20.15 68.27 0.442 7.97 8.65 8.15
7/4/2021 6:15:00 AM 20.14 68.252 0.318 7.97 8.59 8.16
7/4/2021 6:30:00 AM 20.14 68.252 0.301 7.98 8.28 8.17
7/4/2021 6:45:00 AM 20.13 68.234 0.321 7.96 8.7 8.18
7/4/2021 7:00:00 AM 20.14 68.252 0.317 7.98 8.58 8.2
7/4/2021 7:15:00 AM 20.14 68.252 0.313 7.98 9.11 8.22
7/4/2021 7:30:00 AM 20.14 68.252 0.324 7.98 8.49 8.21
7/4/2021 7:45:00 AM 20.13 68.234 0.302 7.97 8.94 8.2
7/4/2021 8:00:00 AM 20.13 68.234 0.304 7.98 8.18 8.21
7/4/2021 8:15:00 AM 20.14 68.252 0.306 7.98 7.42 8.23
7/4/2021 8:30:00 AM 20.17 68.306 0.447 7.99 7.83 8.32
7/4/2021 8:45:00 AM 20.2 68.36 0.305 7.99 8.36 8.33
7/4/2021 9:00:00 AM 20.23 68.414 0.306 8 7.82 8.36
7/4/2021 9:15:00 AM 20.27 68.486 0.311 8 7.88 8.43
7/4/2021 9:30:00 AM 20.32 68.576 0.307 8.02 7.69 8.49
7/4/2021 9:45:00 AM 20.37 68.666 0.311 8.01 7.98 8.54
7/4/2021 10:00:00 AM 20.44 68.792 0.305 8.03 7.3 8.58
7/4/2021 10:15:00 AM 20.5 68.9 0.304 8.03 7.67 8.65
7/4/2021 10:30:00 AM 20.57 69.026 0.309 8.05 7.35 8.68
7/4/2021 10:45:00 AM 20.64 69.152 0.317 8.04 7.55 8.74
7/4/2021 11:00:00 AM 20.7 69.26 0.323 8.06 7.08 8.78
7/4/2021 11:15:00 AM 20.8 69.44 0.312 8.08 7.26 8.83
7/4/2021 11:30:00 AM 20.87 69.566 0.294 8.08 7.1 8.88
7/4/2021 11:45:00 AM 20.91 69.638 0.287 8.09 6.69 8.85
7/4/2021 12:00:00 PM 20.99 69.782 0.321 8.07 7.43 8.88
7/4/2021 12:15:00 PM 21.11 69.998 0.316 8.12 6.92 8.95
7/4/2021 12:30:00 PM 21.19 70.142 0.297 8.13 6.67 9
7/4/2021 12:45:00 PM 21.24 70.232 0.287 8.13 6.53 9.02
7/4/2021 1:00:00 PM 21.09 69.962 0.327 8.11 6.4 8.69
7/4/2021 1:15:00 PM 21.12 70.016 0.457 8.11 6.26 8.77
7/4/2021 1:30:00 PM 21.08 69.944 0.283 8.11 6.38 8.66
7/4/2021 1:45:00 PM 21.21 70.17799 0.284 8.14 6.37 8.91
7/4/2021 2:00:00 PM 21.22 70.196 0.287 8.15 6.06 8.92
7/4/2021 2:15:00 PM 21.4 70.52 0.295 8.18 5.71 9.11
7/4/2021 2:30:00 PM 21.41 70.538 0.29 8.18 6.22 8.94
7/4/2021 2:45:00 PM 21.4 70.52 0.278 8.18 6.11 8.9
7/4/2021 3:00:00 PM 21.47 70.646 0.282 8.21 6.45 9.12
7/4/2021 3:15:00 PM 21.43 70.574 0.277 8.22 7.05 9.16
7/4/2021 3:30:00 PM 21.32 70.376 0.327 8.22 6.06 9.09
7/4/2021 3:45:00 PM 21.37 70.466 0.306 8.24 5.91 9.22
7/4/2021 4:00:00 PM 21.35 70.43 0.464 8.25 6.14 9.19
7/4/2021 4:15:00 PM 21.36 70.448 0.278 8.25 5.95 9.19
7/4/2021 4:30:00 PM 21.37 70.466 0.466 8.25 5.94 9.18
7/4/2021 4:45:00 PM 21.35 70.43 0.28 8.25 6.68 9.16
7/4/2021 5:00:00 PM 21.37 70.466 0.303 8.26 6.13 9.15
7/4/2021 5:15:00 PM 21.38 70.484 0.295 8.25 5.92 9.11
7/4/2021 5:30:00 PM 21.4 70.52 0.328 8.26 5.91 9.09
7/4/2021 5:45:00 PM 21.44 70.592 0.471 8.26 5.59 9.08
7/4/2021 6:00:00 PM 21.47 70.646 0.293 8.27 5.84 9.08
7/4/2021 6:15:00 PM 21.45 70.61 0.319 8.27 9.78 9.06
7/4/2021 6:30:00 PM 21.43 70.574 0.315 8.28 6.02 9.04
7/4/2021 6:45:00 PM 21.43 70.574 0.287 8.27 5.87 9.01
7/4/2021 7:00:00 PM 21.43 70.574 0.327 8.28 6.36 8.97
7/4/2021 7:15:00 PM 21.46 70.628 0.306 8.27 6.34 8.94
7/4/2021 7:30:00 PM 21.5 70.7 0.324 8.27 6.08 8.91
7/4/2021 7:45:00 PM 21.5 70.7 0.307 8.27 5.74 8.91
7/4/2021 8:00:00 PM 21.5 70.7 0.328 8.26 5.79 8.88
7/4/2021 8:15:00 PM 21.45 70.61 0.309 8.26 5.84 8.88
7/4/2021 8:30:00 PM 21.39 70.502 0.325 8.24 5.82 8.86
7/4/2021 8:45:00 PM 21.32 70.376 0.328 8.24 6.01 8.84
7/4/2021 9:00:00 PM 21.22 70.196 0.286 8.23 5.98 8.85
7/4/2021 9:15:00 PM 21.16 70.088 0.325 8.22 5.86 8.84
7/4/2021 9:30:00 PM 21.09 69.962 0.287 8.21 6.26 8.83
7/4/2021 9:45:00 PM 21.03 69.854 0.291 8.21 6.51 8.81
7/4/2021 10:00:00 PM 20.98 69.764 0.296 8.19 6.14 8.8
7/4/2021 10:15:00 PM 20.92 69.656 0.297 8.18 6.22 8.79
7/4/2021 10:30:00 PM 20.87 69.566 0.288 8.17 6.8 8.74
7/4/2021 10:45:00 PM 20.82 69.476 0.293 8.16 6.29 8.72
7/4/2021 11:00:00 PM 20.78 69.404 0.306 8.15 6.45 8.68
7/4/2021 11:15:00 PM 20.74 69.332 0.482 8.13 6.49 8.63
7/4/2021 11:30:00 PM 20.7 69.26 0.316 8.12 5.96 8.59
7/4/2021 11:45:00 PM 20.66 69.188 0.312 8.1 6.03 8.57
7/5/2021 12:00:00 AM 20.63 69.134 0.302 8.11 6.37 8.54
7/5/2021 12:15:00 AM 20.6 69.08 0.301 8.1 6.38 8.52
7/5/2021 12:30:00 AM 20.57 69.026 0.317 8.08 6.57 8.51
7/5/2021 12:45:00 AM 20.54 68.972 0.333 8.08 10.4 8.5
7/5/2021 1:00:00 AM 20.51 68.918 0.29 8.07 6.87 8.48
7/5/2021 1:15:00 AM 20.48 68.864 0.49 8.06 6.89 8.47
7/5/2021 1:30:00 AM 20.45 68.81 0.315 8.06 7.29 8.45
7/5/2021 1:45:00 AM 20.43 68.774 0.315 8.05 7.54 8.43
7/5/2021 2:00:00 AM 20.4 68.72 0.276 8.05 7.48 8.42
7/5/2021 2:15:00 AM 20.36 68.648 0.31 8.06 6.84 8.4
7/5/2021 2:30:00 AM 20.33 68.594 0.301 8.04 7.09 8.37
7/5/2021 2:45:00 AM 20.3 68.54 0.273 8.03 7.22 8.36
7/5/2021 3:00:00 AM 20.28 68.504 0.327 8.03 7.47 8.35
7/5/2021 3:15:00 AM 20.27 68.486 0.497 8.04 7.2 8.35
7/5/2021 3:30:00 AM 20.25 68.45 0.316 8.03 7.73 8.34
7/5/2021 3:45:00 AM 20.24 68.432 0.315 8.03 7.07 8.34
7/5/2021 4:00:00 AM 20.23 68.414 0.336 8.02 6.86 8.33
7/5/2021 4:15:00 AM 20.21 68.378 0.332 8.03 7.44 8.32
7/5/2021 4:30:00 AM 20.2 68.36 0.313 8.03 7.3 8.31
7/5/2021 4:45:00 AM 20.19 68.342 0.315 8.03 7.02 8.31
7/5/2021 5:00:00 AM 20.18 68.324 0.324 8.02 7.03 8.3
7/5/2021 5:15:00 AM 20.17 68.306 0.334 8.02 7.59 8.29
7/5/2021 5:30:00 AM 20.17 68.306 0.331 8.01 6.83 8.29
7/5/2021 5:45:00 AM 20.16 68.288 0.279 8 7.51 8.28
7/5/2021 6:00:00 AM 20.16 68.288 0.335 8.01 7.11 8.28
7/5/2021 6:15:00 AM 20.15 68.27 0.279 8.02 7.23 8.3
7/5/2021 6:30:00 AM 20.16 68.288 0.333 8.01 7.17 8.32
7/5/2021 6:45:00 AM 20.17 68.306 0.334 8.01 6.86 8.32
7/5/2021 7:00:00 AM 20.17 68.306 0.272 8.01 6.4 8.34
7/5/2021 7:15:00 AM 20.18 68.324 0.336 8.02 7.19 8.34
7/5/2021 7:30:00 AM 20.2 68.36 0.325 8.01 6.79 8.34
7/5/2021 7:45:00 AM 20.21 68.378 0.271 8.01 6.86 8.35
7/5/2021 8:00:00 AM 20.23 68.414 0.332 8.02 6.41 8.37
7/5/2021 8:15:00 AM 20.25 68.45 0.335 8.01 6.74 8.37
7/5/2021 8:30:00 AM 20.29 68.522 0.274 8.03 6.12 8.42
7/5/2021 8:45:00 AM 20.35 68.63 0.323 8.02 6.81 8.48
7/5/2021 9:00:00 AM 20.41 68.738 0.27 8.04 6.76 8.57
7/5/2021 9:15:00 AM 20.49 68.882 0.327 8.06 6.52 8.63
7/5/2021 9:30:00 AM 20.58 69.044 0.31 8.07 6.6 8.7
7/5/2021 9:45:00 AM 20.66 69.188 0.32 8.07 6.09 8.74
7/5/2021 10:00:00 AM 20.75 69.35 0.27 8.08 6.2 8.81
7/5/2021 10:15:00 AM 20.85 69.53 0.271 8.1 6.03 8.86
7/5/2021 10:30:00 AM 20.93 69.674 0.288 8.1 5.82 8.9
7/5/2021 10:45:00 AM 21.04 69.872 0.32 8.11 5.97 8.94
7/5/2021 11:00:00 AM 21.19 70.142 0.268 8.12 5.39 8.99
7/5/2021 11:15:00 AM 21.28 70.304 0.513 8.13 5.64 9.02
7/5/2021 11:30:00 AM 21.39 70.502 0.301 8.14 5.76 9.06
7/5/2021 11:45:00 AM 21.5 70.7 0.259 8.15 5.74 9.07
7/5/2021 12:00:00 PM 21.58 70.844 0.299 8.16 5.83 9.09
7/5/2021 12:15:00 PM 21.55 70.79 0.272 8.15 5.97 8.93
7/5/2021 12:30:00 PM 21.7 71.06 0.296 8.17 5.81 9.1
7/5/2021 12:45:00 PM 21.83 71.294 0.515 8.18 5.37 9.15
7/5/2021 1:00:00 PM 21.91 71.438 0.254 8.2 5.33 9.18
7/5/2021 1:15:00 PM 22.01 71.618 0.516 8.21 5.04 9.2
7/5/2021 1:30:00 PM 22.1 71.78 0.324 8.21 5.05 9.23
7/5/2021 1:45:00 PM 22.06 71.708 0.292 8.22 5.02 9.22
7/5/2021 2:00:00 PM 21.99 71.582 0.281 8.21 5.18 9.03
7/5/2021 2:15:00 PM 22.08 71.744 0.28 8.24 5.46 9.21
7/5/2021 2:30:00 PM 22.07 71.726 0.301 8.25 5.15 9.18
7/5/2021 2:45:00 PM 22.07 71.726 0.291 8.26 4.88 9.25
7/5/2021 3:00:00 PM 22.13 71.834 0.287 8.28 4.83 9.27
7/5/2021 3:15:00 PM 22.28 72.104 0.28 8.31 4.98 9.41
7/5/2021 3:30:00 PM 22.28 72.104 0.28 8.33 5 9.4
7/5/2021 3:45:00 PM 22.29 72.122 0.296 8.34 4.99 9.48
7/5/2021 4:00:00 PM 22.29 72.122 0.294 8.34 4.91 9.42
7/5/2021 4:15:00 PM 22.29 72.122 0.518 8.36 5.06 9.45
7/5/2021 4:30:00 PM 22.26 72.068 0.518 8.36 5.04 9.46
7/5/2021 4:45:00 PM 22.23 72.014 0.278 8.37 4.6 9.48
7/5/2021 5:00:00 PM 22.21 71.978 0.273 8.38 5 9.46
7/5/2021 5:15:00 PM 22.2 71.96 0.269 8.38 4.83 9.43
7/5/2021 5:30:00 PM 22.14 71.852 0.249 8.38 5.42 9.38
7/5/2021 5:45:00 PM 22.12 71.816 0.251 8.39 4.73 9.39
7/5/2021 6:00:00 PM 22.12 71.816 0.302 8.39 5.19 9.39
7/5/2021 6:15:00 PM 22.11 71.798 0.284 8.4 9.45 9.37
7/5/2021 6:30:00 PM 22.1 71.78 0.256 8.39 5.23 9.32
7/5/2021 6:45:00 PM 22.09 71.762 0.312 8.38 5.58 9.25
7/5/2021 7:00:00 PM 22.06 71.708 0.308 8.38 5.07 9.23
7/5/2021 7:15:00 PM 22.06 71.708 0.305 8.38 5.03 9.18
7/5/2021 7:30:00 PM 22.09 71.762 0.292 8.38 4.95 9.14
7/5/2021 7:45:00 PM 22.1 71.78 0.277 8.37 5.21 9.09
7/5/2021 8:00:00 PM 22.12 71.816 0.266 8.37 4.71 9.05
7/5/2021 8:15:00 PM 22.1 71.78 0.309 8.36 3.61 9
7/5/2021 8:30:00 PM 22.08 71.744 0.267 8.35 4.98 8.96
7/5/2021 8:45:00 PM 22.03 71.654 0.313 8.35 5.25 8.93
7/5/2021 9:00:00 PM 21.97 71.546 0.292 8.33 4.84 8.91
7/5/2021 9:15:00 PM 21.9 71.42 0.284 8.33 13.38 8.92
7/5/2021 9:30:00 PM 21.83 71.294 0.304 8.32 6.23 8.91
7/5/2021 9:45:00 PM 21.77 71.186 0.288 8.31 5.21 8.91
7/5/2021 10:00:00 PM 21.71 71.078 0.271 8.29 5.13 8.9
7/5/2021 10:15:00 PM 21.68 71.024 0.266 8.29 5.01 8.87
7/5/2021 10:30:00 PM 21.63 70.934 0.281 8.27 5.59 8.86
7/5/2021 10:45:00 PM 21.58 70.844 0.283 8.26 4.95 8.85
7/5/2021 11:00:00 PM 21.55 70.79 0.527 8.25 4.77 8.81
7/5/2021 11:15:00 PM 21.52 70.736 0.528 8.24 5.24 8.77
7/5/2021 11:30:00 PM 21.49 70.682 0.31 8.23 5.47 8.75
7/5/2021 11:45:00 PM 21.47 70.646 0.53 8.21 5.01 8.71
7/6/2021 12:00:00 AM 21.45 70.61 0.291 8.19 5.59 8.66
7/6/2021 12:15:00 AM 21.43 70.574 0.27 8.18 5.16 8.64
7/6/2021 12:30:00 AM 21.42 70.556 0.268 8.19 4.89 8.61
7/6/2021 12:45:00 AM 21.41 70.538 0.315 8.18 6.55 8.59
7/6/2021 1:00:00 AM 21.4 70.52 0.535 8.17 4.73 8.56
7/6/2021 1:15:00 AM 21.38 70.484 0.302 8.16 5.55 8.55
7/6/2021 1:30:00 AM 21.37 70.466 0.281 8.16 4.91 8.53
7/6/2021 1:45:00 AM 21.36 70.448 0.535 8.13 4.84 8.48
7/6/2021 2:00:00 AM 21.35 70.43 0.536 8.14 5.58 8.45
7/6/2021 2:15:00 AM 21.35 70.43 0.533 8.12 5.37 8.44
7/6/2021 2:30:00 AM 21.34 70.412 0.292 8.1 5.74 8.43
7/6/2021 2:45:00 AM 21.34 70.412 0.292 8.09 5.84 8.4
7/6/2021 3:00:00 AM 21.35 70.43 0.54 8.1 5.11 8.39
7/6/2021 3:15:00 AM 21.35 70.43 0.277 8.1 5.7 8.39
7/6/2021 3:30:00 AM 21.36 70.448 0.287 8.1 5.12 8.36
7/6/2021 3:45:00 AM 21.36 70.448 0.316 8.11 5.26 8.34
7/6/2021 4:00:00 AM 21.37 70.466 0.289 8.1 5.98 8.33
7/6/2021 4:15:00 AM 21.37 70.466 0.293 8.1 5.8 8.32
7/6/2021 4:30:00 AM 21.38 70.484 0.278 8.09 5.48 8.3
7/6/2021 4:45:00 AM 21.39 70.502 0.297 8.09 5.09 8.29
7/6/2021 5:00:00 AM 21.39 70.502 0.318 8.09 5.81 8.27
7/6/2021 5:15:00 AM 21.4 70.52 0.287 8.09 5.35 8.26
7/6/2021 5:30:00 AM 21.4 70.52 0.291 8.08 5.15 8.24
7/6/2021 5:45:00 AM 21.4 70.52 0.275 8.07 5.37 8.23
7/6/2021 6:00:00 AM 21.4 70.52 0.313 8.08 5.15 8.22
7/6/2021 6:15:00 AM 21.41 70.538 0.328 8.08 5.43 8.24
7/6/2021 6:30:00 AM 21.42 70.556 0.313 8.08 5.64 8.25
7/6/2021 6:45:00 AM 21.43 70.574 0.55 8.08 4.86 8.28
7/6/2021 7:00:00 AM 21.45 70.61 0.297 8.09 5.25 8.31
7/6/2021 7:15:00 AM 21.47 70.646 0.263 8.09 4.84 8.35
7/6/2021 7:30:00 AM 21.48 70.664 0.262 8.1 5.6 8.37
7/6/2021 7:45:00 AM 21.51 70.718 0.297 8.09 5.3 8.39
7/6/2021 8:00:00 AM 21.53 70.754 0.305 8.1 5.57 8.42
7/6/2021 8:15:00 AM 21.56 70.808 0.307 8.11 4.83 8.46
7/6/2021 8:30:00 AM 21.6 70.88 0.307 8.1 5.18 8.51
7/6/2021 8:45:00 AM 21.64 70.952 0.313 8.12 5.18 8.57
7/6/2021 9:00:00 AM 21.7 71.06 0.309 8.12 5.39 8.63
7/6/2021 9:15:00 AM 21.77 71.186 0.312 8.13 5.17 8.71
7/6/2021 9:30:00 AM 21.85 71.33 0.312 8.13 5.4 8.78
7/6/2021 9:45:00 AM 21.91 71.438 0.315 8.15 5.18 8.82
7/6/2021 10:00:00 AM 22 71.6 0.31 8.16 5.15 8.89
7/6/2021 10:15:00 AM 22.08 71.744 0.312 8.16 6.07 8.92
7/6/2021 10:30:00 AM 22.16 71.888 0.31 8.17 5.09 8.99
7/6/2021 10:45:00 AM 22.25 72.05 0.298 8.18 4.9 9.04
7/6/2021 11:00:00 AM 22.35 72.23 0.307 8.2 5.19 9.11
7/6/2021 11:15:00 AM 22.41 72.338 0.309 8.2 5.07 9.12
7/6/2021 11:30:00 AM 22.48 72.464 0.314 8.2 5.11 9.16
7/6/2021 11:45:00 AM 22.56 72.608 0.3 8.21 5.64 9.19
7/6/2021 12:00:00 PM 22.63 72.734 0.304 8.23 5.35 9.24
7/6/2021 12:15:00 PM 22.68 72.824 0.293 8.22 4.74 9.25
7/6/2021 12:30:00 PM 22.76 72.968 0.301 8.23 5.55 9.3
7/6/2021 12:45:00 PM 22.79 73.022 0.314 8.24 6.45 9.3
7/6/2021 1:00:00 PM 22.87 73.166 0.291 8.25 4.77 9.34
7/6/2021 1:15:00 PM 22.91 73.238 0.309 8.26 4.57 9.33
7/6/2021 1:30:00 PM 23 73.4 0.294 8.27 5.27 9.4
7/6/2021 1:45:00 PM 23.06 73.508 0.315 8.29 5.21 9.39
7/6/2021 2:00:00 PM 23.08 73.544 0.559 8.29 4.94 9.31
7/6/2021 2:15:00 PM 23.22 73.796 0.256 8.33 4.88 9.42
7/6/2021 2:30:00 PM 23.29 73.922 0.291 8.33 4.38 9.46
7/6/2021 2:45:00 PM 23.35 74.03 0.3 8.36 4.73 9.54
7/6/2021 3:00:00 PM 23.35 74.03 0.295 8.36 4.46 9.57
7/6/2021 3:15:00 PM 23.33 73.994 0.294 8.38 4.54 9.59
7/6/2021 3:30:00 PM 23.34 74.012 0.295 8.39 4.95 9.61
7/6/2021 3:45:00 PM 23.39 74.102 0.56 8.42 4.67 9.65
7/6/2021 4:00:00 PM 23.43 74.174 0.288 8.42 4.27 9.62
7/6/2021 4:15:00 PM 23.47 74.246 0.56 8.43 4.67 9.62
7/6/2021 4:30:00 PM 23.42 74.156 0.291 8.43 4.46 9.53
7/6/2021 4:45:00 PM 23.44 74.192 0.251 8.44 4.49 9.53
7/6/2021 5:00:00 PM 23.39 74.102 0.303 8.42 4.43 9.26
7/6/2021 5:15:00 PM 23.36 74.048 0.301 8.4 4.48 9.13
7/6/2021 5:30:00 PM 23.35 74.03 0.564 8.41 4.09 9.07
7/6/2021 5:45:00 PM 23.32 73.976 0.247 8.41 4.54 9.07
7/6/2021 6:00:00 PM 23.36 74.048 0.261 8.42 4.29 9.14
7/6/2021 6:15:00 PM 23.48 74.264 0.261 8.45 3.98 9.21
7/6/2021 6:30:00 PM 23.65 74.57 0.312 8.45 4.2 9.3
7/6/2021 6:45:00 PM 23.82 74.876 0.563 8.45 3.93 9.26
7/6/2021 7:00:00 PM 23.91 75.038 0.289 8.46 4.11 9.21
7/6/2021 7:15:00 PM 23.92 75.056 0.3 8.45 4.44 9.13
7/6/2021 7:30:00 PM 23.86 74.948 0.273 8.45 4.63 9.05
7/6/2021 7:45:00 PM 23.74 74.732 0.311 8.44 4.65 8.99
7/6/2021 8:00:00 PM 23.62 74.516 0.564 8.43 4.4 8.94
7/6/2021 8:15:00 PM 23.53 74.354 0.564 8.41 4.59 8.89
7/6/2021 8:30:00 PM 23.46 74.228 0.288 8.4 4.55 8.83
7/6/2021 8:45:00 PM 23.41 74.138 0.289 8.38 5.1 8.77
7/6/2021 9:00:00 PM 23.37 74.066 0.258 8.36 4.41 8.71
7/6/2021 9:15:00 PM 23.33 73.994 0.289 8.35 5.45 8.66
7/6/2021 9:30:00 PM 23.27 73.886 0.3 8.33 5.7 8.65
7/6/2021 9:45:00 PM 23.21 73.778 0.285 8.31 5.01 8.62
7/6/2021 10:00:00 PM 23.17 73.706 0.295 8.3 4.84 8.58
7/6/2021 10:15:00 PM 23.14 73.652 0.257 8.3 4.96 8.58
7/6/2021 10:30:00 PM 23.12 73.616 0.272 8.28 5.37 8.54
7/6/2021 10:45:00 PM 23.12 73.616 0.564 8.27 4.69 8.53
7/6/2021 11:00:00 PM 23.12 73.616 0.271 8.27 4.84 8.51
7/6/2021 11:15:00 PM 23.12 73.616 0.288 8.26 5.01 8.48
7/6/2021 11:30:00 PM 23.1 73.58 0.563 8.25 4.81 8.44
7/6/2021 11:45:00 PM 23.08 73.544 0.284 8.25 4.94 8.45
7/7/2021 12:00:00 AM 23.05 73.49 0.284 8.23 5.18 8.42
7/7/2021 12:15:00 AM 23.03 73.454 0.291 8.22 4.55 8.37
7/7/2021 12:30:00 AM 23 73.4 0.313 8.21 4.66 8.36
7/7/2021 12:45:00 AM 22.98 73.364 0.306 8.2 5.28 8.34
7/7/2021 1:00:00 AM 22.95 73.31 0.564 8.19 4.68 8.31
7/7/2021 1:15:00 AM 22.93 73.274 0.316 8.18 4.5 8.29
7/7/2021 1:30:00 AM 22.92 73.256 0.271 8.18 5.02 8.27
7/7/2021 1:45:00 AM 22.9 73.22 0.287 8.17 4.94 8.25
7/7/2021 2:00:00 AM 22.89 73.202 0.565 8.16 4.62 8.22
7/7/2021 2:15:00 AM 22.88 73.184 0.286 8.15 4.65 8.22
7/7/2021 2:30:00 AM 22.88 73.184 0.272 8.16 5.43 8.19
7/7/2021 2:45:00 AM 22.88 73.184 0.293 8.15 4.72 8.18
7/7/2021 3:00:00 AM 22.87 73.166 0.287 8.14 4.82 8.16
7/7/2021 3:15:00 AM 22.87 73.166 0.294 8.15 5.17 8.16
7/7/2021 3:30:00 AM 22.86 73.148 0.287 8.14 4.9 8.13
7/7/2021 3:45:00 AM 22.87 73.166 0.565 8.13 5.08 8.11
7/7/2021 4:00:00 AM 22.87 73.166 0.565 8.13 5.04 8.12
7/7/2021 4:15:00 AM 22.88 73.184 0.293 8.13 5.32 8.11
7/7/2021 4:30:00 AM 22.88 73.184 0.311 8.12 4.99 8.08
7/7/2021 4:45:00 AM 22.88 73.184 0.297 8.12 4.7 8.07
7/7/2021 5:00:00 AM 22.89 73.202 0.313 8.11 4.65 8.04
7/7/2021 5:15:00 AM 22.89 73.202 0.263 8.12 5.05 8.04
7/7/2021 5:30:00 AM 22.89 73.202 0.317 8.11 5.48 7.99
7/7/2021 5:45:00 AM 22.9 73.22 0.257 8.11 5.16 7.99
7/7/2021 6:00:00 AM 22.9 73.22 0.567 8.11 4.75 7.99
7/7/2021 6:15:00 AM 22.91 73.238 0.251 8.1 5.17 8
7/7/2021 6:30:00 AM 22.92 73.256 0.276 8.11 5.09 8.03
7/7/2021 6:45:00 AM 22.93 73.274 0.313 8.11 4.84 8.04
7/7/2021 7:00:00 AM 22.95 73.31 0.302 8.11 5.12 8.07
7/7/2021 7:15:00 AM 22.97 73.346 0.275 8.12 5.27 8.09
7/7/2021 7:30:00 AM 22.99 73.382 0.275 8.12 4.95 8.11
7/7/2021 7:45:00 AM 23.02 73.436 0.314 8.12 4.9 8.13
7/7/2021 8:00:00 AM 23.05 73.49 0.569 8.14 4.72 8.15
7/7/2021 8:15:00 AM 23.08 73.544 0.57 8.13 4.48 8.19
7/7/2021 8:30:00 AM 23.12 73.616 0.251 8.13 5.07 8.25
7/7/2021 8:45:00 AM 23.18 73.724 0.294 8.14 5.03 8.31
7/7/2021 9:00:00 AM 23.24 73.832 0.314 8.15 4.71 8.38
7/7/2021 9:15:00 AM 23.31 73.958 0.27 8.17 4.78 8.45
7/7/2021 9:30:00 AM 23.39 74.102 0.3 8.17 5.24 8.54
7/7/2021 9:45:00 AM 23.48 74.264 0.306 8.17 5.19 8.59
7/7/2021 10:00:00 AM 23.57 74.426 0.319 8.18 5.02 8.65
7/7/2021 10:15:00 AM 23.66 74.588 0.258 8.2 5.07 8.72
7/7/2021 10:30:00 AM 23.74 74.732 0.254 8.21 4.93 8.77
7/7/2021 10:45:00 AM 23.8 74.84 0.283 8.21 4.66 8.83
7/7/2021 11:00:00 AM 23.87 74.966 0.571 8.21 4.83 8.89
7/7/2021 11:15:00 AM 23.93 75.074 0.3 8.23 4.67 8.96
7/7/2021 11:30:00 AM 24.03 75.254 0.243 8.23 4.6 9.03
7/7/2021 11:45:00 AM 24.08 75.344 0.272 8.25 5.1 9.01
7/7/2021 12:00:00 PM 24.14 75.452 0.571 8.25 4.57 9.02
7/7/2021 12:15:00 PM 24.15 75.47 0.312 8.25 4.84 9.05
7/7/2021 12:30:00 PM 24.2 75.56 0.573 8.26 4.53 9.03
7/7/2021 12:45:00 PM 24.19 75.542 0.268 8.26 5.21 9.01
7/7/2021 1:00:00 PM 24.23 75.614 0.316 8.26 4.43 9.01
7/7/2021 1:15:00 PM 24.31 75.758 0.297 8.28 4.53 9.14
7/7/2021 1:30:00 PM 24.34 75.812 0.296 8.29 4.73 9.1
7/7/2021 1:45:00 PM 24.44 75.992 0.241 8.3 4.31 9.24
7/7/2021 2:00:00 PM 24.55 76.19 0.266 8.32 4.73 9.31
7/7/2021 2:15:00 PM 24.64 76.352 0.257 8.34 4.75 9.32
7/7/2021 2:30:00 PM 24.69 76.442 0.322 8.34 4.32 9.31
7/7/2021 2:45:00 PM 24.71 76.478 0.264 8.36 4.76 9.32
7/7/2021 3:00:00 PM 24.77 76.586 0.306 8.37 4.84 9.36
7/7/2021 3:15:00 PM 24.79 76.622 0.241 8.37 4.57 9.31
7/7/2021 3:30:00 PM 24.78 76.604 0.27 8.38 4.29 9.21
7/7/2021 3:45:00 PM 24.81 76.658 0.289 8.39 4.68 9.31
7/7/2021 4:00:00 PM 24.71 76.478 0.302 8.38 4.48 9.19
7/7/2021 4:15:00 PM 24.72 76.496 0.315 8.38 4.32 9.1
7/7/2021 4:30:00 PM 24.76 76.568 0.271 8.38 4.42 9.09
7/7/2021 4:45:00 PM 24.83 76.694 0.314 8.4 4.01 9.22
7/7/2021 5:00:00 PM 24.86 76.748 0.263 8.41 4.1 9.23
7/7/2021 5:15:00 PM 24.91 76.838 0.29 8.42 4.32 9.18
7/7/2021 5:30:00 PM 25.01 77.018 0.254 8.42 4.5 9.02
7/7/2021 5:45:00 PM 25.14 77.252 0.265 8.42 4.63 9.01
7/7/2021 6:00:00 PM 25.15 77.27 0.285 8.42 4.58 8.95
7/7/2021 6:15:00 PM 25.2 77.36 0.317 8.42 4.75 8.91
7/7/2021 6:30:00 PM 25.15 77.27 0.245 8.43 5.15 8.86
7/7/2021 6:45:00 PM 25.1 77.18 0.317 8.42 4.37 8.77
7/7/2021 7:00:00 PM 25.05 77.09 0.307 8.41 4.44 8.7
7/7/2021 7:15:00 PM 25.01 77.018 0.297 8.4 4.37 8.57
7/7/2021 7:30:00 PM 24.96 76.92799 0.29 8.39 4.48 8.53
7/7/2021 7:45:00 PM 24.85 76.73 0.314 8.39 5.01 8.55
7/7/2021 8:00:00 PM 24.74 76.532 0.31 8.38 4.9 8.55
7/7/2021 8:15:00 PM 24.66 76.388 0.307 8.38 4.51 8.49
7/7/2021 8:30:00 PM 24.57 76.226 0.256 8.36 5.07 8.45
7/7/2021 8:45:00 PM 24.51 76.118 0.304 8.35 4.5 8.4
7/7/2021 9:00:00 PM 24.45 76.01 0.318 8.34 6.05 8.4
7/7/2021 9:15:00 PM 24.38 75.884 0.576 8.32 4.72 8.37
7/7/2021 9:30:00 PM 24.34 75.812 0.316 8.31 5.12 8.34
7/7/2021 9:45:00 PM 24.3 75.74 0.255 8.3 5.3 8.35
7/7/2021 10:00:00 PM 24.26 75.668 0.577 8.29 2.81 8.3
7/7/2021 10:15:00 PM 24.23 75.614 0.257 8.28 4.87 8.3
7/7/2021 10:30:00 PM 24.21 75.578 0.576 8.27 4.87 8.28
7/7/2021 10:45:00 PM 24.19 75.542 0.304 8.26 5.16 8.25
7/7/2021 11:00:00 PM 24.17 75.506 0.306 8.26 5.32 8.22
7/7/2021 11:15:00 PM 24.15 75.47 0.268 8.25 4.96 8.19
7/7/2021 11:30:00 PM 24.12 75.416 0.279 8.24 4.77 8.17
7/7/2021 11:45:00 PM 24.09 75.362 0.25 8.23 5.03 8.18
7/8/2021 12:00:00 AM 24.06 75.308 0.302 8.23 5.1 8.16
7/8/2021 12:15:00 AM 24.03 75.254 0.255 8.22 5.83 8.14
7/8/2021 12:30:00 AM 24 75.2 0.575 8.21 9.55 8.09
7/8/2021 12:45:00 AM 23.97 75.146 0.156 8.18 5.23 8.09
7/8/2021 1:00:00 AM 23.95 75.11 0.576 8.19 5.11 8.06
7/8/2021 1:15:00 AM 23.92 75.056 0.323 8.18 5.28 8.02
7/8/2021 1:30:00 AM 23.91 75.038 0.294 8.17 4.79 8.01
7/8/2021 1:45:00 AM 23.88 74.984 0.276 8.15 4.63 7.98
7/8/2021 2:00:00 AM 23.87 74.966 0.576 8.14 4.79 7.95
7/8/2021 2:15:00 AM 23.85 74.93 0.576 8.15 5.18 7.92
7/8/2021 2:30:00 AM 23.83 74.894 0.308 8.14 5.12 7.9
7/8/2021 2:45:00 AM 23.82 74.876 0.282 8.13 4.47 7.88
7/8/2021 3:00:00 AM 23.8 74.84 0.294 8.13 4.98 7.87
7/8/2021 3:15:00 AM 23.78 74.804 0.312 8.14 5.21 7.85
7/8/2021 3:30:00 AM 23.77 74.786 0.249 8.12 5.46 7.84
7/8/2021 3:45:00 AM 23.76 74.768 0.575 8.13 4.91 7.84
7/8/2021 4:00:00 AM 23.75 74.75 0.305 8.13 4.82 7.82
7/8/2021 4:15:00 AM 23.75 74.75 0.575 8.13 4.95 7.81
7/8/2021 4:30:00 AM 23.75 74.75 0.316 8.13 4.95 7.81
7/8/2021 4:45:00 AM 23.75 74.75 0.296 8.12 4.82 7.79
7/8/2021 5:00:00 AM 23.74 74.732 0.287 8.1 5.01 7.77
7/8/2021 5:15:00 AM 23.74 74.732 0.257 8.12 5.23 7.77
7/8/2021 5:30:00 AM 23.74 74.732 0.293 8.11 5.49 7.74
7/8/2021 5:45:00 AM 23.73 74.714 0.256 8.11 4.89 7.73
7/8/2021 6:00:00 AM 23.73 74.714 0.293 8.1 4.86 7.73
7/8/2021 6:15:00 AM 23.74 74.732 0.31 8.11 5.09 7.75
7/8/2021 6:30:00 AM 23.74 74.732 0.302 8.11 5.38 7.75
7/8/2021 6:45:00 AM 23.74 74.732 0.309 8.12 4.94 7.76
7/8/2021 7:00:00 AM 23.76 74.768 0.291 8.11 4.71 7.8
7/8/2021 7:15:00 AM 23.76 74.768 0.306 8.11 4.9 7.81
7/8/2021 7:30:00 AM 23.77 74.786 0.574 8.12 4.76 7.81
7/8/2021 7:45:00 AM 23.77 74.786 0.28 8.11 6.01 7.85
7/8/2021 8:00:00 AM 23.8 74.84 0.306 8.12 4.94 7.96
7/8/2021 8:15:00 AM 23.82 74.876 0.307 8.13 5.06 8
7/8/2021 8:30:00 AM 23.84 74.912 0.312 8.14 5.07 8.04
7/8/2021 8:45:00 AM 23.89 75.002 0.29 8.14 4.99 8.23
7/8/2021 9:00:00 AM 23.95 75.11 0.291 8.15 4.97 8.35
7/8/2021 9:15:00 AM 23.94 75.092 0.305 8.16 4.5 8.2
7/8/2021 9:30:00 AM 24 75.2 0.301 8.17 4.94 8.38
7/8/2021 9:45:00 AM 24.01 75.218 0.271 8.16 4.63 8.28
7/8/2021 10:00:00 AM 24.01 75.218 0.314 8.16 4.74 8.21
7/8/2021 10:15:00 AM 24.01 75.218 0.267 8.15 4.85 8.11
7/8/2021 10:30:00 AM 24.01 75.218 0.302 8.15 4.96 8.07
7/8/2021 10:45:00 AM 24.01 75.218 0.261 8.13 5.49 8.05
7/8/2021 11:00:00 AM 24.01 75.218 0.575 8.14 4.42 8.03
7/8/2021 11:15:00 AM 24.03 75.254 0.281 8.15 4.56 8.13
7/8/2021 11:30:00 AM 24.07 75.326 0.294 8.16 4.55 8.31
7/8/2021 11:45:00 AM 24.13 75.434 0.321 8.18 4.7 8.5
7/8/2021 12:00:00 PM 24.16 75.488 0.243 8.19 4.56 8.51
7/8/2021 12:15:00 PM 24.21 75.578 0.327 8.18 4.67 8.6
7/8/2021 12:30:00 PM 24.26 75.668 0.276 8.21 4.39 8.7
7/8/2021 12:45:00 PM 24.28 75.704 0.318 8.22 4.42 8.68
7/8/2021 1:00:00 PM 24.29 75.722 0.251 8.21 4.88 8.61
7/8/2021 1:15:00 PM 24.39 75.902 0.286 8.24 4.63 8.87
7/8/2021 1:30:00 PM 24.47 76.046 0.322 8.27 4.97 9
7/8/2021 1:45:00 PM 24.56 76.208 0.311 8.27 4.7 9.06
7/8/2021 2:00:00 PM 24.63 76.334 0.278 8.28 4.33 9.08
7/8/2021 2:15:00 PM 24.62 76.316 0.274 8.28 5.06 9.02
7/8/2021 2:30:00 PM 24.61 76.298 0.263 8.26 4.65 8.95
7/8/2021 2:45:00 PM 24.51 76.118 0.305 8.23 4.52 8.38
7/8/2021 3:00:00 PM 24.41 75.938 0.245 8.2 5.01 8.03
7/8/2021 3:15:00 PM 24.31 75.758 0.323 8.2 4.76 8.05
7/8/2021 3:30:00 PM 24.24 75.632 0.31 8.19 4.63 7.89
7/8/2021 3:45:00 PM 24.17 75.506 0.304 8.18 4.58 7.86
7/8/2021 4:00:00 PM 24.13 75.434 0.302 8.17 4.77 7.82
7/8/2021 4:15:00 PM 24.12 75.416 0.256 8.15 4.76 7.85
7/8/2021 4:30:00 PM 24.1 75.38 0.31 8.18 4.56 7.84
7/8/2021 4:45:00 PM 24.08 75.344 0.272 8.19 4.72 7.96
7/8/2021 5:00:00 PM 24.05 75.29 0.322 8.2 4.53 7.94
7/8/2021 5:15:00 PM 24.03 75.254 0.245 8.18 4.77 7.98
7/8/2021 5:30:00 PM 24.03 75.254 0.311 8.2 4.4 8.04
7/8/2021 5:45:00 PM 24.04 75.272 0.307 8.21 4.63 8.07
7/8/2021 6:00:00 PM 24.03 75.254 0.25 8.21 18.98 8.15
7/8/2021 6:15:00 PM 24.01 75.218 0.303 8.23 4.67 8.19
7/8/2021 6:30:00 PM 24 75.2 0.288 8.23 4.52 8.22
7/8/2021 6:45:00 PM 23.98 75.164 0.263 8.22 4.69 8.22
7/8/2021 7:00:00 PM 23.96 75.128 0.583 8.23 4.62 8.21
7/8/2021 7:15:00 PM 23.92 75.056 0.325 8.22 5.1 8.2
7/8/2021 7:30:00 PM 23.89 75.002 0.324 8.22 5 8.14
7/8/2021 7:45:00 PM 23.86 74.948 0.267 8.21 4.92 8.11
7/8/2021 8:00:00 PM 23.82 74.876 0.321 8.21 4.75 8.07
7/8/2021 8:15:00 PM 23.78 74.804 0.284 8.19 4.61 7.99
7/8/2021 8:30:00 PM 23.73 74.714 0.316 8.18 5.01 7.95
7/8/2021 8:45:00 PM 23.69 74.642 0.26 8.16 4.83 7.91
7/8/2021 9:00:00 PM 23.65 74.57 0.584 8.08 4.79 7.84
7/8/2021 9:15:00 PM 23.62 74.516 0.259 8.14 5.17 7.8
7/8/2021 9:30:00 PM 23.59 74.462 0.323 8.14 5.45 7.76
7/8/2021 9:45:00 PM 23.56 74.408 0.318 8.13 5.32 7.75
7/8/2021 10:00:00 PM 23.54 74.372 0.585 8.12 4.96 7.7
7/8/2021 10:15:00 PM 23.51 74.318 0.322 8.11 5.72 7.67
7/8/2021 10:30:00 PM 23.48 74.264 0.301 8.1 5.13 7.66
7/8/2021 10:45:00 PM 23.45 74.21 0.319 8.1 5.19 7.65
7/8/2021 11:00:00 PM 23.42 74.156 0.587 8.09 5.17 7.62
7/8/2021 11:15:00 PM 23.39 74.102 0.588 8.08 4.9 7.58
7/8/2021 11:30:00 PM 23.35 74.03 0.274 8.06 5.54 7.57
7/8/2021 11:45:00 PM 23.33 73.994 0.267 8.07 4.78 7.57
7/9/2021 12:00:00 AM 23.3 73.94 0.254 8.06 5.57 7.57
7/9/2021 12:15:00 AM 23.27 73.886 0.299 8.06 5.78 7.57
7/9/2021 12:30:00 AM 23.24 73.832 0.253 8.06 5.86 7.56
7/9/2021 12:45:00 AM 23.21 73.778 0.299 8.06 3.63 7.54
7/9/2021 1:00:00 AM 23.18 73.724 0.25 8.06 5.49 7.55
7/9/2021 1:15:00 AM 23.15 73.67 0.315 8.06 5.52 7.56
7/9/2021 1:30:00 AM 23.12 73.616 0.305 8.06 5.37 7.56
7/9/2021 1:45:00 AM 23.09 73.562 0.29 8.06 5.25 7.56
7/9/2021 2:00:00 AM 23.05 73.49 0.592 8.06 5.6 7.57
7/9/2021 2:15:00 AM 23.02 73.436 0.254 8.05 5.31 7.58
7/9/2021 2:30:00 AM 22.98 73.364 0.329 8.06 5.73 7.58
7/9/2021 2:45:00 AM 22.95 73.31 0.286 8.05 5.74 7.59
7/9/2021 3:00:00 AM 22.92 73.256 0.255 8.04 5.77 7.61
7/9/2021 3:15:00 AM 22.89 73.202 0.259 8.04 5.58 7.6
7/9/2021 3:30:00 AM 22.85 73.13 0.305 8.05 5.43 7.6
7/9/2021 3:45:00 AM 22.82 73.076 0.27 8.05 5.59 7.61
7/9/2021 4:00:00 AM 22.79 73.022 0.266 8.04 5.79 7.61
7/9/2021 4:15:00 AM 22.77 72.986 0.595 8.05 5.39 7.61
7/9/2021 4:30:00 AM 22.75 72.95 0.593 8.05 5.39 7.63
7/9/2021 4:45:00 AM 22.73 72.914 0.314 8.05 6.29 7.66
7/9/2021 5:00:00 AM 22.7 72.86 0.593 8.06 5.46 7.66
7/9/2021 5:15:00 AM 22.68 72.824 0.283 8.04 6.12 7.71
7/9/2021 5:30:00 AM 22.65 72.77 0.326 8.06 6.66 7.74
7/9/2021 5:45:00 AM 22.63 72.734 0.253 8.05 7.63 7.76
7/9/2021 6:00:00 AM 22.59 72.662 0.25 8.05 1273.14 7.82
7/9/2021 6:15:00 AM 22.56 72.608 0.336 8.03 12.11 7.86
7/9/2021 6:30:00 AM 22.51 72.518 0.32 8.04 7.15 7.88
7/9/2021 6:45:00 AM 22.46 72.42799 0.25 8.03 8.28 7.87
7/9/2021 7:00:00 AM 22.41 72.338 0.305 8.02 4.51 7.87
7/9/2021 7:15:00 AM 22.33 72.194 0.317 8.01 7.39 7.86
7/9/2021 7:30:00 AM 22.25 72.05 0.267 8.01 6.81 7.85
7/9/2021 7:45:00 AM 22.15 71.87 0.284 8 4.4 7.85
7/9/2021 8:00:00 AM 22.05 71.69 0.318 8 6.4 7.86
7/9/2021 8:15:00 AM 21.96 71.528 0.264 8 6.96 7.9
7/9/2021 8:30:00 AM 21.87 71.366 0.27 8 6.3 7.94
7/9/2021 8:45:00 AM 21.81 71.258 0.299 8.01 6.45 7.99
7/9/2021 9:00:00 AM 21.78 71.204 0.272 8.01 6.52 8.04
7/9/2021 9:15:00 AM 21.79 71.222 0.26 8.02 6.65 8.1
7/9/2021 9:30:00 AM 21.82 71.276 0.319 8.03 6.03 8.15
7/9/2021 9:45:00 AM 21.87 71.366 0.32 8.06 5.43 8.2
7/9/2021 10:00:00 AM 21.94 71.492 0.286 8.06 5.38 8.28
7/9/2021 10:15:00 AM 22.01 71.618 0.298 8.08 5.32 8.34
7/9/2021 10:30:00 AM 22.07 71.726 0.254 8.11 5.58 8.38
7/9/2021 10:45:00 AM 22.1 71.78 0.298 8.11 5.53 8.38
7/9/2021 11:00:00 AM 22.19 71.942 0.309 8.14 5.36 8.5
7/9/2021 11:15:00 AM 22.26 72.068 0.325 8.15 5.62 8.54
7/9/2021 11:30:00 AM 22.36 72.248 0.586 8.17 5.7 8.58
7/9/2021 11:45:00 AM 22.39 72.302 0.321 8.18 5.8 8.6
7/9/2021 12:00:00 PM 22.39 72.302 0.3 8.18 5.42 8.56
7/9/2021 12:15:00 PM 22.45 72.41 0.263 8.2 6.5 8.65
7/9/2021 12:30:00 PM 22.57 72.626 0.314 8.21 4.8 8.74
7/9/2021 12:45:00 PM 22.68 72.824 0.292 8.23 6.19 8.78
7/9/2021 1:00:00 PM 22.7 72.86 0.29 8.24 5.84 8.74
7/9/2021 1:15:00 PM 22.84 73.112 0.315 8.26 8.1 8.88
7/9/2021 1:30:00 PM 22.84 73.112 0.256 8.25 5.98 8.79
7/9/2021 1:45:00 PM 22.89 73.202 0.29 8.28 5.74 8.85
7/9/2021 2:00:00 PM 22.98 73.364 0.314 8.29 6.22 8.84
7/9/2021 2:15:00 PM 23.11 73.598 0.297 8.3 6.06 8.92
7/9/2021 2:30:00 PM 23.18 73.724 0.297 8.3 5.62 8.9
7/9/2021 2:45:00 PM 23.24 73.832 0.569 8.32 5.81 8.89
7/9/2021 3:00:00 PM 23.31 73.958 0.254 8.34 5.71 8.95
7/9/2021 3:15:00 PM 23.38 74.084 0.259 8.34 6 8.94
7/9/2021 3:30:00 PM 23.43 74.174 0.248 8.37 5.71 8.93
7/9/2021 3:45:00 PM 23.49 74.282 0.252 8.36 5.85 8.92
7/9/2021 4:00:00 PM 23.57 74.426 0.285 8.39 5.62 8.99
7/9/2021 4:15:00 PM 23.57 74.426 0.263 8.38 5.73 8.81
7/9/2021 4:30:00 PM 23.61 74.498 0.253 8.4 5.81 8.9
7/9/2021 4:45:00 PM 23.67 74.606 0.305 8.4 5.54 8.9
7/9/2021 5:00:00 PM 23.78 74.804 0.28 8.42 5.74 9.03
7/9/2021 5:15:00 PM 23.86 74.948 0.288 8.43 5.37 8.97
7/9/2021 5:30:00 PM 23.83 74.894 0.301 8.41 5.95 8.8
7/9/2021 5:45:00 PM 23.72 74.696 0.306 8.4 6.21 8.67
7/9/2021 6:00:00 PM 23.57 74.426 0.308 8.38 6.85 8.64
7/9/2021 6:15:00 PM 23.58 74.444 0.286 8.38 7.09 8.67
7/9/2021 6:30:00 PM 23.67 74.606 0.562 8.38 6.49 8.76
7/9/2021 6:45:00 PM 23.7 74.66 0.28 8.36 3.12 8.69
7/9/2021 7:00:00 PM 23.7 74.66 0.562 8.36 6.34 8.64
7/9/2021 7:15:00 PM 23.7 74.66 0.303 8.35 6.94 8.61
7/9/2021 7:30:00 PM 23.7 74.66 0.302 8.34 8.52 8.58
7/9/2021 7:45:00 PM 23.68 74.624 0.25 8.32 6.68 8.56
7/9/2021 8:00:00 PM 23.65 74.57 0.279 8.3 7.31 8.5
7/9/2021 8:15:00 PM 23.64 74.552 0.256 8.27 6.11 8.44
7/9/2021 8:30:00 PM 23.63 74.534 0.31 8.27 6.1 8.39
7/9/2021 8:45:00 PM 23.63 74.534 0.284 8.25 6.2 8.36
7/9/2021 9:00:00 PM 23.63 74.534 0.531 8.24 6.46 8.34
7/9/2021 9:15:00 PM 23.64 74.552 0.285 8.22 6.5 8.32
7/9/2021 9:30:00 PM 23.65 74.57 0.311 8.21 6.64 8.31
7/9/2021 9:45:00 PM 23.66 74.588 0.264 8.19 7.06 8.27
7/9/2021 10:00:00 PM 23.67 74.606 0.286 8.17 10.59 8.27
7/9/2021 10:15:00 PM 23.65 74.57 0.288 8.11 9.53 8.28
7/9/2021 10:30:00 PM 23.58 74.444 0.264 8.06 65.46 8.23
7/9/2021 10:45:00 PM 23.48 74.264 0.284 8.01 11.02 8.17
7/9/2021 11:00:00 PM 23.35 74.03 0.293 7.99 20.21 8.09
7/9/2021 11:15:00 PM 23.31 73.958 0.304 7.96 17.15 8.05
7/9/2021 11:30:00 PM 23.33 73.994 0.287 7.94 22.31 8.02
7/9/2021 11:45:00 PM 23.25 73.85 0.274 7.91 42.95 8.01
7/10/2021 12:00:00 AM 23.16 73.688 0.29 7.88 51.1 8
7/10/2021 12:15:00 AM 23.11 73.598 0.27 7.86 52.94 7.99
7/10/2021 12:30:00 AM 23.1 73.58 0.287 7.86 52.59 7.98
7/10/2021 12:45:00 AM 23.11 73.598 0.234 7.84 44.76 7.97
7/10/2021 1:00:00 AM 23.13 73.634 0.293 7.83 44.98 7.96
7/10/2021 1:15:00 AM 23.16 73.688 0.264 7.84 32.34 7.93
7/10/2021 1:30:00 AM 23.2 73.76 0.291 7.82 32.24 7.93
7/10/2021 1:45:00 AM 23.24 73.832 0.273 7.82 65.02 7.9
7/10/2021 2:00:00 AM 23.28 73.904 0.287 7.81 81.67 7.88
7/10/2021 2:15:00 AM 23.3 73.94 0.28 7.81 49.23 7.86
7/10/2021 2:30:00 AM 23.31 73.958 0.279 7.79 44.19 7.83
7/10/2021 2:45:00 AM 23.3 73.94 0.266 7.8 50.45 7.83
7/10/2021 3:00:00 AM 23.27 73.886 0.315 7.79 35.37 7.82
7/10/2021 3:15:00 AM 23.23 73.814 0.28 7.8 38.27 7.85
7/10/2021 3:30:00 AM 23.17 73.706 0.271 7.8 40.41 7.86
7/10/2021 3:45:00 AM 23.1 73.58 0.251 7.78 43.99 7.87
7/10/2021 4:00:00 AM 23.02 73.436 0.232 7.78 37.78 7.89
7/10/2021 4:15:00 AM 22.94 73.292 0.216 7.77 33.19 7.91
7/10/2021 4:30:00 AM 22.86 73.148 0.205 7.75 32.18 7.92
7/10/2021 4:45:00 AM 22.8 73.04 0.197 7.74 25.63 7.93
7/10/2021 5:00:00 AM 22.73 72.914 0.186 7.74 40.09 7.95
7/10/2021 5:15:00 AM 22.67 72.806 0.18 7.72 30.41 7.96
7/10/2021 5:30:00 AM 22.62 72.716 0.174 7.73 26.03 7.97
7/10/2021 5:45:00 AM 22.57 72.626 0.169 7.74 27.8 7.98
7/10/2021 6:00:00 AM 22.52 72.536 0.177 7.72 29.32 7.99
7/10/2021 6:15:00 AM 22.47 72.446 0.165 7.74 32.61 7.99
7/10/2021 6:30:00 AM 22.43 72.374 0.184 7.76 38.84 8
7/10/2021 6:45:00 AM 22.39 72.302 0.185 7.75 39.81 8.01
7/10/2021 7:00:00 AM 22.34 72.212 0.186 7.75 40.88 8.01
7/10/2021 7:15:00 AM 22.28 72.104 0.217 7.76 57.54 8.01
7/10/2021 7:30:00 AM 22.22 71.996 0.192 7.75 56.1 8.02
7/10/2021 7:45:00 AM 22.17 71.906 0.223 7.76 76.58 8.02
7/10/2021 8:00:00 AM 22.12 71.816 0.198 7.75 74.82 8
7/10/2021 8:15:00 AM 22.07 71.726 0.201 7.76 60.23 7.96
7/10/2021 8:30:00 AM 22.03 71.654 0.23 7.74 67.28 7.93
7/10/2021 8:45:00 AM 22.01 71.618 0.207 7.74 81.38 7.93
7/10/2021 9:00:00 AM 21.99 71.582 0.204 7.74 72.37 7.98
7/10/2021 9:15:00 AM 21.98 71.564 0.18 7.75 114.69 7.97
7/10/2021 9:30:00 AM 21.98 71.564 0.216 7.77 71.08 7.97
7/10/2021 9:45:00 AM 21.99 71.582 0.195 7.77 59.21 7.99
7/10/2021 10:00:00 AM 22 71.6 0.229 7.74 86.42 7.98
7/10/2021 10:15:00 AM 21.99 71.582 0.22 7.77 58.94 8
7/10/2021 10:30:00 AM 22 71.6 0.237 7.78 56.95 7.98
7/10/2021 10:45:00 AM 21.99 71.582 0.227 7.79 46.05 7.99
7/10/2021 11:00:00 AM 22.05 71.69 0.242 7.77 44.97 8.02
7/10/2021 11:15:00 AM 22.05 71.69 0.233 7.79 37.59 8
7/10/2021 11:30:00 AM 22.01 71.618 0.254 7.78 43.2 7.96
7/10/2021 11:45:00 AM 22.05 71.69 0.245 7.8 40.81 7.99
7/10/2021 12:00:00 PM 22.11 71.798 0.26 7.82 38.73 8.03
7/10/2021 12:15:00 PM 22.09 71.762 0.248 7.82 36.73 8
7/10/2021 12:30:00 PM 22.09 71.762 0.263 7.83 36.04 7.96
7/10/2021 12:45:00 PM 22.17 71.906 0.231 7.83 34.08 8.05
7/10/2021 1:00:00 PM 22.24 72.032 0.255 7.81 35.37 8.05
7/10/2021 1:15:00 PM 22.29 72.122 0.231 7.85 29.86 8.06
7/10/2021 1:30:00 PM 22.28 72.104 0.27 7.86 31.59 7.96
7/10/2021 1:45:00 PM 22.31 72.158 0.261 7.85 31.6 8.05
7/10/2021 2:00:00 PM 22.34 72.212 0.257 7.84 31.21 8.09
7/10/2021 2:15:00 PM 22.47 72.446 0.267 7.86 28.87 8.08
7/10/2021 2:30:00 PM 22.55 72.59 0.269 7.87 30.79 8.03
7/10/2021 2:45:00 PM 22.59 72.662 0.261 7.88 30.25 8.06
7/10/2021 3:00:00 PM 22.67 72.806 0.27 7.89 33.4 8.05
7/10/2021 3:15:00 PM 22.73 72.914 0.265 7.89 33.95 8.04
7/10/2021 3:30:00 PM 22.78 73.004 0.269 7.88 29.79 8.03
7/10/2021 3:45:00 PM 22.84 73.112 0.269 7.9 28.87 8.01
7/10/2021 4:00:00 PM 22.89 73.202 0.263 7.9 29.6 8.03
7/10/2021 4:15:00 PM 22.94 73.292 0.272 7.89 27.11 8.02
7/10/2021 4:30:00 PM 22.99 73.382 0.253 7.9 28.41 8.02
7/10/2021 4:45:00 PM 23.04 73.472 0.267 7.9 30.76 7.98
7/10/2021 5:00:00 PM 23.07 73.526 0.268 7.91 28.48 8.03
7/10/2021 5:15:00 PM 23.09 73.562 0.241 7.93 25.01 7.97
7/10/2021 5:30:00 PM 23.1 73.58 0.261 7.89 25.98 7.97
7/10/2021 5:45:00 PM 23.1 73.58 0.264 7.92 23.96 7.97
7/10/2021 6:00:00 PM 23.11 73.598 0.275 7.92 25.11 7.98
7/10/2021 6:15:00 PM 23.09 73.562 0.269 7.92 22.37 7.94
7/10/2021 6:30:00 PM 23.08 73.544 0.302 7.92 23.08 7.93
7/10/2021 6:45:00 PM 23.06 73.508 0.267 7.9 23.93 7.93
7/10/2021 7:00:00 PM 23.02 73.436 0.275 7.92 22.21 7.92
7/10/2021 7:15:00 PM 22.97 73.346 0.303 7.9 21.76 7.91
7/10/2021 7:30:00 PM 22.91 73.238 0.28 7.9 21.29 7.85
7/10/2021 7:45:00 PM 22.86 73.148 0.306 7.89 23.61 7.86
7/10/2021 8:00:00 PM 22.81 73.058 0.28 7.89 19.74 7.86
7/10/2021 8:15:00 PM 22.77 72.986 0.275 7.89 19.56 7.83
7/10/2021 8:30:00 PM 22.73 72.914 0.265 7.86 19.38 7.8
7/10/2021 8:45:00 PM 22.7 72.86 0.283 7.86 19.52 7.82
7/10/2021 9:00:00 PM 22.68 72.824 0.266 7.88 20.97 7.82
7/10/2021 9:15:00 PM 22.67 72.806 0.282 7.85 21.34 7.8
7/10/2021 9:30:00 PM 22.65 72.77 0.314 7.86 18.43 7.84
7/10/2021 9:45:00 PM 22.64 72.752 0.286 7.85 20.06 7.78
7/10/2021 10:00:00 PM 22.63 72.734 0.281 7.85 19.96 7.82
7/10/2021 10:15:00 PM 22.62 72.716 0.287 7.83 15.77 7.77
7/10/2021 10:30:00 PM 22.61 72.698 0.262 7.85 17.55 7.77
7/10/2021 10:45:00 PM 22.6 72.68 0.246 7.86 17.88 7.79
7/10/2021 11:00:00 PM 22.59 72.662 0.318 7.84 19.26 7.78
7/10/2021 11:15:00 PM 22.57 72.626 0.261 7.85 17.92 7.79
7/10/2021 11:30:00 PM 22.56 72.608 0.276 7.85 17.67 7.72
7/10/2021 11:45:00 PM 22.54 72.57201 0.262 7.84 17.45 7.78
7/11/2021 12:00:00 AM 22.53 72.554 0.266 7.83 18.12 7.76
7/11/2021 12:15:00 AM 22.51 72.518 0.321 7.83 17.8 7.71
7/11/2021 12:30:00 AM 22.5 72.5 0.263 7.82 18.1 7.67
7/11/2021 12:45:00 AM 22.48 72.464 0.32 7.83 17.29 7.73
7/11/2021 1:00:00 AM 22.46 72.42799 0.254 7.81 18.15 7.7
7/11/2021 1:15:00 AM 22.44 72.392 0.261 7.81 16.61 7.67
7/11/2021 1:30:00 AM 22.41 72.338 0.264 7.82 18.04 7.7
7/11/2021 1:45:00 AM 22.4 72.32 0.274 7.81 17.21 7.66
7/11/2021 2:00:00 AM 22.37 72.266 0.27 7.82 17.71 7.63
7/11/2021 2:15:00 AM 22.35 72.23 0.258 7.8 25.68 7.5
7/11/2021 2:30:00 AM 22.34 72.212 0.202 7.82 403.28 7.61
7/11/2021 2:45:00 AM 22.32 72.176 0.281 7.82 21.68 7.66
7/11/2021 3:00:00 AM 22.31 72.158 0.27 7.81 17.37 7.65
7/11/2021 3:15:00 AM 22.29 72.122 0.271 7.8 16.22 7.64
7/11/2021 3:30:00 AM 22.28 72.104 0.27 7.81 14.17 7.62
7/11/2021 3:45:00 AM 22.26 72.068 0.262 7.79 16.85 7.62
7/11/2021 4:00:00 AM 22.24 72.032 0.258 7.79 19.04 7.6
7/11/2021 4:15:00 AM 22.22 71.996 0.262 7.81 16.2 7.67
7/11/2021 4:30:00 AM 22.2 71.96 0.265 7.8 15.95 7.53
7/11/2021 4:45:00 AM 22.18 71.924 0.29 7.82 16.1 7.66
7/11/2021 5:00:00 AM 22.17 71.906 0.323 7.82 16.46 7.62
7/11/2021 5:15:00 AM 22.15 71.87 0.289 7.82 18.54 7.61
7/11/2021 5:30:00 AM 22.13 71.834 0.26 7.8 23.87 7.6
7/11/2021 5:45:00 AM 22.11 71.798 0.285 7.8 47.17 7.61
7/11/2021 6:00:00 AM 22.09 71.762 0.274 7.82 696.17 7.6
7/11/2021 6:15:00 AM 22.07 71.726 0.287 7.8 13.61 7.64
7/11/2021 6:30:00 AM 22.05 71.69 0.297 7.82 14.46 7.6
7/11/2021 6:45:00 AM 22.03 71.654 0.294 7.8 12.78 7.66
7/11/2021 7:00:00 AM 22.02 71.636 0.292 7.81 13.56 7.63
7/11/2021 7:15:00 AM 22 71.6 0.42 7.73 12.09 7.66
7/11/2021 7:30:00 AM 21.99 71.582 0.244 7.82 13.46 7.66
7/11/2021 7:45:00 AM 21.98 71.564 0.291 7.82 15.65 7.7
7/11/2021 8:00:00 AM 21.98 71.564 0.274 7.82 20.7 7.69
7/11/2021 8:15:00 AM 21.95 71.51 0.301 7.83 18.43 7.62
7/11/2021 8:30:00 AM 21.92 71.456 0.311 7.82 15.82 7.62
7/11/2021 8:45:00 AM 21.9 71.42 0.303 7.81 17.52 7.62
7/11/2021 9:00:00 AM 21.9 71.42 0.287 7.81 16.28 7.7
7/11/2021 9:15:00 AM 21.88 71.384 0.297 7.82 15.47 7.64
7/11/2021 9:30:00 AM 21.86 71.348 0.3 7.82 15.77 7.68
7/11/2021 9:45:00 AM 21.88 71.384 0.301 7.83 15.38 7.75
7/11/2021 10:00:00 AM 21.88 71.384 0.388 7.82 15.74 7.81
7/11/2021 10:15:00 AM 21.86 71.348 0.389 7.83 15.41 7.75
7/11/2021 10:30:00 AM 21.85 71.33 0.29 7.83 19.32 7.8
7/11/2021 10:45:00 AM 21.86 71.348 0.307 7.85 19.22 7.86
7/11/2021 11:00:00 AM 21.85 71.33 0.315 7.85 14.4 7.83
7/11/2021 11:15:00 AM 21.84 71.312 0.307 7.85 13.16 7.81
7/11/2021 11:30:00 AM 21.85 71.33 0.29 7.86 11.61 7.91
7/11/2021 11:45:00 AM 21.91 71.438 0.383 7.87 13.8 8.03
7/11/2021 12:00:00 PM 21.94 71.492 0.294 7.87 13.53 8.05
7/11/2021 12:15:00 PM 22.01 71.618 0.297 7.88 16.9 8.13
7/11/2021 12:30:00 PM 22.06 71.708 0.296 7.87 22.83 8.13
7/11/2021 12:45:00 PM 22.09 71.762 0.322 7.88 14.37 8.09
7/11/2021 1:00:00 PM 22.09 71.762 0.299 7.89 14.16 8.05
7/11/2021 1:15:00 PM 22.15 71.87 0.304 7.9 21.98 8.1
7/11/2021 1:30:00 PM 22.15 71.87 0.27 7.89 14.15 7.99
7/11/2021 1:45:00 PM 22.2 71.96 0.309 7.91 23.15 8.08
7/11/2021 2:00:00 PM 22.25 72.05 0.306 7.9 15.67 8.1
7/11/2021 2:15:00 PM 22.36 72.248 0.306 7.92 14.84 8.13
7/11/2021 2:30:00 PM 22.39 72.302 0.276 7.93 13.95 8.1
7/11/2021 2:45:00 PM 22.33 72.194 0.308 7.93 17.21 8.07
7/11/2021 3:00:00 PM 22.31 72.158 0.402 7.92 17.53 8.08
7/11/2021 3:15:00 PM 22.37 72.266 0.315 7.95 21.34 8.24
7/11/2021 3:30:00 PM 22.48 72.464 0.311 7.95 16.93 8.27
7/11/2021 3:45:00 PM 22.57 72.626 0.318 7.95 14.17 8.26
7/11/2021 4:00:00 PM 22.54 72.57201 0.318 7.97 16.55 8.22
7/11/2021 4:15:00 PM 22.51 72.518 0.317 7.97 14.01 8.19
7/11/2021 4:30:00 PM 22.45 72.41 0.404 7.97 16.49 8.17
7/11/2021 4:45:00 PM 22.38 72.284 0.296 7.96 22.84 8.16
7/11/2021 5:00:00 PM 22.39 72.302 0.315 7.96 106.42 8.12
7/11/2021 5:15:00 PM 22.4 72.32 0.277 7.96 8556.51 8.17
7/11/2021 5:30:00 PM 22.4 72.32 0.291 7.96 11.32 8.12
7/11/2021 5:45:00 PM 22.4 72.32 0.316 7.97 80.24 8.22
7/11/2021 6:00:00 PM 22.43 72.374 0.317 7.98 9.04 8.21
7/11/2021 6:15:00 PM 22.43 72.374 0.415 7.97 12.32 8.2
7/11/2021 6:30:00 PM 22.4 72.32 0.302 7.97 46.26 8.18
7/11/2021 6:45:00 PM 22.37 72.266 0.406 7.98 10.18 8.14
7/11/2021 7:00:00 PM 22.35 72.23 0.41 7.98 13.42 8.19
7/11/2021 7:15:00 PM 22.35 72.23 0.293 7.97 11.65 8.15
7/11/2021 7:30:00 PM 22.33 72.194 0.32 7.97 10.33 8.1
7/11/2021 7:45:00 PM 22.29 72.122 0.299 7.96 9.45 8.07
7/11/2021 8:00:00 PM 22.24 72.032 0.297 7.94 9.82 8.04
7/11/2021 8:15:00 PM 22.2 71.96 0.294 7.95 9.31 8.03
7/11/2021 8:30:00 PM 22.17 71.906 0.321 7.94 8.06 8.02
7/11/2021 8:45:00 PM 22.14 71.852 0.307 7.95 9.43 8
7/11/2021 9:00:00 PM 22.12 71.816 0.291 7.94 9.9 8
7/11/2021 9:15:00 PM 22.1 71.78 0.305 7.92 9.83 7.99
7/11/2021 9:30:00 PM 22.09 71.762 0.307 7.95 9.82 7.99
7/11/2021 9:45:00 PM 22.07 71.726 0.312 7.95 8.22 8.01
7/11/2021 10:00:00 PM 22.06 71.708 0.303 7.95 8.08 8.01
7/11/2021 10:15:00 PM 22.05 71.69 0.3 7.95 9.59 7.99
7/11/2021 10:30:00 PM 22.05 71.69 0.299 7.95 9.63 8
7/11/2021 10:45:00 PM 22.04 71.672 0.426 7.94 8.89 8
7/11/2021 11:00:00 PM 22.02 71.636 0.32 7.94 7.8 8.01
7/11/2021 11:15:00 PM 22.01 71.618 0.427 7.96 8.85 8.05
7/11/2021 11:30:00 PM 22.01 71.618 0.3 7.95 11.6 8.05
7/11/2021 11:45:00 PM 22.02 71.636 0.291 7.96 10 8.04
7/12/2021 12:00:00 AM 22.04 71.672 0.292 7.95 9.46 8.03
7/12/2021 12:15:00 AM 22.06 71.708 0.434 7.95 8.78 8.03
7/12/2021 12:30:00 AM 22.07 71.726 0.298 7.95 8.75 8.01
7/12/2021 12:45:00 AM 22.1 71.78 0.314 7.96 8.29 8.01
7/12/2021 1:00:00 AM 22.12 71.816 0.297 7.96 8.71 8.03
7/12/2021 1:15:00 AM 22.15 71.87 0.314 7.96 8.77 8.03
7/12/2021 1:30:00 AM 22.18 71.924 0.311 7.97 8.64 8.03
7/12/2021 1:45:00 AM 22.21 71.978 0.432 7.96 8.48 8.02
7/12/2021 2:00:00 AM 22.23 72.014 0.433 7.96 7.94 8
7/12/2021 2:15:00 AM 22.25 72.05 0.345 7.97 251.54 7.96
7/12/2021 2:30:00 AM 22.27 72.086 0.426 7.98 33.1 7.81
7/12/2021 2:45:00 AM 22.28 72.104 0.304 7.97 10.36 7.98
7/12/2021 3:00:00 AM 22.31 72.158 0.436 7.96 7.38 7.96
7/12/2021 3:15:00 AM 22.32 72.176 0.435 7.97 8.66 7.94
7/12/2021 3:30:00 AM 22.33 72.194 0.285 7.96 7.28 7.92
7/12/2021 3:45:00 AM 22.34 72.212 0.283 7.97 7.49 7.91
7/12/2021 4:00:00 AM 22.35 72.23 0.316 7.96 8.16 7.9
7/12/2021 4:15:00 AM 22.36 72.248 0.288 7.97 8.3 7.88
7/12/2021 4:30:00 AM 22.37 72.266 0.312 7.96 8.66 7.87
7/12/2021 4:45:00 AM 22.37 72.266 0.276 7.95 8.1 7.88
7/12/2021 5:00:00 AM 22.37 72.266 0.306 7.97 7.66 7.87
7/12/2021 5:15:00 AM 22.37 72.266 0.313 7.96 9.45 7.86
7/12/2021 5:30:00 AM 22.37 72.266 0.287 7.96 8.73 7.87
7/12/2021 5:45:00 AM 22.37 72.266 0.276 7.94 9.38 7.9
7/12/2021 6:00:00 AM 22.37 72.266 0.449 7.93 9.42 7.93
7/12/2021 6:15:00 AM 22.35 72.23 0.291 7.91 8.53 7.92
7/12/2021 6:30:00 AM 22.32 72.176 0.453 7.91 9.11 7.92
7/12/2021 6:45:00 AM 22.29 72.122 0.323 7.9 8.92 7.92
7/12/2021 7:00:00 AM 22.25 72.05 0.289 7.9 9.08 7.92
7/12/2021 7:15:00 AM 22.19 71.942 0.297 7.92 8.25 7.94
7/12/2021 7:30:00 AM 22.11 71.798 0.455 7.91 7.97 7.95
7/12/2021 7:45:00 AM 22.03 71.654 0.298 7.91 8.7 7.96
7/12/2021 8:00:00 AM 21.97 71.546 0.289 7.91 9.67 7.98
7/12/2021 8:15:00 AM 21.95 71.51 0.287 7.94 10.2 7.98
7/12/2021 8:30:00 AM 21.96 71.528 0.294 7.92 10.02 8
7/12/2021 8:45:00 AM 21.98 71.564 0.298 7.94 9.42 8.03
7/12/2021 9:00:00 AM 22.01 71.618 0.314 7.94 9.09 8.07
7/12/2021 9:15:00 AM 22.03 71.654 0.29 7.96 9.65 8.11
7/12/2021 9:30:00 AM 22.07 71.726 0.315 7.97 9.35 8.16
7/12/2021 9:45:00 AM 22.11 71.798 0.281 7.98 9.14 8.18
7/12/2021 10:00:00 AM 22.17 71.906 0.318 7.98 9.72 8.23
7/12/2021 10:15:00 AM 22.23 72.014 0.453 7.98 8.7 8.27
7/12/2021 10:30:00 AM 22.3 72.14 0.274 8 9.27 8.3
7/12/2021 10:45:00 AM 22.36 72.248 0.455 8.01 9.65 8.33
7/12/2021 11:00:00 AM 22.44 72.392 0.288 8.01 9.51 8.36
7/12/2021 11:15:00 AM 22.5 72.5 0.283 8.02 9.83 8.39
7/12/2021 11:30:00 AM 22.57 72.626 0.312 8.04 8.71 8.41
7/12/2021 11:45:00 AM 22.62 72.716 0.458 8.04 9.95 8.44
7/12/2021 12:00:00 PM 22.67 72.806 0.297 8.04 9.62 8.45
7/12/2021 12:15:00 PM 22.73 72.914 0.291 8.05 10.7 8.47
7/12/2021 12:30:00 PM 22.77 72.986 0.289 8.05 9.84 8.47
7/12/2021 12:45:00 PM 22.87 73.166 0.301 8.07 10.95 8.51
7/12/2021 1:00:00 PM 22.96 73.328 0.277 8.07 9.84 8.53
7/12/2021 1:15:00 PM 23.05 73.49 0.452 8.08 8.96 8.52
7/12/2021 1:30:00 PM 23.18 73.724 0.274 8.08 9.78 8.53
7/12/2021 1:45:00 PM 23.25 73.85 0.283 8.09 9.7 8.46
7/12/2021 2:00:00 PM 23.38 74.084 0.283 8.1 9.99 8.54
7/12/2021 2:15:00 PM 23.51 74.318 0.299 8.12 9.37 8.51
7/12/2021 2:30:00 PM 23.62 74.516 0.31 8.13 10.38 8.49
7/12/2021 2:45:00 PM 23.73 74.714 0.264 8.13 10.54 8.48
7/12/2021 3:00:00 PM 23.86 74.948 0.266 8.11 11.78 8.46
7/12/2021 3:15:00 PM 23.96 75.128 0.291 8.12 8.44 8.44
7/12/2021 3:30:00 PM 24.11 75.398 0.268 8.13 9.26 8.46
7/12/2021 3:45:00 PM 24.19 75.542 0.285 8.13 10.02 8.42
7/12/2021 4:00:00 PM 24.27 75.686 0.296 8.14 10.06 8.41
7/12/2021 4:15:00 PM 24.27 75.686 0.304 8.13 11.35 8.31
7/12/2021 4:30:00 PM 24.18 75.524 0.262 8.12 9.96 8.23
7/12/2021 4:45:00 PM 24.22 75.596 0.424 8.09 9.82 8.23
7/12/2021 5:00:00 PM 24.27 75.686 0.283 8.1 8.47 8.29
7/12/2021 5:15:00 PM 24.27 75.686 0.292 8.09 10.48 8.24
7/12/2021 5:30:00 PM 24.23 75.614 0.288 8.08 10.24 8.22
7/12/2021 5:45:00 PM 24.19 75.542 0.392 8.07 9.18 8.19
7/12/2021 6:00:00 PM 24.18 75.524 0.287 8.05 8.82 8.13
7/12/2021 6:15:00 PM 24.18 75.524 0.286 8.04 6.72 8.13
7/12/2021 6:30:00 PM 24.2 75.56 0.291 8 8.43 8.12
7/12/2021 6:45:00 PM 24.23 75.614 0.235 7.99 8.39 8.08
7/12/2021 7:00:00 PM 24.24 75.632 0.276 7.98 8.22 8.06
7/12/2021 7:15:00 PM 24.24 75.632 0.261 7.97 10.63 8.05
7/12/2021 7:30:00 PM 24.22 75.596 0.243 7.95 9.18 8
7/12/2021 7:45:00 PM 24.2 75.56 0.259 7.94 9.72 8
7/12/2021 8:00:00 PM 24.15 75.47 0.26 7.92 10.75 7.98
7/12/2021 8:15:00 PM 24.1 75.38 0.275 7.92 11.25 7.98
7/12/2021 8:30:00 PM 24.07 75.326 0.276 7.93 16.11 7.96
7/12/2021 8:45:00 PM 24.05 75.29 0.273 7.91 21.91 7.96
7/12/2021 9:00:00 PM 24.01 75.218 0.276 7.91 24.98 7.95
7/12/2021 9:15:00 PM 23.94 75.092 0.259 7.91 28.99 7.97
7/12/2021 9:30:00 PM 23.84 74.912 0.259 7.88 26.91 7.97
7/12/2021 9:45:00 PM 23.78 74.804 0.313 7.88 23.48 7.97
7/12/2021 10:00:00 PM 23.76 74.768 0.233 7.87 21.66 7.97
7/12/2021 10:15:00 PM 23.79 74.82201 0.237 7.88 19.46 8
7/12/2021 10:30:00 PM 23.8 74.84 0.25 7.89 16.97 8
7/12/2021 10:45:00 PM 23.81 74.858 0.267 7.89 15.61 8
7/12/2021 11:00:00 PM 23.81 74.858 0.265 7.9 14.12 8
7/12/2021 11:15:00 PM 23.79 74.82201 0.285 7.91 17.96 8
7/12/2021 11:30:00 PM 23.77 74.786 0.409 7.91 19.35 7.99
7/12/2021 11:45:00 PM 23.74 74.732 0.27 7.9 21.07 7.98
7/13/2021 12:00:00 AM 23.7 74.66 0.267 7.91 18.43 7.98
7/13/2021 12:15:00 AM 23.68 74.624 0.242 7.89 17.79 7.98
7/13/2021 12:30:00 AM 23.66 74.588 0.372 7.9 17.27 7.96
7/13/2021 12:45:00 AM 23.63 74.534 0.275 7.91 18.19 8.01
7/13/2021 1:00:00 AM 23.63 74.534 0.264 7.91 16.99 7.99
7/13/2021 1:15:00 AM 23.63 74.534 0.266 7.89 17.86 7.98
7/13/2021 1:30:00 AM 23.62 74.516 0.287 7.89 17.5 7.99
7/13/2021 1:45:00 AM 23.62 74.516 0.281 7.9 60.79 7.98
7/13/2021 2:00:00 AM 23.62 74.516 0.3 7.88 17.68 7.99
7/13/2021 2:15:00 AM 23.61 74.498 0.295 7.88 16.34 7.97
7/13/2021 2:30:00 AM 23.61 74.498 0.286 7.87 18.44 7.96
7/13/2021 2:45:00 AM 23.6 74.48 0.301 7.89 14.46 7.96
7/13/2021 3:00:00 AM 23.58 74.444 0.293 7.87 16.52 7.94
7/13/2021 3:15:00 AM 23.56 74.408 0.305 7.88 17.85 7.93
7/13/2021 3:30:00 AM 23.54 74.372 0.279 7.85 16.44 7.92
7/13/2021 3:45:00 AM 23.49 74.282 0.296 7.85 17.51 7.91
7/13/2021 4:00:00 AM 23.42 74.156 0.258 7.84 18.79 7.9
7/13/2021 4:15:00 AM 23.39 74.102 0.282 7.82 20.3 7.89
7/13/2021 4:30:00 AM 23.37 74.066 0.274 7.84 18.97 7.89
7/13/2021 4:45:00 AM 23.35 74.03 0.292 7.81 21.82 7.89
7/13/2021 5:00:00 AM 23.31 73.958 0.28 7.8 23.68 7.9
7/13/2021 5:15:00 AM 23.27 73.886 0.4 7.8 23.97 7.92
7/13/2021 5:30:00 AM 23.26 73.868 0.278 7.77 23.68 7.95
7/13/2021 5:45:00 AM 23.27 73.886 0.256 7.79 20.61 7.95
7/13/2021 6:00:00 AM 23.29 73.922 0.28 7.79 19.33 7.94
7/13/2021 6:15:00 AM 23.31 73.958 0.27 7.75 19.28 7.95
7/13/2021 6:30:00 AM 23.34 74.012 0.264 7.79 17.74 7.96
7/13/2021 6:45:00 AM 23.37 74.066 0.249 7.75 18.9 7.97
7/13/2021 7:00:00 AM 23.4 74.12 0.254 7.76 17.69 7.97
7/13/2021 7:15:00 AM 23.42 74.156 0.281 7.77 18.35 7.97
7/13/2021 7:30:00 AM 23.43 74.174 0.25 7.77 16.8 7.98
7/13/2021 7:45:00 AM 23.45 74.21 0.248 7.76 16.92 7.97
7/13/2021 8:00:00 AM 23.47 74.246 0.242 7.8 16.42 7.97
7/13/2021 8:15:00 AM 23.49 74.282 0.258 7.77 17.19 7.97
7/13/2021 8:30:00 AM 23.5 74.3 0.252 7.77 17.22 7.98
7/13/2021 8:45:00 AM 23.51 74.318 0.253 7.8 17.89 7.98
7/13/2021 9:00:00 AM 23.51 74.318 0.263 7.78 19.63 8.01
7/13/2021 9:15:00 AM 23.49 74.282 0.26 7.79 20.36 8.01
7/13/2021 9:30:00 AM 23.48 74.264 0.273 7.81 19.46 8.03
7/13/2021 9:45:00 AM 23.46 74.228 0.27 7.8 20.42 8.05
7/13/2021 10:00:00 AM 23.43 74.174 0.278 7.79 19.91 8.06
7/13/2021 10:15:00 AM 23.41 74.138 0.278 7.8 20.3 8.07
7/13/2021 10:30:00 AM 23.38 74.084 0.311 7.81 19.5 8.08
7/13/2021 10:45:00 AM 23.35 74.03 0.26 7.81 17.85 8.09
7/13/2021 11:00:00 AM 23.32 73.976 0.26 7.83 19.72 8.11
7/13/2021 11:15:00 AM 23.29 73.922 0.258 7.83 17.78 8.13
7/13/2021 11:30:00 AM 23.26 73.868 0.315 7.81 20.24 8.14
7/13/2021 11:45:00 AM 23.27 73.886 0.275 7.83 18.03 8.16
7/13/2021 12:00:00 PM 23.29 73.922 0.264 7.81 18.41 8.18
7/13/2021 12:15:00 PM 23.33 73.994 0.25 7.81 19.12 8.18
7/13/2021 12:30:00 PM 23.4 74.12 0.245 7.82 17.71 8.2
7/13/2021 12:45:00 PM 23.47 74.246 0.253 7.82 18.06 8.2
7/13/2021 1:00:00 PM 23.51 74.318 0.247 7.83 19.64 8.19
7/13/2021 1:15:00 PM 23.6 74.48 0.252 7.85 20.44 8.22
7/13/2021 1:30:00 PM 23.66 74.588 0.242 7.83 19.93 8.21
7/13/2021 1:45:00 PM 23.68 74.624 0.242 7.84 21.6 8.17
7/13/2021 2:00:00 PM 23.75 74.75 0.252 7.85 22.98 8.2
7/13/2021 2:15:00 PM 23.8 74.84 0.261 7.85 23.23 8.21
7/13/2021 2:30:00 PM 23.82 74.876 0.261 7.86 22.61 8.18
7/13/2021 2:45:00 PM 23.81 74.858 0.242 7.87 20.87 8.19
7/13/2021 3:00:00 PM 23.83 74.894 0.258 7.87 23.9 8.18
7/13/2021 3:15:00 PM 23.81 74.858 0.264 7.87 23.51 8.15
7/13/2021 3:30:00 PM 23.84 74.912 0.265 7.88 29.98 8.18
7/13/2021 3:45:00 PM 23.85 74.93 0.267 7.88 20.85 8.16
7/13/2021 4:00:00 PM 23.86 74.948 0.266 7.88 30.28 8.15
7/13/2021 4:15:00 PM 23.85 74.93 0.301 7.89 26.07 8.14
7/13/2021 4:30:00 PM 23.87 74.966 0.272 7.87 24.56 8.14
7/13/2021 4:45:00 PM 23.86 74.948 0.264 7.88 23.57 8.14
7/13/2021 5:00:00 PM 23.84 74.912 0.277 7.89 24.89 8.11
7/13/2021 5:15:00 PM 23.85 74.93 0.269 7.87 25.21 8.1
7/13/2021 5:30:00 PM 23.86 74.948 0.282 7.86 22.15 8.11
7/13/2021 5:45:00 PM 23.88 74.984 0.272 7.87 26.41 8.1
7/13/2021 6:00:00 PM 23.89 75.002 0.27 7.89 29.29 8.07
7/13/2021 6:15:00 PM 23.88 74.984 0.309 7.88 26.72 8.04
7/13/2021 6:30:00 PM 23.88 74.984 0.273 7.86 28 8.05
7/13/2021 6:45:00 PM 23.88 74.984 0.255 7.88 25.12 8.04
7/13/2021 7:00:00 PM 23.86 74.948 0.276 7.84 28.59 8.03
7/13/2021 7:15:00 PM 23.85 74.93 0.313 7.88 21.44 8.02
7/13/2021 7:30:00 PM 23.83 74.894 0.262 7.87 25.12 8
7/13/2021 7:45:00 PM 23.81 74.858 0.262 7.87 25.6 8.01
7/13/2021 8:00:00 PM 23.8 74.84 0.264 7.86 24.3 7.99
7/13/2021 8:15:00 PM 23.79 74.82201 0.271 7.86 25.82 7.99
7/13/2021 8:30:00 PM 23.77 74.786 0.281 7.89 22.08 7.98
7/13/2021 8:45:00 PM 23.76 74.768 0.242 7.88 23.32 7.98
7/13/2021 9:00:00 PM 23.75 74.75 0.313 7.89 21.41 7.97
7/13/2021 9:15:00 PM 23.74 74.732 0.255 7.86 21.3 7.96
7/13/2021 9:30:00 PM 23.73 74.714 0.27 7.87 20 7.96
7/13/2021 9:45:00 PM 23.72 74.696 0.246 7.86 20.72 7.96
7/13/2021 10:00:00 PM 23.7 74.66 0.27 7.87 20.7 7.95
7/13/2021 10:15:00 PM 23.69 74.642 0.276 7.88 20.88 7.95
7/13/2021 10:30:00 PM 23.67 74.606 0.276 7.88 20.21 7.93
7/13/2021 10:45:00 PM 23.65 74.57 0.269 7.86 19.91 7.93
7/13/2021 11:00:00 PM 23.64 74.552 0.26 7.88 20.83 7.94
7/13/2021 11:15:00 PM 23.62 74.516 0.266 7.84 21.48 7.92
7/13/2021 11:30:00 PM 23.61 74.498 0.286 7.88 19.87 7.91
7/13/2021 11:45:00 PM 23.59 74.462 0.288 7.87 19.39 7.91
7/14/2021 12:00:00 AM 23.57 74.426 0.27 7.87 20.03 7.91
7/14/2021 12:15:00 AM 23.55 74.39 0.284 7.87 20.97 7.9
7/14/2021 12:30:00 AM 23.54 74.372 0.286 7.87 19.95 7.89
7/14/2021 12:45:00 AM 23.52 74.336 0.304 7.85 19.43 7.89
7/14/2021 1:00:00 AM 23.5 74.3 0.292 7.85 18.22 7.89
7/14/2021 1:15:00 AM 23.49 74.282 0.363 7.87 20.46 7.88
7/14/2021 1:30:00 AM 23.47 74.246 0.377 7.78 19.44 7.88
7/14/2021 1:45:00 AM 23.45 74.21 0.299 7.85 18.27 7.87
7/14/2021 2:00:00 AM 23.43 74.174 0.292 7.87 20.4 7.86
7/14/2021 2:15:00 AM 23.42 74.156 0.266 7.86 18.69 7.86
7/14/2021 2:30:00 AM 23.4 74.12 0.286 7.85 19.59 7.86
7/14/2021 2:45:00 AM 23.38 74.084 0.279 7.86 18.27 7.85
7/14/2021 3:00:00 AM 23.37 74.066 0.289 7.85 18.52 7.84
7/14/2021 3:15:00 AM 23.35 74.03 0.29 7.85 18.2 7.84
7/14/2021 3:30:00 AM 23.33 73.994 0.299 7.86 18.42 7.85
7/14/2021 3:45:00 AM 23.31 73.958 0.287 7.84 17.51 7.83
7/14/2021 4:00:00 AM 23.29 73.922 0.252 7.84 18.32 7.83
7/14/2021 4:15:00 AM 23.27 73.886 0.307 7.85 17.36 7.84
7/14/2021 4:30:00 AM 23.25 73.85 0.301 7.85 17.37 7.82
7/14/2021 4:45:00 AM 23.22 73.796 0.293 7.85 15.92 7.83
7/14/2021 5:00:00 AM 23.2 73.76 0.303 7.84 16.07 7.83
7/14/2021 5:15:00 AM 23.17 73.706 0.298 7.85 15.66 7.84
7/14/2021 5:30:00 AM 23.15 73.67 0.402 7.83 15.42 7.83
7/14/2021 5:45:00 AM 23.12 73.616 0.304 7.86 15.3 7.83
7/14/2021 6:00:00 AM 23.09 73.562 0.303 7.85 15.18 7.84
7/14/2021 6:15:00 AM 23.07 73.526 0.299 7.85 14.82 7.84
7/14/2021 6:30:00 AM 23.04 73.472 0.297 7.86 14.94 7.84
7/14/2021 6:45:00 AM 23.02 73.436 0.392 7.83 13.73 7.84
7/14/2021 7:00:00 AM 23 73.4 0.274 7.86 14.49 7.85
7/14/2021 7:15:00 AM 22.98 73.364 0.308 7.86 13.69 7.86
7/14/2021 7:30:00 AM 22.96 73.328 0.305 7.86 13.54 7.86
7/14/2021 7:45:00 AM 22.95 73.31 0.314 7.85 13.46 7.87
7/14/2021 8:00:00 AM 22.93 73.274 0.306 7.85 13.08 7.87
7/14/2021 8:15:00 AM 22.93 73.274 0.303 7.85 12.39 7.88
7/14/2021 8:30:00 AM 22.92 73.256 0.304 7.86 12.3 7.88
7/14/2021 8:45:00 AM 22.93 73.274 0.3 7.85 12.9 7.92
7/14/2021 9:00:00 AM 22.95 73.31 0.298 7.86 12.65 7.94
7/14/2021 9:15:00 AM 22.97 73.346 0.305 7.88 11.8 7.97
7/14/2021 9:30:00 AM 22.99 73.382 0.308 7.88 12.03 7.98
7/14/2021 9:45:00 AM 23.03 73.454 0.394 7.9 11.81 8.01
7/14/2021 10:00:00 AM 23.06 73.508 0.303 7.91 11.33 8.05
7/14/2021 10:15:00 AM 23.08 73.544 0.307 7.89 10.59 8.07
7/14/2021 10:30:00 AM 23.11 73.598 0.274 7.91 11.18 8.08
7/14/2021 10:45:00 AM 23.1 73.58 0.397 7.92 10.51 8.06
7/14/2021 11:00:00 AM 23.17 73.706 0.291 7.9 12.13 8.14
7/14/2021 11:15:00 AM 23.25 73.85 0.304 7.91 10.1 8.19
7/14/2021 11:30:00 AM 23.31 73.958 0.316 7.93 10.34 8.21
7/14/2021 11:45:00 AM 23.34 74.012 0.307 7.95 9.85 8.22
7/14/2021 12:00:00 PM 23.43 74.174 0.298 7.96 11.68 8.25
7/14/2021 12:15:00 PM 23.51 74.318 0.284 7.96 11.36 8.25
7/14/2021 12:30:00 PM 23.43 74.174 0.287 7.95 11.26 8.12
7/14/2021 12:45:00 PM 23.47 74.246 0.286 7.96 11.14 8.25
7/14/2021 1:00:00 PM 23.55 74.39 0.293 7.96 9.13 8.28
7/14/2021 1:15:00 PM 23.59 74.462 0.295 7.98 10.74 8.32
7/14/2021 1:30:00 PM 23.56 74.408 0.301 7.98 10.21 8.24
7/14/2021 1:45:00 PM 23.53 74.354 0.303 7.98 10.09 8.22
7/14/2021 2:00:00 PM 23.5 74.3 0.309 7.98 9.9 8.15
7/14/2021 2:15:00 PM 23.61 74.498 0.282 7.99 10.2 8.33
7/14/2021 2:30:00 PM 23.71 74.67799 0.295 8 10.45 8.36
7/14/2021 2:45:00 PM 23.78 74.804 0.306 8.02 9.62 8.36
7/14/2021 3:00:00 PM 23.79 74.82201 0.292 8.01 8.07 8.35
7/14/2021 3:15:00 PM 23.8 74.84 0.281 8.01 9.39 8.35
7/14/2021 3:30:00 PM 23.9 75.02 0.282 8.03 9.3 8.33
7/14/2021 3:45:00 PM 23.95 75.11 0.307 8.03 9.05 8.31
7/14/2021 4:00:00 PM 24.03 75.254 0.289 8.02 9.23 8.32
7/14/2021 4:15:00 PM 24.07 75.326 0.297 8.04 9.5 8.32
7/14/2021 4:30:00 PM 24.13 75.434 0.418 8.03 10.91 8.31
7/14/2021 4:45:00 PM 24.23 75.614 0.304 8.04 8.39 8.3
7/14/2021 5:00:00 PM 24.3 75.74 0.289 8.06 9.16 8.32
7/14/2021 5:15:00 PM 24.33 75.794 0.301 8.06 8.28 8.34
7/14/2021 5:30:00 PM 24.35 75.83 0.303 8.07 8.74 8.3
7/14/2021 5:45:00 PM 24.39 75.902 0.29 8.06 8.2 8.31
7/14/2021 6:00:00 PM 24.39 75.902 0.418 8.07 10.18 8.32
7/14/2021 6:15:00 PM 24.37 75.866 0.269 8.07 9.94 8.29
7/14/2021 6:30:00 PM 24.36 75.848 0.299 8.07 7.88 8.28
7/14/2021 6:45:00 PM 24.33 75.794 0.278 8.06 7.83 8.25
7/14/2021 7:00:00 PM 24.3 75.74 0.29 8.05 9.83 8.2
7/14/2021 7:15:00 PM 24.27 75.686 0.274 8.05 7.66 8.19
7/14/2021 7:30:00 PM 24.22 75.596 0.418 8.05 7.69 8.16
7/14/2021 7:45:00 PM 24.18 75.524 0.298 8.03 7.83 8.12
7/14/2021 8:00:00 PM 24.15 75.47 0.29 8.04 10.14 8.11
7/14/2021 8:15:00 PM 24.12 75.416 0.271 8.03 7.38 8.09
7/14/2021 8:30:00 PM 24.09 75.362 0.286 8.02 9.79 8.06
7/14/2021 8:45:00 PM 24.05 75.29 0.301 8.01 9.58 8.05
7/14/2021 9:00:00 PM 24.02 75.236 0.293 8.01 9.43 8.03
7/14/2021 9:15:00 PM 24 75.2 0.294 7.99 8.05 8.03
7/14/2021 9:30:00 PM 23.98 75.164 0.272 8.02 7.4 8.02
7/14/2021 9:45:00 PM 23.96 75.128 0.303 8.02 7.26 8
7/14/2021 10:00:00 PM 23.94 75.092 0.424 8.01 5.68 8
7/14/2021 10:15:00 PM 23.93 75.074 0.302 8.02 9.8 8.01
7/14/2021 10:30:00 PM 23.92 75.056 0.269 8 5.12 7.99
7/14/2021 10:45:00 PM 23.91 75.038 0.273 8 7.45 7.97
7/14/2021 11:00:00 PM 23.89 75.002 0.269 8.01 9.65 7.97
7/14/2021 11:15:00 PM 23.88 74.984 0.269 8.01 6.9 7.95
7/14/2021 11:30:00 PM 23.86 74.948 0.431 8 6.8 7.94
7/14/2021 11:45:00 PM 23.85 74.93 0.3 8 9.21 7.92
7/15/2021 12:00:00 AM 23.84 74.912 0.285 8 6.97 7.92
7/15/2021 12:15:00 AM 23.82 74.876 0.311 8 7.1 7.9
7/15/2021 12:30:00 AM 23.81 74.858 0.435 7.99 9.2 7.89
7/15/2021 12:45:00 AM 23.8 74.84 0.291 7.99 8.88 7.89
7/15/2021 1:00:00 AM 23.79 74.82201 0.285 8 6.53 7.89
7/15/2021 1:15:00 AM 23.77 74.786 0.289 7.99 6.76 7.86
7/15/2021 1:30:00 AM 23.75 74.75 0.285 7.98 7.35 7.86
7/15/2021 1:45:00 AM 23.73 74.714 0.274 7.99 6.97 7.86
7/15/2021 2:00:00 AM 23.71 74.67799 0.286 7.98 7.18 7.85
7/15/2021 2:15:00 AM 23.69 74.642 0.307 7.98 9.09 7.84
7/15/2021 2:30:00 AM 23.67 74.606 0.276 7.99 6.74 7.84
7/15/2021 2:45:00 AM 23.64 74.552 0.284 7.99 7.25 7.83
7/15/2021 3:00:00 AM 23.61 74.498 0.267 7.98 9.36 7.83
7/15/2021 3:15:00 AM 23.58 74.444 0.274 7.97 7.32 7.81
7/15/2021 3:30:00 AM 23.55 74.39 0.44 7.98 6.9 7.8
7/15/2021 3:45:00 AM 23.52 74.336 0.311 7.97 9.69 7.79
7/15/2021 4:00:00 AM 23.49 74.282 0.298 7.97 8.77 7.79
7/15/2021 4:15:00 AM 23.46 74.228 0.287 7.97 7.01 7.78
7/15/2021 4:30:00 AM 23.43 74.174 0.443 7.97 9.02 7.78
7/15/2021 4:45:00 AM 23.39 74.102 0.314 7.97 7.17 7.79
7/15/2021 5:00:00 AM 23.35 74.03 0.267 7.96 9.61 7.75
7/15/2021 5:15:00 AM 23.32 73.976 0.295 7.96 7 7.77
7/15/2021 5:30:00 AM 23.29 73.922 0.277 7.96 9.58 7.76
7/15/2021 5:45:00 AM 23.25 73.85 0.28 7.95 9.37 7.77
7/15/2021 6:00:00 AM 23.22 73.796 0.29 7.96 7.76 7.76
7/15/2021 6:15:00 AM 23.19 73.742 0.294 7.95 9.8 7.77
7/15/2021 6:30:00 AM 23.16 73.688 0.28 7.96 6.82 7.79
7/15/2021 6:45:00 AM 23.13 73.634 0.287 7.95 8.84 7.79
7/15/2021 7:00:00 AM 23.1 73.58 0.45 7.95 8.79 7.8
7/15/2021 7:15:00 AM 23.07 73.526 0.272 7.97 9.14 7.81
7/15/2021 7:30:00 AM 23.05 73.49 0.273 7.96 7.6 7.83
7/15/2021 7:45:00 AM 23.03 73.454 0.269 7.96 7.7 7.83
7/15/2021 8:00:00 AM 23.01 73.418 0.308 7.96 9.44 7.86
7/15/2021 8:15:00 AM 23 73.4 0.291 7.97 8.93 7.89
7/15/2021 8:30:00 AM 22.98 73.364 0.292 7.98 8.79 7.9
7/15/2021 8:45:00 AM 22.97 73.346 0.453 7.98 6.64 7.91
7/15/2021 9:00:00 AM 22.98 73.364 0.454 7.98 8.26 7.97
7/15/2021 9:15:00 AM 22.99 73.382 0.265 7.98 9.3 8
7/15/2021 9:30:00 AM 23.01 73.418 0.291 7.98 6.57 8.04
7/15/2021 9:45:00 AM 23.03 73.454 0.293 7.99 9.02 8.1
7/15/2021 10:00:00 AM 23.06 73.508 0.279 8 6.81 8.14
7/15/2021 10:15:00 AM 23.09 73.562 0.457 8.01 6.69 8.17
7/15/2021 10:30:00 AM 23.12 73.616 0.304 8.01 8.92 8.21
7/15/2021 10:45:00 AM 23.14 73.652 0.303 8 7.28 8.23
7/15/2021 11:00:00 AM 23.2 73.76 0.316 8.02 9.1 8.29
7/15/2021 11:15:00 AM 23.25 73.85 0.313 8.03 6.54 8.32
7/15/2021 11:30:00 AM 23.29 73.922 0.3 8.04 6.62 8.35
7/15/2021 11:45:00 AM 23.31 73.958 0.298 8.04 8.8 8.36
7/15/2021 12:00:00 PM 23.37 74.066 0.463 8.05 9.12 8.39
7/15/2021 12:15:00 PM 23.41 74.138 0.279 8.06 6.37 8.4
7/15/2021 12:30:00 PM 23.45 74.21 0.463 8.06 6.55 8.44
7/15/2021 12:45:00 PM 23.5 74.3 0.26 8.07 6.71 8.46
7/15/2021 1:00:00 PM 23.54 74.372 0.257 8.08 8.78 8.5
7/15/2021 1:15:00 PM 23.56 74.408 0.257 8.08 8.58 8.43
7/15/2021 1:30:00 PM 23.48 74.264 0.284 8.09 8.75 8.43
7/15/2021 1:45:00 PM 23.57 74.426 0.465 8.1 8.13 8.49
7/15/2021 2:00:00 PM 23.51 74.318 0.289 8.09 6.04 8.41
7/15/2021 2:15:00 PM 23.5 74.3 0.262 8.1 8.58 8.5
7/15/2021 2:30:00 PM 23.5 74.3 0.306 8.1 8.2 8.52
7/15/2021 2:45:00 PM 23.54 74.372 0.312 8.12 8.84 8.55
7/15/2021 3:00:00 PM 23.59 74.462 0.468 8.12 5.64 8.56
7/15/2021 3:15:00 PM 23.69 74.642 0.257 8.14 6.11 8.64
7/15/2021 3:30:00 PM 23.76 74.768 0.283 8.14 6.22 8.6
7/15/2021 3:45:00 PM 23.76 74.768 0.31 8.14 7.89 8.61
7/15/2021 4:00:00 PM 23.77 74.786 0.305 8.14 7.68 8.6
7/15/2021 4:15:00 PM 23.71 74.67799 0.47 8.14 7.58 8.53
7/15/2021 4:30:00 PM 23.77 74.786 0.297 8.14 7.66 8.53
7/15/2021 4:45:00 PM 23.84 74.912 0.267 8.14 8 8.53
7/15/2021 5:00:00 PM 23.84 74.912 0.31 8.13 8.19 8.46
7/15/2021 5:15:00 PM 23.83 74.894 0.303 8.14 8.39 8.4
7/15/2021 5:30:00 PM 23.92 75.056 0.31 8.14 8.08 8.5
7/15/2021 5:45:00 PM 23.93 75.074 0.265 8.15 8.42 8.52
7/15/2021 6:00:00 PM 23.93 75.074 0.303 8.16 5.73 8.5
7/15/2021 6:15:00 PM 23.94 75.092 0.262 8.16 8.32 8.5
7/15/2021 6:30:00 PM 23.93 75.074 0.268 8.16 8.19 8.46
7/15/2021 6:45:00 PM 23.92 75.056 0.261 8.16 8.56 8.45
7/15/2021 7:00:00 PM 23.91 75.038 0.29 8.14 6.37 8.42
7/15/2021 7:15:00 PM 23.91 75.038 0.302 8.15 7.96 8.36
7/15/2021 7:30:00 PM 23.9 75.02 0.259 8.13 8.57 8.32
7/15/2021 7:45:00 PM 23.87 74.966 0.254 8.12 8.44 8.28
7/15/2021 8:00:00 PM 23.86 74.948 0.251 8.12 5.97 8.26
7/15/2021 8:15:00 PM 23.84 74.912 0.262 8.11 8.61 8.23
7/15/2021 8:30:00 PM 23.83 74.894 0.275 8.11 8.68 8.21
7/15/2021 8:45:00 PM 23.82 74.876 0.298 8.1 9 8.19
7/15/2021 9:00:00 PM 23.82 74.876 0.297 8.1 4.08 8.19
7/15/2021 9:15:00 PM 23.82 74.876 0.298 8.11 6.67 8.17
7/15/2021 9:30:00 PM 23.82 74.876 0.278 8.11 6.79 8.17
7/15/2021 9:45:00 PM 23.82 74.876 0.268 8.1 9.17 8.15
7/15/2021 10:00:00 PM 23.83 74.894 0.248 8.1 6.41 8.14
7/15/2021 10:15:00 PM 23.83 74.894 0.311 8.1 8.7 8.11
7/15/2021 10:30:00 PM 23.84 74.912 0.3 8.09 8.7 8.11
7/15/2021 10:45:00 PM 23.85 74.93 0.246 8.08 8.65 8.09
7/15/2021 11:00:00 PM 23.86 74.948 0.308 8.07 9.03 8.07
7/15/2021 11:15:00 PM 23.87 74.966 0.276 8.08 8.05 8.05
7/15/2021 11:30:00 PM 23.87 74.966 0.269 8.08 8.69 8.03
7/15/2021 11:45:00 PM 23.88 74.984 0.306 8.08 8.78 8.01
7/16/2021 12:00:00 AM 23.89 75.002 0.281 8.08 8.81 8
7/16/2021 12:15:00 AM 23.9 75.02 0.298 8.08 6.32 7.99
7/16/2021 12:30:00 AM 23.9 75.02 0.308 8.07 6.11 7.96
7/16/2021 12:45:00 AM 23.91 75.038 0.311 8.07 5.8 7.94
7/16/2021 1:00:00 AM 23.92 75.056 0.487 8.07 5.99 7.92
7/16/2021 1:15:00 AM 23.92 75.056 0.246 8.06 6.06 7.92
7/16/2021 1:30:00 AM 23.93 75.074 0.304 8.06 5.83 7.9
7/16/2021 1:45:00 AM 23.92 75.056 0.299 8.06 8.48 7.88
7/16/2021 2:00:00 AM 23.93 75.074 0.276 8.06 6.06 7.87
7/16/2021 2:15:00 AM 23.92 75.056 0.26 8.05 5.95 7.85
7/16/2021 2:30:00 AM 23.92 75.056 0.251 8.07 8.81 7.83
7/16/2021 2:45:00 AM 23.91 75.038 0.308 8.05 8.41 7.83
7/16/2021 3:00:00 AM 23.91 75.038 0.267 8.05 8.26 7.8
7/16/2021 3:15:00 AM 23.9 75.02 0.252 8.04 5.69 7.79
7/16/2021 3:30:00 AM 23.89 75.002 0.488 8.04 5.49 7.77
7/16/2021 3:45:00 AM 23.88 74.984 0.303 8.04 8.13 7.77
7/16/2021 4:00:00 AM 23.86 74.948 0.265 8.04 7.99 7.76
7/16/2021 4:15:00 AM 23.85 74.93 0.49 8.03 7.78 7.72
7/16/2021 4:30:00 AM 23.83 74.894 0.287 8.03 8.42 7.73
7/16/2021 4:45:00 AM 23.81 74.858 0.252 8.03 5.56 7.72
7/16/2021 5:00:00 AM 23.79 74.82201 0.273 8.02 8.13 7.7
7/16/2021 5:15:00 AM 23.76 74.768 0.313 8.03 8.07 7.7
7/16/2021 5:30:00 AM 23.74 74.732 0.283 8.02 8.72 7.69
7/16/2021 5:45:00 AM 23.71 74.67799 0.276 8.02 8.52 7.68
7/16/2021 6:00:00 AM 23.69 74.642 0.284 8.02 6.89 7.69
7/16/2021 6:15:00 AM 23.66 74.588 0.288 8.02 8.88 7.69
7/16/2021 6:30:00 AM 23.64 74.552 0.244 8.02 5.98 7.69
7/16/2021 6:45:00 AM 23.62 74.516 0.285 8.01 8.7 7.69
7/16/2021 7:00:00 AM 23.6 74.48 0.273 8.01 8.47 7.72
7/16/2021 7:15:00 AM 23.58 74.444 0.252 8.02 8.63 7.72
7/16/2021 7:30:00 AM 23.57 74.426 0.285 8.02 8.53 7.73
7/16/2021 7:45:00 AM 23.55 74.39 0.244 8.02 8.45 7.74
7/16/2021 8:00:00 AM 23.54 74.372 0.287 8.02 8.57 7.75
7/16/2021 8:15:00 AM 23.52 74.336 0.275 8.02 8.9 7.77
7/16/2021 8:30:00 AM 23.51 74.318 0.263 8.02 6.41 7.81
7/16/2021 8:45:00 AM 23.51 74.318 0.28 8.03 9.18 7.83
7/16/2021 9:00:00 AM 23.52 74.336 0.3 8.03 6.24 7.88
7/16/2021 9:15:00 AM 23.53 74.354 0.281 8.04 9.01 7.93
7/16/2021 9:30:00 AM 23.55 74.39 0.281 8.04 6.21 7.98
7/16/2021 9:45:00 AM 23.58 74.444 0.259 8.05 8.79 8.03
7/16/2021 10:00:00 AM 23.63 74.534 0.304 8.06 9.97 8.08
7/16/2021 10:15:00 AM 23.66 74.588 0.268 8.06 6.48 8.11
7/16/2021 10:30:00 AM 23.7 74.66 0.29 8.06 8.61 8.16
7/16/2021 10:45:00 AM 23.75 74.75 0.518 8.07 5.82 8.19
7/16/2021 11:00:00 AM 23.8 74.84 0.254 8.07 5.71 8.23
7/16/2021 11:15:00 AM 23.87 74.966 0.279 8.08 8.3 8.28
7/16/2021 11:30:00 AM 23.94 75.092 0.27 8.08 7.94 8.31
7/16/2021 11:45:00 AM 23.99 75.182 0.52 8.09 7.78 8.34
7/16/2021 12:00:00 PM 24.05 75.29 0.272 8.09 8.25 8.36
7/16/2021 12:15:00 PM 24.11 75.398 0.265 8.11 7.93 8.39
7/16/2021 12:30:00 PM 24.12 75.416 0.52 8.1 7.23 8.4
7/16/2021 12:45:00 PM 24.18 75.524 0.306 8.12 5.71 8.43
7/16/2021 1:00:00 PM 24.23 75.614 0.287 8.12 7.99 8.45
7/16/2021 1:15:00 PM 24.28 75.704 0.271 8.14 7.88 8.47
7/16/2021 1:30:00 PM 24.3 75.74 0.309 8.13 7.65 8.48
7/16/2021 1:45:00 PM 24.29 75.722 0.281 8.13 7.77 8.5
7/16/2021 2:00:00 PM 24.28 75.704 0.259 8.15 7.41 8.52
7/16/2021 2:15:00 PM 24.31 75.758 0.307 8.15 7.66 8.52
7/16/2021 2:30:00 PM 24.32 75.776 0.285 8.15 8.06 8.51
7/16/2021 2:45:00 PM 24.33 75.794 0.289 8.16 7.54 8.44
7/16/2021 3:00:00 PM 24.4 75.92 0.301 8.16 7.77 8.5
7/16/2021 3:15:00 PM 24.49 76.082 0.291 8.17 7.62 8.59
7/16/2021 3:30:00 PM 24.52 76.136 0.518 8.18 7.38 8.57
7/16/2021 3:45:00 PM 24.52 76.136 0.264 8.2 7.52 8.57
7/16/2021 4:00:00 PM 24.57 76.226 0.261 8.2 7.22 8.64
7/16/2021 4:15:00 PM 24.62 76.316 0.254 8.21 7.09 8.65
7/16/2021 4:30:00 PM 24.6 76.28 0.281 8.2 7.13 8.59
7/16/2021 4:45:00 PM 24.65 76.37 0.519 8.21 7.32 8.59
7/16/2021 5:00:00 PM 24.75 76.55 0.301 8.22 7.52 8.55
7/16/2021 5:15:00 PM 24.78 76.604 0.295 8.21 6.85 8.54
7/16/2021 5:30:00 PM 24.76 76.568 0.262 8.22 6.86 8.54
7/16/2021 5:45:00 PM 24.79 76.622 0.293 8.22 7.03 8.52
7/16/2021 6:00:00 PM 24.76 76.568 0.275 8.22 7.42 8.52
7/16/2021 6:15:00 PM 24.65 76.37 0.255 8.21 7.23 8.48
7/16/2021 6:30:00 PM 24.65 76.37 0.522 8.2 6.87 8.44
7/16/2021 6:45:00 PM 24.62 76.316 0.269 8.21 7.08 8.47
7/16/2021 7:00:00 PM 24.66 76.388 0.281 8.21 6.99 8.45
7/16/2021 7:15:00 PM 24.68 76.424 0.303 8.21 7.22 8.42
7/16/2021 7:30:00 PM 24.64 76.352 0.277 8.2 7.05 8.36
7/16/2021 7:45:00 PM 24.56 76.208 0.243 8.21 7.37 8.35
7/16/2021 8:00:00 PM 24.49 76.082 0.249 8.19 7.49 8.31
7/16/2021 8:15:00 PM 24.42 75.956 0.296 8.19 7.09 8.31
7/16/2021 8:30:00 PM 24.38 75.884 0.275 8.18 7.6 8.28
7/16/2021 8:45:00 PM 24.33 75.794 0.31 8.17 7.57 8.25
7/16/2021 9:00:00 PM 24.3 75.74 0.281 8.16 7.67 8.22
7/16/2021 9:15:00 PM 24.26 75.668 0.525 8.16 7.33 8.2
7/16/2021 9:30:00 PM 24.24 75.632 0.308 8.15 6.57 8.19
7/16/2021 9:45:00 PM 24.23 75.614 0.3 8.14 7.74 8.17
7/16/2021 10:00:00 PM 24.21 75.578 0.528 8.15 7.26 8.14
7/16/2021 10:15:00 PM 24.2 75.56 0.527 8.14 7.03 8.14
7/16/2021 10:30:00 PM 24.19 75.542 0.302 8.14 4.99 8.13
7/16/2021 10:45:00 PM 24.2 75.56 0.261 8.14 4.87 8.12
7/16/2021 11:00:00 PM 24.2 75.56 0.307 8.13 7.72 8.1
7/16/2021 11:15:00 PM 24.21 75.578 0.284 8.13 7.23 8.09
7/16/2021 11:30:00 PM 24.22 75.596 0.273 8.12 6.95 8.07
7/16/2021 11:45:00 PM 24.22 75.596 0.53 8.13 7.24 8.02
7/17/2021 12:00:00 AM 24.22 75.596 0.529 8.13 4.52 8.02
7/17/2021 12:15:00 AM 24.22 75.596 0.282 8.13 7.62 8.01
7/17/2021 12:30:00 AM 24.22 75.596 0.296 8.11 4.91 7.99
7/17/2021 12:45:00 AM 24.24 75.632 0.31 8.12 7.21 7.97
7/17/2021 1:00:00 AM 24.25 75.65 0.25 8.12 7.46 7.96
7/17/2021 1:15:00 AM 24.26 75.668 0.306 8.12 5.86 7.95
7/17/2021 1:30:00 AM 24.27 75.686 0.288 8.12 4.89 7.92
7/17/2021 1:45:00 AM 24.27 75.686 0.244 8.12 7.59 7.92
7/17/2021 2:00:00 AM 24.27 75.686 0.257 8.11 7.32 7.89
7/17/2021 2:15:00 AM 24.27 75.686 0.289 8.11 7.51 7.87
7/17/2021 2:30:00 AM 24.28 75.704 0.25 8.08 6.06 7.85
7/17/2021 2:45:00 AM 24.28 75.704 0.247 8.1 12.69 7.83
7/17/2021 3:00:00 AM 24.28 75.704 0.248 8.11 8.68 7.82
7/17/2021 3:15:00 AM 24.27 75.686 0.301 8.1 7.49 7.81
7/17/2021 3:30:00 AM 24.26 75.668 0.275 8.1 7.85 7.79
7/17/2021 3:45:00 AM 24.25 75.65 0.299 8.1 7.24 7.76
7/17/2021 4:00:00 AM 24.24 75.632 0.274 8.09 7.76 7.75
7/17/2021 4:15:00 AM 24.23 75.614 0.534 8.08 7.53 7.73
7/17/2021 4:30:00 AM 24.21 75.578 0.277 8.07 7.39 7.71
7/17/2021 4:45:00 AM 24.18 75.524 0.25 8.09 7.58 7.71
7/17/2021 5:00:00 AM 24.16 75.488 0.248 8.08 7.85 7.71
7/17/2021 5:15:00 AM 24.14 75.452 0.299 8.08 7.37 7.7
7/17/2021 5:30:00 AM 24.11 75.398 0.535 8.08 5.36 7.68
7/17/2021 5:45:00 AM 24.08 75.344 0.301 8.07 8.21 7.66
7/17/2021 6:00:00 AM 24.06 75.308 0.281 8.07 7.98 7.65
7/17/2021 6:15:00 AM 24.04 75.272 0.298 8.06 7.4 7.65
7/17/2021 6:30:00 AM 24.02 75.236 0.247 8.06 8.46 7.65
7/17/2021 6:45:00 AM 24 75.2 0.301 8.06 8.34 7.65
7/17/2021 7:00:00 AM 23.98 75.164 0.274 8.06 8 7.66
7/17/2021 7:15:00 AM 23.96 75.128 0.538 8.06 8.32 7.65
7/17/2021 7:30:00 AM 23.95 75.11 0.298 8.05 8.45 7.67
7/17/2021 7:45:00 AM 23.94 75.092 0.301 8.05 6.21 7.68
7/17/2021 8:00:00 AM 23.93 75.074 0.262 8.05 8.12 7.69
7/17/2021 8:15:00 AM 23.92 75.056 0.261 8.05 5.41 7.7
7/17/2021 8:30:00 AM 23.92 75.056 0.298 8.05 8.38 7.74
7/17/2021 8:45:00 AM 23.93 75.074 0.251 8.07 8.41 7.79
7/17/2021 9:00:00 AM 23.94 75.092 0.247 8.06 5.95 7.82
7/17/2021 9:15:00 AM 23.97 75.146 0.268 8.07 5.84 7.87
7/17/2021 9:30:00 AM 24 75.2 0.248 8.08 8.18 7.93
7/17/2021 9:45:00 AM 24.05 75.29 0.544 8.08 5.2 7.97
7/17/2021 10:00:00 AM 24.1 75.38 0.292 8.08 7.96 8.03
7/17/2021 10:15:00 AM 24.15 75.47 0.294 8.08 5.35 8.06
7/17/2021 10:30:00 AM 24.22 75.596 0.29 8.09 7.4 8.11
7/17/2021 10:45:00 AM 24.31 75.758 0.545 8.09 7.6 8.14
7/17/2021 11:00:00 AM 24.41 75.938 0.546 8.11 7.41 8.19
7/17/2021 11:15:00 AM 24.45 76.01 0.288 8.11 7.79 8.22
7/17/2021 11:30:00 AM 24.5 76.1 0.303 8.12 7.62 8.27
7/17/2021 11:45:00 AM 24.55 76.19 0.295 8.11 7.85 8.31
7/17/2021 12:00:00 PM 24.62 76.316 0.546 8.12 7.61 8.33
7/17/2021 12:15:00 PM 24.71 76.478 0.295 8.13 8.26 8.33
7/17/2021 12:30:00 PM 24.83 76.694 0.254 8.14 7.89 8.35
7/17/2021 12:45:00 PM 24.85 76.73 0.24 8.15 7.07 8.34
7/17/2021 1:00:00 PM 24.9 76.82 0.288 8.15 7.36 8.34
7/17/2021 1:15:00 PM 24.92 76.856 0.248 8.14 7 8.24
7/17/2021 1:30:00 PM 24.96 76.92799 0.244 8.15 7.41 8.35
7/17/2021 1:45:00 PM 24.84 76.712 0.264 8.13 7.33 7.97
7/17/2021 2:00:00 PM 24.67 76.406 0.254 8.12 7.93 7.81
7/17/2021 2:15:00 PM 24.43 75.974 0.264 8.12 8.34 7.88
7/17/2021 2:30:00 PM 24.36 75.848 0.537 8.12 7.11 7.97
7/17/2021 2:45:00 PM 24.32 75.776 0.298 8.12 7.51 8.02
7/17/2021 3:00:00 PM 24.31 75.758 0.295 8.13 7.17 8.11
7/17/2021 3:15:00 PM 24.32 75.776 0.245 8.13 7.52 8.14
7/17/2021 3:30:00 PM 24.33 75.794 0.254 8.15 7.26 8.18
7/17/2021 3:45:00 PM 24.33 75.794 0.539 8.15 6.85 8.17
7/17/2021 4:00:00 PM 24.3 75.74 0.301 8.16 7.45 8.14
7/17/2021 4:15:00 PM 24.24 75.632 0.536 8.16 6.72 8.16
7/17/2021 4:30:00 PM 24.17 75.506 0.284 8.16 7.6 8.19
7/17/2021 4:45:00 PM 24.1 75.38 0.296 8.15 8.34 8.15
7/17/2021 5:00:00 PM 24.06 75.308 0.275 8.16 5.59 8.16
7/17/2021 5:15:00 PM 24.07 75.326 0.311 8.17 5.23 8.34
7/17/2021 5:30:00 PM 24.07 75.326 0.249 8.16 7.35 8.34
7/17/2021 5:45:00 PM 24.07 75.326 0.301 8.16 7.37 8.3
7/17/2021 6:00:00 PM 24.09 75.362 0.31 8.16 4.83 8.29
7/17/2021 6:15:00 PM 24.06 75.308 0.31 8.14 4.96 8.18
7/17/2021 6:30:00 PM 23.99 75.182 0.304 8.13 7.78 8.01
7/17/2021 6:45:00 PM 23.93 75.074 0.291 8.11 7.64 7.93
7/17/2021 7:00:00 PM 23.89 75.002 0.256 8.11 7.27 7.94
7/17/2021 7:15:00 PM 23.84 74.912 0.263 8.1 7.08 7.92
7/17/2021 7:30:00 PM 23.79 74.82201 0.267 8.1 5 7.92
7/17/2021 7:45:00 PM 23.75 74.75 0.293 8.1 5.54 7.93
7/17/2021 8:00:00 PM 23.7 74.66 0.253 8.11 5.79 7.95
7/17/2021 8:15:00 PM 23.7 74.66 0.275 8.11 5.64 7.98
7/17/2021 8:30:00 PM 23.69 74.642 0.284 8.1 5.92 8
7/17/2021 8:45:00 PM 23.66 74.588 0.283 8.09 6.11 8
7/17/2021 9:00:00 PM 23.63 74.534 0.289 8.11 6.38 8.02
7/17/2021 9:15:00 PM 23.6 74.48 0.286 8.1 6.19 8.03
7/17/2021 9:30:00 PM 23.58 74.444 0.306 8.11 6.31 8.07
7/17/2021 9:45:00 PM 23.55 74.39 0.284 8.11 6.29 8.07
7/17/2021 10:00:00 PM 23.52 74.336 0.282 8.1 6.23 8.06
7/17/2021 10:15:00 PM 23.52 74.336 0.28 8.08 7.23 8.06
7/17/2021 10:30:00 PM 23.52 74.336 0.26 8.09 5.98 8.05
7/17/2021 10:45:00 PM 23.52 74.336 0.284 8.08 6.86 8.04
7/17/2021 11:00:00 PM 23.52 74.336 0.311 8.08 5.92 8.01
7/17/2021 11:15:00 PM 23.52 74.336 0.268 8.07 6.28 7.99
7/17/2021 11:30:00 PM 23.52 74.336 0.272 8.07 6.83 7.97
7/17/2021 11:45:00 PM 23.53 74.354 0.289 8.09 7.06 7.96
7/18/2021 12:00:00 AM 23.53 74.354 0.247 8.09 6.48 7.94
7/18/2021 12:15:00 AM 23.51 74.318 0.265 8.08 6.27 7.94
7/18/2021 12:30:00 AM 23.49 74.282 0.246 8.07 6.76 7.92
7/18/2021 12:45:00 AM 23.46 74.228 0.295 8.08 6.87 7.9
7/18/2021 1:00:00 AM 23.44 74.192 0.259 8.08 6.48 7.9
7/18/2021 1:15:00 AM 23.42 74.156 0.315 8.08 6.48 7.87
7/18/2021 1:30:00 AM 23.39 74.102 0.534 8.07 6.12 7.85
7/18/2021 1:45:00 AM 23.36 74.048 0.306 8.08 6.91 7.84
7/18/2021 2:00:00 AM 23.33 73.994 0.297 8.06 7.06 7.83
7/18/2021 2:15:00 AM 23.29 73.922 0.288 8.06 7.99 7.81
7/18/2021 2:30:00 AM 23.26 73.868 0.246 8.07 6.67 7.81
7/18/2021 2:45:00 AM 23.22 73.796 0.294 8.04 7.84 7.81
7/18/2021 3:00:00 AM 23.18 73.724 0.282 8.03 8.24 7.82
7/18/2021 3:15:00 AM 23.12 73.616 0.251 8.02 7.29 7.82
7/18/2021 3:30:00 AM 23.07 73.526 0.275 8.02 8.02 7.83
7/18/2021 3:45:00 AM 23.03 73.454 0.307 8.02 5.35 7.84
7/18/2021 4:00:00 AM 23.01 73.418 0.294 8.03 8.76 7.83
7/18/2021 4:15:00 AM 22.98 73.364 0.301 8.04 8.38 7.82
7/18/2021 4:30:00 AM 22.95 73.31 0.294 8.02 8.9 7.81
7/18/2021 4:45:00 AM 22.9 73.22 0.263 8 8.27 7.81
7/18/2021 5:00:00 AM 22.84 73.112 0.305 8.02 7.8 7.81
7/18/2021 5:15:00 AM 22.77 72.986 0.303 8.01 8.45 7.81
7/18/2021 5:30:00 AM 22.71 72.878 0.257 8.01 8.83 7.79
7/18/2021 5:45:00 AM 22.66 72.788 0.263 7.99 9.47 7.8
7/18/2021 6:00:00 AM 22.63 72.734 0.248 7.96 8.7 7.8
7/18/2021 6:15:00 AM 22.61 72.698 0.251 7.98 9.35 7.8
7/18/2021 6:30:00 AM 22.6 72.68 0.254 7.96 8.6 7.81
7/18/2021 6:45:00 AM 22.6 72.68 0.268 8 8.83 7.83
7/18/2021 7:00:00 AM 22.59 72.662 0.264 8.01 8.29 7.84
7/18/2021 7:15:00 AM 22.58 72.644 0.268 8 8.27 7.86
7/18/2021 7:30:00 AM 22.57 72.626 0.272 8.02 7.62 7.89
7/18/2021 7:45:00 AM 22.55 72.59 0.266 8.01 5.23 7.9
7/18/2021 8:00:00 AM 22.54 72.57201 0.302 8.01 8.33 7.93
7/18/2021 8:15:00 AM 22.53 72.554 0.292 8.03 8.34 7.98
7/18/2021 8:30:00 AM 22.52 72.536 0.25 8.03 7.73 8.02
7/18/2021 8:45:00 AM 22.52 72.536 0.277 8.04 7.71 8.08
7/18/2021 9:00:00 AM 22.51 72.518 0.276 8.04 7.18 8.08
7/18/2021 9:15:00 AM 22.5 72.5 0.269 8.03 7.3 8.06
7/18/2021 9:30:00 AM 22.47 72.446 0.307 8.04 7.99 8.05
7/18/2021 9:45:00 AM 22.45 72.41 0.308 8.04 7.53 8.06
7/18/2021 10:00:00 AM 22.44 72.392 0.272 8.04 8.12 8.06
7/18/2021 10:15:00 AM 22.42 72.356 0.276 8.04 8.1 8.09
7/18/2021 10:30:00 AM 22.4 72.32 0.277 8.04 7.79 8.12
7/18/2021 10:45:00 AM 22.38 72.284 0.254 8.04 8.82 8.11
7/18/2021 11:00:00 AM 22.41 72.338 0.322 8.06 10.42 8.23
7/18/2021 11:15:00 AM 22.48 72.464 0.255 8.08 7.68 8.34
7/18/2021 11:30:00 AM 22.42 72.356 0.283 8.07 7.62 8.21
7/18/2021 11:45:00 AM 22.39 72.302 0.536 8.06 7.12 8.22
7/18/2021 12:00:00 PM 22.41 72.338 0.288 8.07 8.43 8.27
7/18/2021 12:15:00 PM 22.41 72.338 0.253 8.08 7.26 8.32
7/18/2021 12:30:00 PM 22.4 72.32 0.27 8.08 7.62 8.24
7/18/2021 12:45:00 PM 22.41 72.338 0.292 8.09 8.5 8.32
7/18/2021 1:00:00 PM 22.41 72.338 0.276 8.09 8.04 8.27
7/18/2021 1:15:00 PM 22.49 72.482 0.304 8.11 8.33 8.46
7/18/2021 1:30:00 PM 22.51 72.518 0.311 8.11 6.98 8.41
7/18/2021 1:45:00 PM 22.46 72.42799 0.298 8.1 7.65 8.3
7/18/2021 2:00:00 PM 22.51 72.518 0.265 8.11 6.67 8.46
7/18/2021 2:15:00 PM 22.51 72.518 0.31 8.12 6.84 8.4
7/18/2021 2:30:00 PM 22.48 72.464 0.279 8.11 7.21 8.29
7/18/2021 2:45:00 PM 22.52 72.536 0.27 8.12 7.73 8.46
7/18/2021 3:00:00 PM 22.56 72.608 0.275 8.13 9.89 8.47
7/18/2021 3:15:00 PM 22.52 72.536 0.281 8.11 9.87 8.29
7/18/2021 3:30:00 PM 22.52 72.536 0.271 8.11 7.23 8.35
7/18/2021 3:45:00 PM 22.51 72.518 0.513 8.12 6.96 8.3
7/18/2021 4:00:00 PM 22.52 72.536 0.284 8.12 7.06 8.36
7/18/2021 4:15:00 PM 22.53 72.554 0.51 8.12 6.43 8.37
7/18/2021 4:30:00 PM 22.53 72.554 0.298 8.13 7.3 8.41
7/18/2021 4:45:00 PM 22.53 72.554 0.251 8.12 7.61 8.4
7/18/2021 5:00:00 PM 22.52 72.536 0.255 8.12 6.86 8.4
7/18/2021 5:15:00 PM 22.52 72.536 0.252 8.11 6.69 8.41
7/18/2021 5:30:00 PM 22.5 72.5 0.508 8.12 9.14 8.36
7/18/2021 5:45:00 PM 22.49 72.482 0.277 8.11 6.86 8.37
7/18/2021 6:00:00 PM 22.5 72.5 0.267 8.12 9.34 8.42
7/18/2021 6:15:00 PM 22.49 72.482 0.266 8.12 9.14 8.39
7/18/2021 6:30:00 PM 22.49 72.482 0.291 8.1 5.68 8.37
7/18/2021 6:45:00 PM 22.47 72.446 0.268 8.11 6.6 8.32
7/18/2021 7:00:00 PM 22.45 72.41 0.322 8.12 8.6 8.31
7/18/2021 7:15:00 PM 22.44 72.392 0.31 8.1 6.4 8.31
7/18/2021 7:30:00 PM 22.43 72.374 0.268 8.11 6.46 8.3
7/18/2021 7:45:00 PM 22.41 72.338 0.274 8.09 9.46 8.3
7/18/2021 8:00:00 PM 22.39 72.302 0.259 8.1 6.31 8.29
7/18/2021 8:15:00 PM 22.36 72.248 0.315 8.09 5.84 8.27
7/18/2021 8:30:00 PM 22.34 72.212 0.491 8.09 8.27 8.25
7/18/2021 8:45:00 PM 22.32 72.176 0.311 8.07 8.91 8.25
7/18/2021 9:00:00 PM 22.29 72.122 0.314 8.07 6.1 8.24
7/18/2021 9:15:00 PM 22.26 72.068 0.267 8.07 9.55 8.23
7/18/2021 9:30:00 PM 22.24 72.032 0.295 8.07 7.02 8.23
7/18/2021 9:45:00 PM 22.21 71.978 0.319 8.06 7.46 8.22
7/18/2021 10:00:00 PM 22.19 71.942 0.3 8.05 7.16 8.22
7/18/2021 10:15:00 PM 22.17 71.906 0.309 8.06 7.4 8.21
7/18/2021 10:30:00 PM 22.14 71.852 0.295 8.06 7.34 8.2
7/18/2021 10:45:00 PM 22.11 71.798 0.314 8.05 7.2 8.19
7/18/2021 11:00:00 PM 22.07 71.726 0.458 8.04 7.44 8.19
7/18/2021 11:15:00 PM 22.04 71.672 0.294 8.02 6.94 8.18
7/18/2021 11:30:00 PM 22.01 71.618 0.316 8.03 7.1 8.17
7/18/2021 11:45:00 PM 21.99 71.582 0.312 8.03 7.21 8.17
7/19/2021 12:00:00 AM 21.97 71.546 0.298 8.02 7.93 8.16
7/19/2021 12:15:00 AM 21.95 71.51 0.286 8.03 9.76 8.15
7/19/2021 12:30:00 AM 21.93 71.474 0.319 8.02 7.39 8.15
7/19/2021 12:45:00 AM 21.9 71.42 0.32 8.02 7.17 8.14
7/19/2021 1:00:00 AM 21.87 71.366 0.441 8.02 9.62 8.14
7/19/2021 1:15:00 AM 21.84 71.312 0.315 8.03 6.74 8.13
7/19/2021 1:30:00 AM 21.81 71.258 0.288 8.01 7.76 8.13
7/19/2021 1:45:00 AM 21.78 71.204 0.288 8.02 7.89 8.13
7/19/2021 2:00:00 AM 21.74 71.132 0.266 8.02 9.98 8.13
7/19/2021 2:15:00 AM 21.72 71.096 0.31 8 7.14 8.13
7/19/2021 2:30:00 AM 21.69 71.042 0.313 7.99 8.15 8.13
7/19/2021 2:45:00 AM 21.66 70.988 0.312 8 7.09 8.12
7/19/2021 3:00:00 AM 21.63 70.934 0.302 8.01 7.76 8.12
7/19/2021 3:15:00 AM 21.6 70.88 0.317 8 7.45 8.12
7/19/2021 3:30:00 AM 21.57 70.826 0.306 8 8.17 8.11
7/19/2021 3:45:00 AM 21.53 70.754 0.448 7.99 9.72 8.12
7/19/2021 4:00:00 AM 21.5 70.7 0.316 8.02 9.64 8.12
7/19/2021 4:15:00 AM 21.46 70.628 0.307 8.01 8.37 8.11
7/19/2021 4:30:00 AM 21.43 70.574 0.282 8 7.93 8.11
7/19/2021 4:45:00 AM 21.4 70.52 0.293 7.98 8.63 8.11
7/19/2021 5:00:00 AM 21.37 70.466 0.316 8 8.56 8.11
7/19/2021 5:15:00 AM 21.33 70.394 0.327 8 8.69 8.1
7/19/2021 5:30:00 AM 21.3 70.34 0.288 7.97 8.99 8.1
7/19/2021 5:45:00 AM 21.27 70.286 0.452 8 8.62 8.09
7/19/2021 6:00:00 AM 21.24 70.232 0.304 7.99 8.48 8.1
7/19/2021 6:15:00 AM 21.2 70.16 0.286 8 8.88 8.09
7/19/2021 6:30:00 AM 21.17 70.106 0.322 7.99 8.79 8.1
7/19/2021 6:45:00 AM 21.14 70.052 0.326 7.98 8.47 8.12
7/19/2021 7:00:00 AM 21.12 70.016 0.328 8 8.19 8.15
7/19/2021 7:15:00 AM 21.1 69.98 0.329 7.97 8.24 8.16
7/19/2021 7:30:00 AM 21.08 69.944 0.329 8 7.96 8.18
7/19/2021 7:45:00 AM 21.07 69.926 0.323 8.01 8.48 8.19
7/19/2021 8:00:00 AM 21.06 69.908 0.32 8 8.64 8.22
7/19/2021 8:15:00 AM 21.06 69.908 0.284 8.02 7.98 8.23
7/19/2021 8:30:00 AM 21.06 69.908 0.3 8.01 8.29 8.27
7/19/2021 8:45:00 AM 21.06 69.908 0.328 8.01 8.19 8.3
7/19/2021 9:00:00 AM 21.06 69.908 0.281 8.01 7.23 8.34
7/19/2021 9:15:00 AM 21.08 69.944 0.298 8.01 7.02 8.38
7/19/2021 9:30:00 AM 21.1 69.98 0.465 8.04 7.38 8.41
7/19/2021 9:45:00 AM 21.12 70.016 0.307 8.03 7.91 8.46
7/19/2021 10:00:00 AM 21.16 70.088 0.33 8.03 7.23 8.49
7/19/2021 10:15:00 AM 21.19 70.142 0.284 8.04 7.76 8.52
7/19/2021 10:30:00 AM 21.23 70.214 0.276 8.04 7.65 8.55
7/19/2021 10:45:00 AM 21.28 70.304 0.32 8.05 7.38 8.59
7/19/2021 11:00:00 AM 21.32 70.376 0.291 8.08 9.47 8.62
7/19/2021 11:15:00 AM 21.37 70.466 0.292 8.07 6.88 8.65
7/19/2021 11:30:00 AM 21.43 70.574 0.322 8.08 8.68 8.69
7/19/2021 11:45:00 AM 21.48 70.664 0.28 8.08 8.66 8.72
7/19/2021 12:00:00 PM 21.54 70.772 0.311 8.11 9.35 8.74
7/19/2021 12:15:00 PM 21.59 70.862 0.291 8.08 9.75 8.77
7/19/2021 12:30:00 PM 21.63 70.934 0.286 8.1 6.46 8.78
7/19/2021 12:45:00 PM 21.67 71.006 0.303 8.1 8.54 8.8
7/19/2021 1:00:00 PM 21.72 71.096 0.294 8.13 6 8.83
7/19/2021 1:15:00 PM 21.74 71.132 0.27 8.12 8.73 8.83
7/19/2021 1:30:00 PM 21.75 71.15 0.281 8.14 6.13 8.86
7/19/2021 1:45:00 PM 21.8 71.24 0.314 8.13 8.8 8.89
7/19/2021 2:00:00 PM 21.86 71.348 0.297 8.12 8.37 8.9
7/19/2021 2:15:00 PM 21.89 71.402 0.29 8.17 5.56 8.91
7/19/2021 2:30:00 PM 21.92 71.456 0.285 8.15 6.03 8.91
7/19/2021 2:45:00 PM 21.92 71.456 0.294 8.15 7.74 8.89
7/19/2021 3:00:00 PM 21.96 71.528 0.306 8.15 5.78 8.93
7/19/2021 3:15:00 PM 22.02 71.636 0.295 8.14 7.66 8.94
7/19/2021 3:30:00 PM 22.12 71.816 0.296 8.18 5.85 8.96
7/19/2021 3:45:00 PM 22.17 71.906 0.306 8.16 7.83 8.95
7/19/2021 4:00:00 PM 22.21 71.978 0.316 8.17 5.73 8.98
7/19/2021 4:15:00 PM 22.26 72.068 0.304 8.2 7.11 8.97
7/19/2021 4:30:00 PM 22.26 72.068 0.313 8.19 7.95 8.98
7/19/2021 4:45:00 PM 22.29 72.122 0.32 8.19 7.29 8.96
7/19/2021 5:00:00 PM 22.28 72.104 0.307 8.19 5.66 8.95
7/19/2021 5:15:00 PM 22.26 72.068 0.478 8.22 7.07 8.94
7/19/2021 5:30:00 PM 22.32 72.176 0.273 8.2 7.53 9
7/19/2021 5:45:00 PM 22.35 72.23 0.306 8.21 7.09 8.98
7/19/2021 6:00:00 PM 22.39 72.302 0.274 8.21 7.67 8.95
7/19/2021 6:15:00 PM 22.38 72.284 0.315 8.22 7.18 8.92
7/19/2021 6:30:00 PM 22.37 72.266 0.483 8.22 6.96 8.86
7/19/2021 6:45:00 PM 22.36 72.248 0.318 8.21 7.89 8.81
7/19/2021 7:00:00 PM 22.38 72.284 0.262 8.22 8.43 8.85
7/19/2021 7:15:00 PM 22.35 72.23 0.265 8.22 7.9 8.87
7/19/2021 7:30:00 PM 22.29 72.122 0.485 8.22 6.66 8.81
7/19/2021 7:45:00 PM 22.25 72.05 0.305 8.19 7.1 8.8
7/19/2021 8:00:00 PM 22.21 71.978 0.279 8.19 6.69 8.76
7/19/2021 8:15:00 PM 22.17 71.906 0.306 8.18 4.3 8.74
7/19/2021 8:30:00 PM 22.14 71.852 0.31 8.19 7.85 8.73
7/19/2021 8:45:00 PM 22.12 71.816 0.307 8.18 7.05 8.72
7/19/2021 9:00:00 PM 22.09 71.762 0.306 8.18 5.64 8.72
7/19/2021 9:15:00 PM 22.07 71.726 0.486 8.18 7.17 8.69
7/19/2021 9:30:00 PM 22.05 71.69 0.312 8.18 5.53 8.7
7/19/2021 9:45:00 PM 22.03 71.654 0.303 8.18 7.02 8.69
7/19/2021 10:00:00 PM 22.02 71.636 0.276 8.18 7.8 8.67
7/19/2021 10:15:00 PM 22.01 71.618 0.264 8.17 8.82 8.66
7/19/2021 10:30:00 PM 22.02 71.636 0.314 8.19 7.52 8.66
7/19/2021 10:45:00 PM 22.02 71.636 0.279 8.18 5.07 8.65
7/19/2021 11:00:00 PM 22.02 71.636 0.307 8.17 8.23 8.61
7/19/2021 11:15:00 PM 22.04 71.672 0.289 8.17 5.53 8.63
7/19/2021 11:30:00 PM 22.04 71.672 0.274 8.17 5.52 8.6
7/19/2021 11:45:00 PM 22.05 71.69 0.275 8.16 5.89 8.58
7/20/2021 12:00:00 AM 22.06 71.708 0.257 8.17 8.11 8.57
7/20/2021 12:15:00 AM 22.06 71.708 0.495 8.16 7.82 8.54
7/20/2021 12:30:00 AM 22.07 71.726 0.324 8.16 7.69 8.53
7/20/2021 12:45:00 AM 22.08 71.744 0.288 8.14 5.97 8.52
7/20/2021 1:00:00 AM 22.09 71.762 0.279 8.14 8.24 8.5
7/20/2021 1:15:00 AM 22.09 71.762 0.501 8.14 7.31 8.48
7/20/2021 1:30:00 AM 22.1 71.78 0.265 8.15 6.59 8.47
7/20/2021 1:45:00 AM 22.1 71.78 0.255 8.14 7.88 8.45
7/20/2021 2:00:00 AM 22.1 71.78 0.266 8.14 8.01 8.43
7/20/2021 2:15:00 AM 22.1 71.78 0.266 8.13 8.07 8.41
7/20/2021 2:30:00 AM 22.1 71.78 0.243 8.15 5.52 8.39
7/20/2021 2:45:00 AM 22.1 71.78 0.323 8.14 5.86 8.38
7/20/2021 3:00:00 AM 22.1 71.78 0.256 8.09 8.84 8.36
7/20/2021 3:15:00 AM 22.09 71.762 0.258 8.12 6.14 8.33
7/20/2021 3:30:00 AM 22.09 71.762 0.282 8.13 8.8 8.32
7/20/2021 3:45:00 AM 22.08 71.744 0.322 8.12 8.54 8.3
7/20/2021 4:00:00 AM 22.08 71.744 0.289 8.13 8.83 8.29
7/20/2021 4:15:00 AM 22.07 71.726 0.27 8.12 6.41 8.26
7/20/2021 4:30:00 AM 22.06 71.708 0.294 8.12 8.6 8.24
7/20/2021 4:45:00 AM 22.05 71.69 0.279 8.11 6.73 8.22
7/20/2021 5:00:00 AM 22.04 71.672 0.308 8.08 8.82 8.21
7/20/2021 5:15:00 AM 22.02 71.636 0.281 8.1 9.18 8.2
7/20/2021 5:30:00 AM 22.01 71.618 0.299 8.11 8.16 8.18
7/20/2021 5:45:00 AM 21.99 71.582 0.257 8.11 8.71 8.15
7/20/2021 6:00:00 AM 21.98 71.564 0.311 8.09 6.34 8.15
7/20/2021 6:15:00 AM 21.97 71.546 0.279 8.1 6.56 8.14
7/20/2021 6:30:00 AM 21.95 71.51 0.319 8.09 6.13 8.15
7/20/2021 6:45:00 AM 21.94 71.492 0.261 8.1 6.05 8.15
7/20/2021 7:00:00 AM 21.93 71.474 0.285 8.08 9.15 8.16
7/20/2021 7:15:00 AM 21.92 71.456 0.32 8.1 5.72 8.17
7/20/2021 7:30:00 AM 21.91 71.438 0.534 8.1 9.38 8.17
7/20/2021 7:45:00 AM 21.91 71.438 0.308 8.11 6.38 8.21
7/20/2021 8:00:00 AM 21.9 71.42 0.317 8.09 8.14 8.22
7/20/2021 8:15:00 AM 21.9 71.42 0.302 8.11 8.67 8.25
7/20/2021 8:30:00 AM 21.9 71.42 0.315 8.1 5.99 8.27
7/20/2021 8:45:00 AM 21.9 71.42 0.32 8.09 8.13 8.3
7/20/2021 9:00:00 AM 21.91 71.438 0.325 8.09 8.67 8.34
7/20/2021 9:15:00 AM 21.93 71.474 0.268 8.11 8.18 8.37
7/20/2021 9:30:00 AM 21.95 71.51 0.323 8.1 8.62 8.4
7/20/2021 9:45:00 AM 21.98 71.564 0.295 8.12 6.49 8.43
7/20/2021 10:00:00 AM 22.01 71.618 0.305 8.11 8.74 8.45
7/20/2021 10:15:00 AM 22.03 71.654 0.542 8.12 8.1 8.47
7/20/2021 10:30:00 AM 22.05 71.69 0.314 8.11 8.08 8.49
7/20/2021 10:45:00 AM 22.08 71.744 0.295 8.12 6.12 8.52
7/20/2021 11:00:00 AM 22.12 71.816 0.259 8.11 7.42 8.54
7/20/2021 11:15:00 AM 22.14 71.852 0.263 8.12 7.67 8.55
7/20/2021 11:30:00 AM 22.19 71.942 0.292 8.12 7.52 8.59
7/20/2021 11:45:00 AM 22.24 72.032 0.254 8.13 7.27 8.61
7/20/2021 12:00:00 PM 22.32 72.176 0.296 8.13 8.29 8.65
7/20/2021 12:15:00 PM 22.34 72.212 0.546 8.14 7.18 8.66
7/20/2021 12:30:00 PM 22.37 72.266 0.264 8.14 6.65 8.69
7/20/2021 12:45:00 PM 22.37 72.266 0.317 8.15 7.1 8.7
7/20/2021 1:00:00 PM 22.36 72.248 0.318 8.15 7.28 8.7
7/20/2021 1:15:00 PM 22.37 72.266 0.281 8.12 7.53 8.7
7/20/2021 1:30:00 PM 22.38 72.284 0.29 8.14 6.63 8.7
7/20/2021 1:45:00 PM 22.42 72.356 0.287 8.15 7.81 8.75
7/20/2021 2:00:00 PM 22.45 72.41 0.322 8.16 7.39 8.76
7/20/2021 2:15:00 PM 22.38 72.284 0.307 8.16 7.34 8.68
7/20/2021 2:30:00 PM 22.42 72.356 0.256 8.12 6.06 8.76
7/20/2021 2:45:00 PM 22.43 72.374 0.273 8.15 6.78 8.75
7/20/2021 3:00:00 PM 22.5 72.5 0.55 8.16 5.96 8.78
7/20/2021 3:15:00 PM 22.58 72.644 0.273 8.18 6.24 8.83
7/20/2021 3:30:00 PM 22.61 72.698 0.256 8.17 6.12 8.81
7/20/2021 3:45:00 PM 22.65 72.77 0.296 8.17 6.21 8.79
7/20/2021 4:00:00 PM 22.69 72.842 0.301 8.18 6.98 8.78
7/20/2021 4:15:00 PM 22.73 72.914 0.306 8.18 7.06 8.78
7/20/2021 4:30:00 PM 22.73 72.914 0.285 8.18 7.02 8.76
7/20/2021 4:45:00 PM 22.71 72.878 0.249 8.17 5.94 8.7
7/20/2021 5:00:00 PM 22.75 72.95 0.259 8.19 6.92 8.75
7/20/2021 5:15:00 PM 22.73 72.914 0.257 8.18 5.56 8.74
7/20/2021 5:30:00 PM 22.73 72.914 0.254 8.17 6.78 8.74
7/20/2021 5:45:00 PM 22.74 72.932 0.272 8.17 5.51 8.74
7/20/2021 6:00:00 PM 22.73 72.914 0.257 8.17 7.01 8.72
7/20/2021 6:15:00 PM 22.69 72.842 0.254 8.17 5.62 8.69
7/20/2021 6:30:00 PM 22.67 72.806 0.295 8.13 6.91 8.66
7/20/2021 6:45:00 PM 22.65 72.77 0.316 8.19 5.6 8.64
7/20/2021 7:00:00 PM 22.62 72.716 0.554 8.18 6.22 8.61
7/20/2021 7:15:00 PM 22.58 72.644 0.252 8.19 5.74 8.6
7/20/2021 7:30:00 PM 22.54 72.57201 0.307 8.18 6.08 8.59
7/20/2021 7:45:00 PM 22.5 72.5 0.313 8.17 6.04 8.57
7/20/2021 8:00:00 PM 22.47 72.446 0.555 8.17 6.19 8.55
7/20/2021 8:15:00 PM 22.43 72.374 0.297 8.17 6.48 8.52
7/20/2021 8:30:00 PM 22.39 72.302 0.271 8.17 6.04 8.52
7/20/2021 8:45:00 PM 22.35 72.23 0.282 8.16 7.1 8.49
7/20/2021 9:00:00 PM 22.31 72.158 0.319 8.17 7.13 8.49
7/20/2021 9:15:00 PM 22.27 72.086 0.318 8.16 6.53 8.5
7/20/2021 9:30:00 PM 22.24 72.032 0.315 8.14 7.09 8.5
7/20/2021 9:45:00 PM 22.22 71.996 0.289 8.15 7.78 8.49
7/20/2021 10:00:00 PM 22.19 71.942 0.264 8.15 6.59 8.48
7/20/2021 10:15:00 PM 22.17 71.906 0.554 8.14 6.61 8.49
7/20/2021 10:30:00 PM 22.15 71.87 0.306 8.14 7.11 8.5
7/20/2021 10:45:00 PM 22.14 71.852 0.301 8.14 7.26 8.48
7/20/2021 11:00:00 PM 22.12 71.816 0.274 8.14 6.7 8.48
7/20/2021 11:15:00 PM 22.11 71.798 0.555 8.15 7.36 8.49
7/20/2021 11:30:00 PM 22.1 71.78 0.3 8.14 7.96 8.49
7/20/2021 11:45:00 PM 22.09 71.762 0.294 8.14 7.36 8.5
7/21/2021 12:00:00 AM 22.09 71.762 0.289 8.13 7.25 8.49
7/21/2021 12:15:00 AM 22.09 71.762 0.556 8.12 6.41 8.49
7/21/2021 12:30:00 AM 22.09 71.762 0.313 8.14 7.34 8.48
7/21/2021 12:45:00 AM 22.09 71.762 0.32 8.13 6.5 8.46
7/21/2021 1:00:00 AM 22.1 71.78 0.268 8.14 6.79 8.46
7/21/2021 1:15:00 AM 22.1 71.78 0.266 8.13 7.07 8.44
7/21/2021 1:30:00 AM 22.11 71.798 0.308 8.13 7.78 8.44
7/21/2021 1:45:00 AM 22.12 71.816 0.267 8.12 8.6 8.43
7/21/2021 2:00:00 AM 22.13 71.834 0.29 8.14 6.78 8.41
7/21/2021 2:15:00 AM 22.14 71.852 0.261 8.13 6.78 8.41
7/21/2021 2:30:00 AM 22.14 71.852 0.256 8.12 7.92 8.4
7/21/2021 2:45:00 AM 22.15 71.87 0.318 8.13 7.01 8.39
7/21/2021 3:00:00 AM 22.16 71.888 0.255 8.12 5.61 8.38
7/21/2021 3:15:00 AM 22.18 71.924 0.255 8.13 10.89 8.37
7/21/2021 3:30:00 AM 22.18 71.924 0.257 8.13 10.02 8.35
7/21/2021 3:45:00 AM 22.19 71.942 0.553 8.14 6.81 8.31
7/21/2021 4:00:00 AM 22.19 71.942 0.311 8.14 7.63 8.31
7/21/2021 4:15:00 AM 22.19 71.942 0.261 8.13 10.52 8.3
7/21/2021 4:30:00 AM 22.19 71.942 0.298 8.14 6.92 8.28
7/21/2021 4:45:00 AM 22.19 71.942 0.309 8.13 10.21 8.25
7/21/2021 5:00:00 AM 22.19 71.942 0.285 8.12 7.9 8.24
7/21/2021 5:15:00 AM 22.18 71.924 0.281 8.12 7.24 8.21
7/21/2021 5:30:00 AM 22.18 71.924 0.27 8.08 6.71 8.2
7/21/2021 5:45:00 AM 22.17 71.906 0.556 8.09 6.75 8.18
7/21/2021 6:00:00 AM 22.17 71.906 0.274 8.11 6.69 8.17
7/21/2021 6:15:00 AM 22.16 71.888 0.296 8.1 7.46 8.16
7/21/2021 6:30:00 AM 22.16 71.888 0.26 8.09 7.85 8.16
7/21/2021 6:45:00 AM 22.16 71.888 0.269 8.09 6.55 8.16
7/21/2021 7:00:00 AM 22.16 71.888 0.556 8.1 6.9 8.16
7/21/2021 7:15:00 AM 22.16 71.888 0.321 8.11 7.41 8.19
7/21/2021 7:30:00 AM 22.16 71.888 0.265 8.11 6.78 8.2
7/21/2021 7:45:00 AM 22.18 71.924 0.321 8.1 7.12 8.24
7/21/2021 8:00:00 AM 22.19 71.942 0.291 8.11 7.58 8.24
7/21/2021 8:15:00 AM 22.2 71.96 0.28 8.11 6.59 8.27
7/21/2021 8:30:00 AM 22.2 71.96 0.274 8.09 6.42 8.29
7/21/2021 8:45:00 AM 22.22 71.996 0.257 8.13 7.52 8.34
7/21/2021 9:00:00 AM 22.24 72.032 0.559 8.13 6.05 8.38
7/21/2021 9:15:00 AM 22.25 72.05 0.559 8.12 8.46 8.36
7/21/2021 9:30:00 AM 22.25 72.05 0.264 8.12 6.25 8.33
7/21/2021 9:45:00 AM 22.28 72.104 0.252 8.1 7.27 8.4
7/21/2021 10:00:00 AM 22.33 72.194 0.292 8.12 6.03 8.49
7/21/2021 10:15:00 AM 22.32 72.176 0.255 8.11 7.09 8.4
7/21/2021 10:30:00 AM 22.29 72.122 0.27 8.11 6.08 8.26
7/21/2021 10:45:00 AM 22.32 72.176 0.265 8.11 7.2 8.4
7/21/2021 11:00:00 AM 22.39 72.302 0.564 8.14 5.91 8.54
7/21/2021 11:15:00 AM 22.37 72.266 0.265 8.11 6.81 8.45
7/21/2021 11:30:00 AM 22.4 72.32 0.308 8.13 6.36 8.52
7/21/2021 11:45:00 AM 22.51 72.518 0.273 8.15 6.35 8.66
7/21/2021 12:00:00 PM 22.59 72.662 0.317 8.15 5.94 8.7
7/21/2021 12:15:00 PM 22.67 72.806 0.266 8.15 6.26 8.73
7/21/2021 12:30:00 PM 22.75 72.95 0.317 8.17 6.04 8.75
7/21/2021 12:45:00 PM 22.8 73.04 0.317 8.17 5.26 8.75
7/21/2021 1:00:00 PM 22.76 72.968 0.315 8.16 6.05 8.67
7/21/2021 1:15:00 PM 22.81 73.058 0.316 8.16 5.18 8.69
7/21/2021 1:30:00 PM 22.88 73.184 0.248 8.17 5.39 8.76
7/21/2021 1:45:00 PM 22.82 73.076 0.313 8.15 5.67 8.48
7/21/2021 2:00:00 PM 22.77 72.986 0.569 8.15 5.52 8.48
7/21/2021 2:15:00 PM 22.67 72.806 0.311 8.14 5.82 8.38
7/21/2021 2:30:00 PM 22.58 72.644 0.257 8.12 4.76 8.39
7/21/2021 2:45:00 PM 22.54 72.57201 0.264 8.13 5.29 8.4
7/21/2021 3:00:00 PM 22.56 72.608 0.251 8.13 4.74 8.35
7/21/2021 3:15:00 PM 22.72 72.896 0.306 8.16 4.26 8.6
7/21/2021 3:30:00 PM 22.92 73.256 0.253 8.19 4.3 8.75
7/21/2021 3:45:00 PM 23.07 73.526 0.271 8.19 4.85 8.77
7/21/2021 4:00:00 PM 23.16 73.688 0.262 8.2 4.64 8.78
7/21/2021 4:15:00 PM 23.17 73.706 0.306 8.21 4.84 8.77
7/21/2021 4:30:00 PM 23.11 73.598 0.568 8.21 5 8.74
7/21/2021 4:45:00 PM 23.04 73.472 0.311 8.2 4.89 8.73
7/21/2021 5:00:00 PM 23.02 73.436 0.317 8.19 4.59 8.68
7/21/2021 5:15:00 PM 23.01 73.418 0.314 8.19 5.32 8.65
7/21/2021 5:30:00 PM 22.99 73.382 0.308 8.19 4.92 8.61
7/21/2021 5:45:00 PM 22.99 73.382 0.568 8.17 4.16 8.57
7/21/2021 6:00:00 PM 22.88 73.184 0.3 8.16 4.68 8.37
7/21/2021 6:15:00 PM 22.72 72.896 0.251 8.16 3.96 8.38
7/21/2021 6:30:00 PM 22.73 72.914 0.273 8.16 4.4 8.58
7/21/2021 6:45:00 PM 22.76 72.968 0.29 8.18 4.24 8.52
7/21/2021 7:00:00 PM 22.77 72.986 0.316 8.18 4.83 8.49
7/21/2021 7:15:00 PM 22.73 72.914 0.27 8.17 4.22 8.48
7/21/2021 7:30:00 PM 22.69 72.842 0.309 8.18 4.66 8.46
7/21/2021 7:45:00 PM 22.65 72.77 0.258 8.16 4.72 8.51
7/21/2021 8:00:00 PM 22.62 72.716 0.318 8.18 5.1 8.48
7/21/2021 8:15:00 PM 22.59 72.662 0.315 8.17 5.72 8.49
7/21/2021 8:30:00 PM 22.54 72.57201 0.306 8.16 6.26 8.55
7/21/2021 8:45:00 PM 22.45 72.41 0.255 8.16 5.82 8.58
7/21/2021 9:00:00 PM 22.33 72.194 0.282 8.15 6.53 8.59
7/21/2021 9:15:00 PM 22.22 71.996 0.309 8.15 10.68 8.58
7/21/2021 9:30:00 PM 22.12 71.816 0.293 8.16 6.14 8.61
7/21/2021 9:45:00 PM 22.07 71.726 0.272 8.15 5.83 8.62
7/21/2021 10:00:00 PM 22.04 71.672 0.317 8.18 5.91 8.64
7/21/2021 10:15:00 PM 22 71.6 0.306 8.17 6.41 8.64
7/21/2021 10:30:00 PM 21.97 71.546 0.316 8.17 5.39 8.65
7/21/2021 10:45:00 PM 21.94 71.492 0.291 8.17 5.63 8.65
7/21/2021 11:00:00 PM 21.91 71.438 0.27 8.15 5.48 8.64
7/21/2021 11:15:00 PM 21.89 71.402 0.325 8.16 5.52 8.64
7/21/2021 11:30:00 PM 21.89 71.402 0.291 8.17 6.45 8.63
7/21/2021 11:45:00 PM 21.89 71.402 0.306 8.17 5.96 8.61
7/22/2021 12:00:00 AM 21.9 71.42 0.265 8.17 6.13 8.59
7/22/2021 12:15:00 AM 21.92 71.456 0.324 8.17 6.42 8.57
7/22/2021 12:30:00 AM 21.94 71.492 0.295 8.17 6.44 8.54
7/22/2021 12:45:00 AM 21.95 71.51 0.309 8.19 7.07 8.5
7/22/2021 1:00:00 AM 21.95 71.51 0.284 8.18 6.52 8.46
7/22/2021 1:15:00 AM 21.93 71.474 0.264 8.17 6.96 8.43
7/22/2021 1:30:00 AM 21.91 71.438 0.315 8.18 7.56 8.4
7/22/2021 1:45:00 AM 21.9 71.42 0.307 8.17 7.42 8.37
7/22/2021 2:00:00 AM 21.88 71.384 0.295 8.16 8.09 8.33
7/22/2021 2:15:00 AM 21.88 71.384 0.311 8.15 8.13 8.32
7/22/2021 2:30:00 AM 21.87 71.366 0.319 8.15 9.34 8.28
7/22/2021 2:45:00 AM 21.87 71.366 0.291 8.15 7.94 8.27
7/22/2021 3:00:00 AM 21.86 71.348 0.324 8.13 8.56 8.25
7/22/2021 3:15:00 AM 21.85 71.33 0.278 8.13 8.97 8.23
7/22/2021 3:30:00 AM 21.83 71.294 0.294 8.12 9.05 8.22
7/22/2021 3:45:00 AM 21.8 71.24 0.538 8.14 7.57 8.21
7/22/2021 4:00:00 AM 21.76 71.168 0.27 8.12 8.09 8.22
7/22/2021 4:15:00 AM 21.72 71.096 0.307 8.12 8.72 8.2
7/22/2021 4:30:00 AM 21.68 71.024 0.278 8.12 7.12 8.21
7/22/2021 4:45:00 AM 21.63 70.934 0.324 8.08 8.54 8.2
7/22/2021 5:00:00 AM 21.58 70.844 0.311 8.11 7.1 8.21
7/22/2021 5:15:00 AM 21.53 70.754 0.537 8.09 8.41 8.21
7/22/2021 5:30:00 AM 21.47 70.646 0.302 8.09 8.82 8.22
7/22/2021 5:45:00 AM 21.41 70.538 0.308 8.08 9.06 8.22
7/22/2021 6:00:00 AM 21.35 70.43 0.319 8.05 8.77 8.22
7/22/2021 6:15:00 AM 21.3 70.34 0.267 8.05 8.02 8.23
7/22/2021 6:30:00 AM 21.23 70.214 0.277 8.08 8.48 8.25
7/22/2021 6:45:00 AM 21.18 70.124 0.282 8.08 9.02 8.27
7/22/2021 7:00:00 AM 21.12 70.016 0.279 8.08 9.03 8.29
7/22/2021 7:15:00 AM 21.07 69.926 0.531 8.09 8.51 8.29
7/22/2021 7:30:00 AM 21.02 69.836 0.271 8.08 9.02 8.32
7/22/2021 7:45:00 AM 20.98 69.764 0.275 8.07 9 8.32
7/22/2021 8:00:00 AM 20.95 69.71 0.271 8.07 8.82 8.34
7/22/2021 8:15:00 AM 20.92 69.656 0.323 8.04 8.13 8.34
7/22/2021 8:30:00 AM 20.9 69.62 0.281 8.07 8.43 8.38
7/22/2021 8:45:00 AM 20.89 69.602 0.298 8.08 8.18 8.41
7/22/2021 9:00:00 AM 20.89 69.602 0.506 8.01 7.98 8.43
7/22/2021 9:15:00 AM 20.89 69.602 0.499 8.06 8.24 8.48
7/22/2021 9:30:00 AM 20.9 69.62 0.3 8.08 7.72 8.5
7/22/2021 9:45:00 AM 20.89 69.602 0.299 8.07 7.77 8.51
7/22/2021 10:00:00 AM 20.92 69.656 0.3 8.07 7.37 8.55
7/22/2021 10:15:00 AM 20.97 69.746 0.311 8.06 7.46 8.59
7/22/2021 10:30:00 AM 21 69.8 0.294 8.08 7.24 8.6
7/22/2021 10:45:00 AM 21.05 69.89 0.287 8.08 7.55 8.62
7/22/2021 11:00:00 AM 21.06 69.908 0.286 8.04 7.38 8.6
7/22/2021 11:15:00 AM 21.08 69.944 0.449 8.07 7.38 8.61
7/22/2021 11:30:00 AM 21.15 70.07 0.45 8.08 7.62 8.64
7/22/2021 11:45:00 AM 21.18 70.124 0.324 8.07 7.39 8.66
7/22/2021 12:00:00 PM 21.26 70.268 0.306 8.09 7.89 8.69
7/22/2021 12:15:00 PM 21.29 70.32201 0.295 8.09 7.83 8.7
7/22/2021 12:30:00 PM 21.34 70.412 0.313 8.1 8.11 8.71
7/22/2021 12:45:00 PM 21.33 70.394 0.429 8.09 7.17 8.66
7/22/2021 1:00:00 PM 21.38 70.484 0.327 8.07 7.05 8.7
7/22/2021 1:15:00 PM 21.41 70.538 0.311 8.09 7.13 8.7
7/22/2021 1:30:00 PM 21.48 70.664 0.319 8.07 7.2 8.75
7/22/2021 1:45:00 PM 21.55 70.79 0.299 8.09 7.08 8.73
7/22/2021 2:00:00 PM 21.61 70.898 0.306 8.08 7.35 8.76
7/22/2021 2:15:00 PM 21.63 70.934 0.278 8.08 6.24 8.72
7/22/2021 2:30:00 PM 21.71 71.078 0.303 8.1 6.65 8.78
7/22/2021 2:45:00 PM 21.71 71.078 0.318 8.09 6.8 8.74
7/22/2021 3:00:00 PM 21.78 71.204 0.245 8.09 6.67 8.79
7/22/2021 3:15:00 PM 21.86 71.348 0.305 8.09 6.38 8.79
7/22/2021 3:30:00 PM 21.95 71.51 0.301 8.1 6.23 8.79
7/22/2021 3:45:00 PM 21.96 71.528 0.314 8.13 6.52 8.72
7/22/2021 4:00:00 PM 21.96 71.528 0.314 8.12 6.66 8.74
7/22/2021 4:15:00 PM 21.98 71.564 0.308 8.12 6.23 8.76
7/22/2021 4:30:00 PM 22.01 71.618 0.324 8.15 7.36 8.77
7/22/2021 4:45:00 PM 22.01 71.618 0.291 8.14 6.96 8.75
7/22/2021 5:00:00 PM 22.03 71.654 0.309 8.14 6.66 8.79
7/22/2021 5:15:00 PM 22.06 71.708 0.324 8.16 6.4 8.83
7/22/2021 5:30:00 PM 22.09 71.762 0.419 8.16 6.69 8.82
7/22/2021 5:45:00 PM 22.1 71.78 0.3 8.16 7.32 8.8
7/22/2021 6:00:00 PM 22.13 71.834 0.292 8.16 6.78 8.78
7/22/2021 6:15:00 PM 22.09 71.762 0.297 8.16 7.03 8.73
7/22/2021 6:30:00 PM 22.08 71.744 0.294 8.17 7.16 8.76
7/22/2021 6:45:00 PM 22.04 71.672 0.309 8.16 6.67 8.72
7/22/2021 7:00:00 PM 22 71.6 0.297 8.15 6.81 8.7
7/22/2021 7:15:00 PM 21.98 71.564 0.32 8.14 9.7 8.69
7/22/2021 7:30:00 PM 21.96 71.528 0.283 8.14 8.15 8.68
7/22/2021 7:45:00 PM 21.93 71.474 0.307 8.13 7.58 8.68
7/22/2021 8:00:00 PM 21.89 71.402 0.279 8.13 14.51 8.67
7/22/2021 8:15:00 PM 21.85 71.33 0.322 8.13 7.02 8.66
7/22/2021 8:30:00 PM 21.8 71.24 0.325 8.13 7.74 8.67
7/22/2021 8:45:00 PM 21.76 71.168 0.294 8.15 7.72 8.65
7/22/2021 9:00:00 PM 21.72 71.096 0.422 8.14 9.74 8.65
7/22/2021 9:15:00 PM 21.69 71.042 0.302 8.14 7.67 8.65
7/22/2021 9:30:00 PM 21.67 71.006 0.306 8.14 7.02 8.66
7/22/2021 9:45:00 PM 21.65 70.97 0.326 8.13 6.83 8.65
7/22/2021 10:00:00 PM 21.63 70.934 0.314 8.14 6.65 8.64
7/22/2021 10:15:00 PM 21.61 70.898 0.296 8.13 6.49 8.63
7/22/2021 10:30:00 PM 21.6 70.88 0.305 8.13 7.09 8.63
7/22/2021 10:45:00 PM 21.59 70.862 0.427 8.13 7.15 8.63
7/22/2021 11:00:00 PM 21.56 70.808 0.305 8.13 7.52 8.6
7/22/2021 11:15:00 PM 21.54 70.772 0.306 8.12 8.22 8.59
7/22/2021 11:30:00 PM 21.53 70.754 0.313 8.11 7.25 8.58
7/22/2021 11:45:00 PM 21.51 70.718 0.303 8.12 8.45 8.57
7/23/2021 12:00:00 AM 21.48 70.664 0.312 8.12 7.58 8.55
7/23/2021 12:15:00 AM 21.47 70.646 0.275 8.1 6.93 8.55
7/23/2021 12:30:00 AM 21.45 70.61 0.305 8.13 7.42 8.53
7/23/2021 12:45:00 AM 21.43 70.574 0.293 8.11 7.1 8.53
7/23/2021 1:00:00 AM 21.4 70.52 0.278 8.09 7.03 8.48
7/23/2021 1:15:00 AM 21.38 70.484 0.279 8.06 7.09 8.49
7/23/2021 1:30:00 AM 21.36 70.448 0.312 8.1 7.14 8.49
7/23/2021 1:45:00 AM 21.33 70.394 0.322 8.08 7.6 8.48
7/23/2021 2:00:00 AM 21.3 70.34 0.327 8.09 7.55 8.46
7/23/2021 2:15:00 AM 21.28 70.304 0.274 8.07 7.49 8.46
7/23/2021 2:30:00 AM 21.25 70.25 0.284 8.09 7.65 8.45
7/23/2021 2:45:00 AM 21.23 70.214 0.258 8.08 7.96 8.44
7/23/2021 3:00:00 AM 21.2 70.16 0.284 8.07 7.35 8.42
7/23/2021 3:15:00 AM 21.17 70.106 0.318 8.1 7.5 8.41
7/23/2021 3:30:00 AM 21.14 70.052 0.318 8.07 7.44 8.4
7/23/2021 3:45:00 AM 21.11 69.998 0.324 8.08 7.4 8.4
7/23/2021 4:00:00 AM 21.08 69.944 0.27 8.06 7.9 8.38
7/23/2021 4:15:00 AM 21.05 69.89 0.298 8.08 7.56 8.37
7/23/2021 4:30:00 AM 21.01 69.818 0.438 8.06 7.99 8.36
7/23/2021 4:45:00 AM 20.98 69.764 0.32 8.05 9.16 8.35
7/23/2021 5:00:00 AM 20.95 69.71 0.326 8.06 7.23 8.34
7/23/2021 5:15:00 AM 20.91 69.638 0.322 8.05 7.84 8.34
7/23/2021 5:30:00 AM 20.88 69.584 0.312 8.06 7.82 8.32
7/23/2021 5:45:00 AM 20.84 69.512 0.3 8.05 7.4 8.32
7/23/2021 6:00:00 AM 20.81 69.458 0.326 8.02 7.46 8.31
7/23/2021 6:15:00 AM 20.77 69.386 0.318 8.02 8.07 8.31
7/23/2021 6:30:00 AM 20.74 69.332 0.301 8.04 8.09 8.31
7/23/2021 6:45:00 AM 20.71 69.278 0.319 8.02 7.94 8.33
7/23/2021 7:00:00 AM 20.68 69.224 0.317 8.02 6.97 8.35
7/23/2021 7:15:00 AM 20.65 69.17 0.444 8.04 7.67 8.36
7/23/2021 7:30:00 AM 20.61 69.098 0.321 8.03 7.54 8.35
7/23/2021 7:45:00 AM 20.59 69.062 0.281 8.02 6.79 8.36
7/23/2021 8:00:00 AM 20.57 69.026 0.318 8.02 7.21 8.42
7/23/2021 8:15:00 AM 20.55 68.99 0.312 8.03 7.38 8.44
7/23/2021 8:30:00 AM 20.53 68.954 0.305 8.04 7.22 8.44
7/23/2021 8:45:00 AM 20.52 68.936 0.329 8.05 7.41 8.47
7/23/2021 9:00:00 AM 20.52 68.936 0.311 8.05 7.06 8.57
7/23/2021 9:15:00 AM 20.53 68.954 0.445 8.04 6.77 8.6
7/23/2021 9:30:00 AM 20.53 68.954 0.301 8.05 6.85 8.59
7/23/2021 9:45:00 AM 20.56 69.008 0.33 8.06 6.77 8.65
7/23/2021 10:00:00 AM 20.58 69.044 0.309 8.06 6.37 8.67
7/23/2021 10:15:00 AM 20.6 69.08 0.33 8.05 6.38 8.7
7/23/2021 10:30:00 AM 20.64 69.152 0.323 8.07 6.42 8.74
7/23/2021 10:45:00 AM 20.69 69.242